<?xml version='1.0' encoding='UTF-8'?>
<gpx version="1.1" creator="https://www.komoot.de" xmlns="http://www.topografix.com/GPX/1/1" xmlns:xsi="http://www.w3.org/2001/XMLSchema-instance" xsi:schemaLocation="http://www.topografix.com/GPX/1/1 http://www.topografix.com/GPX/1/1/gpx.xsd">
  <metadata>
    <name>26  GWR CAMPIANI + OME</name>
    <author>
      <link href="https://www.komoot.de">
        <text>komoot</text>
        <type>text/html</type>
      </link>
    </author>
  </metadata>
  <trk>
    <name>26  GWR CAMPIANI + OME</name>
    <trkseg>
      <trkpt lat="45.580548" lon="10.228360">
        <ele>179.960480</ele>
        <time>2021-01-22T09:04:34.442Z</time>
      </trkpt>
      <trkpt lat="45.580544" lon="10.228403">
        <ele>179.960480</ele>
        <time>2021-01-22T09:04:34.894Z</time>
      </trkpt>
      <trkpt lat="45.580506" lon="10.228858">
        <ele>179.960480</ele>
        <time>2021-01-22T09:04:40.409Z</time>
      </trkpt>
      <trkpt lat="45.580492" lon="10.228924">
        <ele>179.960480</ele>
        <time>2021-01-22T09:04:41.239Z</time>
      </trkpt>
      <trkpt lat="45.580465" lon="10.228986">
        <ele>179.960480</ele>
        <time>2021-01-22T09:04:42.155Z</time>
      </trkpt>
      <trkpt lat="45.580308" lon="10.229043">
        <ele>179.960480</ele>
        <time>2021-01-22T09:04:44.938Z</time>
      </trkpt>
      <trkpt lat="45.580220" lon="10.229109">
        <ele>179.960480</ele>
        <time>2021-01-22T09:04:46.719Z</time>
      </trkpt>
      <trkpt lat="45.580190" lon="10.229191">
        <ele>179.960480</ele>
        <time>2021-01-22T09:04:47.889Z</time>
      </trkpt>
      <trkpt lat="45.580136" lon="10.229266">
        <ele>179.960480</ele>
        <time>2021-01-22T09:04:49.391Z</time>
      </trkpt>
      <trkpt lat="45.580081" lon="10.229443">
        <ele>180.008567</ele>
        <time>2021-01-22T09:04:51.823Z</time>
      </trkpt>
      <trkpt lat="45.580061" lon="10.229475">
        <ele>180.024952</ele>
        <time>2021-01-22T09:04:52.344Z</time>
      </trkpt>
      <trkpt lat="45.580044" lon="10.229527">
        <ele>180.046871</ele>
        <time>2021-01-22T09:04:53.088Z</time>
      </trkpt>
      <trkpt lat="45.580050" lon="10.229643">
        <ele>180.091295</ele>
        <time>2021-01-22T09:04:54.531Z</time>
      </trkpt>
      <trkpt lat="45.580079" lon="10.229699">
        <ele>180.117900</ele>
        <time>2021-01-22T09:04:55.478Z</time>
      </trkpt>
      <trkpt lat="45.580107" lon="10.229727">
        <ele>180.136549</ele>
        <time>2021-01-22T09:04:56.127Z</time>
      </trkpt>
      <trkpt lat="45.580139" lon="10.229742">
        <ele>180.154926</ele>
        <time>2021-01-22T09:04:56.714Z</time>
      </trkpt>
      <trkpt lat="45.580175" lon="10.229743">
        <ele>180.174574</ele>
        <time>2021-01-22T09:04:57.327Z</time>
      </trkpt>
      <trkpt lat="45.580212" lon="10.229727">
        <ele>180.195668</ele>
        <time>2021-01-22T09:04:57.943Z</time>
      </trkpt>
      <trkpt lat="45.580254" lon="10.229680">
        <ele>180.224779</ele>
        <time>2021-01-22T09:04:58.770Z</time>
      </trkpt>
      <trkpt lat="45.580274" lon="10.229627">
        <ele>180.247775</ele>
        <time>2021-01-22T09:04:59.495Z</time>
      </trkpt>
      <trkpt lat="45.580280" lon="10.229578">
        <ele>180.266773</ele>
        <time>2021-01-22T09:05:00.038Z</time>
      </trkpt>
      <trkpt lat="45.580331" lon="10.229556">
        <ele>180.295843</ele>
        <time>2021-01-22T09:05:00.999Z</time>
      </trkpt>
      <trkpt lat="45.580507" lon="10.229545">
        <ele>180.391972</ele>
        <time>2021-01-22T09:05:03.981Z</time>
      </trkpt>
      <trkpt lat="45.580661" lon="10.229458">
        <ele>180.482336</ele>
        <time>2021-01-22T09:05:06.595Z</time>
      </trkpt>
      <trkpt lat="45.580987" lon="10.229462">
        <ele>180.660230</ele>
        <time>2021-01-22T09:05:11.867Z</time>
      </trkpt>
      <trkpt lat="45.581156" lon="10.229306">
        <ele>180.770019</ele>
        <time>2021-01-22T09:05:15.524Z</time>
      </trkpt>
      <trkpt lat="45.581322" lon="10.229213">
        <ele>180.867314</ele>
        <time>2021-01-22T09:05:18.427Z</time>
      </trkpt>
      <trkpt lat="45.581424" lon="10.229104">
        <ele>180.936818</ele>
        <time>2021-01-22T09:05:20.773Z</time>
      </trkpt>
      <trkpt lat="45.581584" lon="10.229025">
        <ele>181.024327</ele>
        <time>2021-01-22T09:05:23.444Z</time>
      </trkpt>
      <trkpt lat="45.581880" lon="10.228856">
        <ele>181.188567</ele>
        <time>2021-01-22T09:05:29.013Z</time>
      </trkpt>
      <trkpt lat="45.582193" lon="10.228590">
        <ele>181.376212</ele>
        <time>2021-01-22T09:05:35.060Z</time>
      </trkpt>
      <trkpt lat="45.582423" lon="10.228349">
        <ele>181.523171</ele>
        <time>2021-01-22T09:05:39.687Z</time>
      </trkpt>
      <trkpt lat="45.582888" lon="10.227768">
        <ele>181.841450</ele>
        <time>2021-01-22T09:05:49.721Z</time>
      </trkpt>
      <trkpt lat="45.582998" lon="10.227584">
        <ele>181.959064</ele>
        <time>2021-01-22T09:05:52.821Z</time>
      </trkpt>
      <trkpt lat="45.583481" lon="10.227014">
        <ele>182.445056</ele>
        <time>2021-01-22T09:06:04.489Z</time>
      </trkpt>
      <trkpt lat="45.583887" lon="10.226555">
        <ele>182.846699</ele>
        <time>2021-01-22T09:06:13.830Z</time>
      </trkpt>
      <trkpt lat="45.583907" lon="10.226298">
        <ele>182.987097</ele>
        <time>2021-01-22T09:06:16.998Z</time>
      </trkpt>
      <trkpt lat="45.583917" lon="10.226238">
        <ele>183.020585</ele>
        <time>2021-01-22T09:06:17.887Z</time>
      </trkpt>
      <trkpt lat="45.584209" lon="10.224484">
        <ele>183.438851</ele>
        <time>2021-01-22T09:06:40.347Z</time>
      </trkpt>
      <trkpt lat="45.584541" lon="10.224570">
        <ele>183.501062</ele>
        <time>2021-01-22T09:06:45.342Z</time>
      </trkpt>
      <trkpt lat="45.584634" lon="10.224574">
        <ele>183.518216</ele>
        <time>2021-01-22T09:06:46.892Z</time>
      </trkpt>
      <trkpt lat="45.584650" lon="10.224468">
        <ele>183.532209</ele>
        <time>2021-01-22T09:06:47.835Z</time>
      </trkpt>
      <trkpt lat="45.584775" lon="10.223612">
        <ele>183.373335</ele>
        <time>2021-01-22T09:06:55.712Z</time>
      </trkpt>
      <trkpt lat="45.584831" lon="10.223252">
        <ele>183.158897</ele>
        <time>2021-01-22T09:06:58.731Z</time>
      </trkpt>
      <trkpt lat="45.584856" lon="10.223093">
        <ele>183.064139</ele>
        <time>2021-01-22T09:07:00.207Z</time>
      </trkpt>
      <trkpt lat="45.584892" lon="10.222741">
        <ele>182.857287</ele>
        <time>2021-01-22T09:07:03.157Z</time>
      </trkpt>
      <trkpt lat="45.584910" lon="10.222419">
        <ele>182.669458</ele>
        <time>2021-01-22T09:07:05.944Z</time>
      </trkpt>
      <trkpt lat="45.584921" lon="10.221940">
        <ele>182.390784</ele>
        <time>2021-01-22T09:07:10.133Z</time>
      </trkpt>
      <trkpt lat="45.584918" lon="10.221640">
        <ele>182.216325</ele>
        <time>2021-01-22T09:07:12.843Z</time>
      </trkpt>
      <trkpt lat="45.584919" lon="10.221596">
        <ele>182.190727</ele>
        <time>2021-01-22T09:07:13.284Z</time>
      </trkpt>
      <trkpt lat="45.584921" lon="10.221432">
        <ele>182.101491</ele>
        <time>2021-01-22T09:07:14.793Z</time>
      </trkpt>
      <trkpt lat="45.584926" lon="10.221151">
        <ele>182.106742</ele>
        <time>2021-01-22T09:07:17.315Z</time>
      </trkpt>
      <trkpt lat="45.584926" lon="10.221081">
        <ele>182.108050</ele>
        <time>2021-01-22T09:07:18.010Z</time>
      </trkpt>
      <trkpt lat="45.584927" lon="10.221016">
        <ele>182.109264</ele>
        <time>2021-01-22T09:07:18.624Z</time>
      </trkpt>
      <trkpt lat="45.584934" lon="10.220297">
        <ele>182.122698</ele>
        <time>2021-01-22T09:07:25.315Z</time>
      </trkpt>
      <trkpt lat="45.584934" lon="10.220251">
        <ele>182.123557</ele>
        <time>2021-01-22T09:07:25.752Z</time>
      </trkpt>
      <trkpt lat="45.584938" lon="10.219853">
        <ele>182.130993</ele>
        <time>2021-01-22T09:07:29.596Z</time>
      </trkpt>
      <trkpt lat="45.584941" lon="10.219690">
        <ele>182.134040</ele>
        <time>2021-01-22T09:07:31.312Z</time>
      </trkpt>
      <trkpt lat="45.584941" lon="10.219530">
        <ele>182.137029</ele>
        <time>2021-01-22T09:07:33.088Z</time>
      </trkpt>
      <trkpt lat="45.584950" lon="10.218541">
        <ele>182.381641</ele>
        <time>2021-01-22T09:07:46.474Z</time>
      </trkpt>
      <trkpt lat="45.584952" lon="10.218310">
        <ele>182.543524</ele>
        <time>2021-01-22T09:07:49.689Z</time>
      </trkpt>
      <trkpt lat="45.584958" lon="10.217960">
        <ele>182.788855</ele>
        <time>2021-01-22T09:07:54.683Z</time>
      </trkpt>
      <trkpt lat="45.584960" lon="10.217854">
        <ele>182.863160</ele>
        <time>2021-01-22T09:07:56.136Z</time>
      </trkpt>
      <trkpt lat="45.584970" lon="10.217076">
        <ele>183.408423</ele>
        <time>2021-01-22T09:08:06.170Z</time>
      </trkpt>
      <trkpt lat="45.584979" lon="10.216531">
        <ele>183.790430</ele>
        <time>2021-01-22T09:08:13.209Z</time>
      </trkpt>
      <trkpt lat="45.585008" lon="10.216522">
        <ele>183.820144</ele>
        <time>2021-01-22T09:08:13.757Z</time>
      </trkpt>
      <trkpt lat="45.585054" lon="10.216467">
        <ele>183.880200</ele>
        <time>2021-01-22T09:08:14.730Z</time>
      </trkpt>
      <trkpt lat="45.585065" lon="10.216428">
        <ele>183.909664</ele>
        <time>2021-01-22T09:08:15.301Z</time>
      </trkpt>
      <trkpt lat="45.585067" lon="10.216386">
        <ele>183.939163</ele>
        <time>2021-01-22T09:08:15.891Z</time>
      </trkpt>
      <trkpt lat="45.585044" lon="10.216308">
        <ele>183.976100</ele>
        <time>2021-01-22T09:08:16.943Z</time>
      </trkpt>
      <trkpt lat="45.585021" lon="10.216282">
        <ele>183.991846</ele>
        <time>2021-01-22T09:08:17.532Z</time>
      </trkpt>
      <trkpt lat="45.584961" lon="10.216126">
        <ele>184.058734</ele>
        <time>2021-01-22T09:08:19.810Z</time>
      </trkpt>
      <trkpt lat="45.584955" lon="10.215846">
        <ele>184.163998</ele>
        <time>2021-01-22T09:08:23.470Z</time>
      </trkpt>
      <trkpt lat="45.584959" lon="10.215782">
        <ele>184.188142</ele>
        <time>2021-01-22T09:08:24.369Z</time>
      </trkpt>
      <trkpt lat="45.584976" lon="10.215644">
        <ele>184.240795</ele>
        <time>2021-01-22T09:08:26.223Z</time>
      </trkpt>
      <trkpt lat="45.585032" lon="10.215303">
        <ele>184.372411</ele>
        <time>2021-01-22T09:08:30.790Z</time>
      </trkpt>
      <trkpt lat="45.585088" lon="10.215019">
        <ele>184.483282</ele>
        <time>2021-01-22T09:08:34.440Z</time>
      </trkpt>
      <trkpt lat="45.585120" lon="10.214869">
        <ele>184.542207</ele>
        <time>2021-01-22T09:08:36.406Z</time>
      </trkpt>
      <trkpt lat="45.585362" lon="10.213744">
        <ele>184.916172</ele>
        <time>2021-01-22T09:08:48.838Z</time>
      </trkpt>
      <trkpt lat="45.585384" lon="10.213620">
        <ele>184.916325</ele>
        <time>2021-01-22T09:08:50.004Z</time>
      </trkpt>
      <trkpt lat="45.585417" lon="10.213453">
        <ele>184.916531</ele>
        <time>2021-01-22T09:08:51.771Z</time>
      </trkpt>
      <trkpt lat="45.585373" lon="10.213295">
        <ele>184.916733</ele>
        <time>2021-01-22T09:08:53.553Z</time>
      </trkpt>
      <trkpt lat="45.584748" lon="10.213084">
        <ele>184.917824</ele>
        <time>2021-01-22T09:09:03.210Z</time>
      </trkpt>
      <trkpt lat="45.584668" lon="10.213005">
        <ele>184.917989</ele>
        <time>2021-01-22T09:09:04.671Z</time>
      </trkpt>
      <trkpt lat="45.584279" lon="10.212902">
        <ele>184.918662</ele>
        <time>2021-01-22T09:09:10.529Z</time>
      </trkpt>
      <trkpt lat="45.584167" lon="10.212873">
        <ele>184.918855</ele>
        <time>2021-01-22T09:09:12.216Z</time>
      </trkpt>
      <trkpt lat="45.584234" lon="10.212550">
        <ele>184.928255</ele>
        <time>2021-01-22T09:09:15.895Z</time>
      </trkpt>
      <trkpt lat="45.584275" lon="10.212369">
        <ele>184.936826</ele>
        <time>2021-01-22T09:09:17.717Z</time>
      </trkpt>
      <trkpt lat="45.584308" lon="10.212219">
        <ele>184.943909</ele>
        <time>2021-01-22T09:09:19.521Z</time>
      </trkpt>
      <trkpt lat="45.584361" lon="10.212120">
        <ele>184.949525</ele>
        <time>2021-01-22T09:09:20.744Z</time>
      </trkpt>
      <trkpt lat="45.584386" lon="10.212088">
        <ele>184.951685</ele>
        <time>2021-01-22T09:09:21.230Z</time>
      </trkpt>
      <trkpt lat="45.584420" lon="10.212045">
        <ele>184.954608</ele>
        <time>2021-01-22T09:09:21.838Z</time>
      </trkpt>
      <trkpt lat="45.584551" lon="10.211864">
        <ele>184.966339</ele>
        <time>2021-01-22T09:09:24.515Z</time>
      </trkpt>
      <trkpt lat="45.584571" lon="10.211836">
        <ele>184.968141</ele>
        <time>2021-01-22T09:09:24.973Z</time>
      </trkpt>
      <trkpt lat="45.584648" lon="10.211718">
        <ele>184.975409</ele>
        <time>2021-01-22T09:09:26.490Z</time>
      </trkpt>
      <trkpt lat="45.584750" lon="10.211493">
        <ele>184.987486</ele>
        <time>2021-01-22T09:09:29.114Z</time>
      </trkpt>
      <trkpt lat="45.584788" lon="10.211326">
        <ele>184.995398</ele>
        <time>2021-01-22T09:09:30.833Z</time>
      </trkpt>
      <trkpt lat="45.584840" lon="10.210888">
        <ele>185.015412</ele>
        <time>2021-01-22T09:09:35.411Z</time>
      </trkpt>
      <trkpt lat="45.584856" lon="10.210568">
        <ele>185.029865</ele>
        <time>2021-01-22T09:09:39.113Z</time>
      </trkpt>
      <trkpt lat="45.584855" lon="10.210125">
        <ele>185.439454</ele>
        <time>2021-01-22T09:09:44.327Z</time>
      </trkpt>
      <trkpt lat="45.584647" lon="10.209466">
        <ele>186.316371</ele>
        <time>2021-01-22T09:09:53.704Z</time>
      </trkpt>
      <trkpt lat="45.584572" lon="10.209069">
        <ele>186.815179</ele>
        <time>2021-01-22T09:09:59.642Z</time>
      </trkpt>
      <trkpt lat="45.584536" lon="10.208846">
        <ele>187.092787</ele>
        <time>2021-01-22T09:10:03.721Z</time>
      </trkpt>
      <trkpt lat="45.584529" lon="10.208656">
        <ele>187.323582</ele>
        <time>2021-01-22T09:10:06.274Z</time>
      </trkpt>
      <trkpt lat="45.584516" lon="10.208326">
        <ele>187.724514</ele>
        <time>2021-01-22T09:10:11.911Z</time>
      </trkpt>
      <trkpt lat="45.584471" lon="10.208051">
        <ele>188.067094</ele>
        <time>2021-01-22T09:10:16.232Z</time>
      </trkpt>
      <trkpt lat="45.584421" lon="10.207930">
        <ele>188.470228</ele>
        <time>2021-01-22T09:10:19.366Z</time>
      </trkpt>
      <trkpt lat="45.584389" lon="10.207851">
        <ele>188.883160</ele>
        <time>2021-01-22T09:10:21.305Z</time>
      </trkpt>
      <trkpt lat="45.584223" lon="10.207560">
        <ele>190.581526</ele>
        <time>2021-01-22T09:10:28.976Z</time>
      </trkpt>
      <trkpt lat="45.584177" lon="10.207393">
        <ele>191.393429</ele>
        <time>2021-01-22T09:10:33.967Z</time>
      </trkpt>
      <trkpt lat="45.583723" lon="10.206343">
        <ele>196.976981</ele>
        <time>2021-01-22T09:11:10.658Z</time>
      </trkpt>
      <trkpt lat="45.583534" lon="10.205893">
        <ele>199.351211</ele>
        <time>2021-01-22T09:11:28.838Z</time>
      </trkpt>
      <trkpt lat="45.583536" lon="10.205792">
        <ele>199.820298</ele>
        <time>2021-01-22T09:11:32.414Z</time>
      </trkpt>
      <trkpt lat="45.583581" lon="10.205171">
        <ele>203.790580</ele>
        <time>2021-01-22T09:11:55.536Z</time>
      </trkpt>
      <trkpt lat="45.583635" lon="10.204533">
        <ele>207.877418</ele>
        <time>2021-01-22T09:12:19.383Z</time>
      </trkpt>
      <trkpt lat="45.583694" lon="10.204008">
        <ele>211.258850</ele>
        <time>2021-01-22T09:12:39.343Z</time>
      </trkpt>
      <trkpt lat="45.583695" lon="10.203889">
        <ele>212.015668</ele>
        <time>2021-01-22T09:12:43.536Z</time>
      </trkpt>
      <trkpt lat="45.583683" lon="10.203591">
        <ele>213.913890</ele>
        <time>2021-01-22T09:12:54.403Z</time>
      </trkpt>
      <trkpt lat="45.583641" lon="10.202971">
        <ele>217.457106</ele>
        <time>2021-01-22T09:13:15.975Z</time>
      </trkpt>
      <trkpt lat="45.583639" lon="10.202951">
        <ele>217.554947</ele>
        <time>2021-01-22T09:13:16.638Z</time>
      </trkpt>
      <trkpt lat="45.583440" lon="10.202278">
        <ele>221.093158</ele>
        <time>2021-01-22T09:13:40.018Z</time>
      </trkpt>
      <trkpt lat="45.583301" lon="10.201596">
        <ele>224.533211</ele>
        <time>2021-01-22T09:13:59.972Z</time>
      </trkpt>
      <trkpt lat="45.583214" lon="10.201055">
        <ele>227.221495</ele>
        <time>2021-01-22T09:14:14.107Z</time>
      </trkpt>
      <trkpt lat="45.583197" lon="10.200552">
        <ele>230.017911</ele>
        <time>2021-01-22T09:14:26.177Z</time>
      </trkpt>
      <trkpt lat="45.583194" lon="10.200113">
        <ele>232.840256</ele>
        <time>2021-01-22T09:14:39.474Z</time>
      </trkpt>
      <trkpt lat="45.583211" lon="10.200029">
        <ele>233.402393</ele>
        <time>2021-01-22T09:14:43.410Z</time>
      </trkpt>
      <trkpt lat="45.583314" lon="10.199959">
        <ele>234.450075</ele>
        <time>2021-01-22T09:14:48.297Z</time>
      </trkpt>
      <trkpt lat="45.583356" lon="10.200091">
        <ele>235.382245</ele>
        <time>2021-01-22T09:14:52.650Z</time>
      </trkpt>
      <trkpt lat="45.583410" lon="10.200945">
        <ele>240.894719</ele>
        <time>2021-01-22T09:15:26.689Z</time>
      </trkpt>
      <trkpt lat="45.583445" lon="10.201144">
        <ele>242.213808</ele>
        <time>2021-01-22T09:15:34.188Z</time>
      </trkpt>
      <trkpt lat="45.583510" lon="10.201187">
        <ele>242.871758</ele>
        <time>2021-01-22T09:15:38.958Z</time>
      </trkpt>
      <trkpt lat="45.583529" lon="10.201176">
        <ele>243.060066</ele>
        <time>2021-01-22T09:15:40.514Z</time>
      </trkpt>
      <trkpt lat="45.583542" lon="10.201163">
        <ele>243.205818</ele>
        <time>2021-01-22T09:15:41.772Z</time>
      </trkpt>
      <trkpt lat="45.583557" lon="10.201148">
        <ele>243.373993</ele>
        <time>2021-01-22T09:15:43.021Z</time>
      </trkpt>
      <trkpt lat="45.583575" lon="10.201120">
        <ele>243.618408</ele>
        <time>2021-01-22T09:15:44.720Z</time>
      </trkpt>
      <trkpt lat="45.583576" lon="10.201070">
        <ele>243.939973</ele>
        <time>2021-01-22T09:15:46.215Z</time>
      </trkpt>
      <trkpt lat="45.583560" lon="10.200894">
        <ele>245.080927</ele>
        <time>2021-01-22T09:15:51.959Z</time>
      </trkpt>
      <trkpt lat="45.583542" lon="10.200659">
        <ele>246.818142</ele>
        <time>2021-01-22T09:16:03.595Z</time>
      </trkpt>
      <trkpt lat="45.583548" lon="10.200426">
        <ele>248.532768</ele>
        <time>2021-01-22T09:16:15.201Z</time>
      </trkpt>
      <trkpt lat="45.583657" lon="10.199999">
        <ele>251.875247</ele>
        <time>2021-01-22T09:16:37.068Z</time>
      </trkpt>
      <trkpt lat="45.583852" lon="10.199726">
        <ele>254.743843</ele>
        <time>2021-01-22T09:16:52.114Z</time>
      </trkpt>
      <trkpt lat="45.584154" lon="10.199531">
        <ele>258.226107</ele>
        <time>2021-01-22T09:17:09.349Z</time>
      </trkpt>
      <trkpt lat="45.584538" lon="10.199585">
        <ele>262.280516</ele>
        <time>2021-01-22T09:17:30.872Z</time>
      </trkpt>
      <trkpt lat="45.584548" lon="10.199582">
        <ele>262.387883</ele>
        <time>2021-01-22T09:17:32.617Z</time>
      </trkpt>
      <trkpt lat="45.584574" lon="10.199573">
        <ele>262.668983</ele>
        <time>2021-01-22T09:17:33.826Z</time>
      </trkpt>
      <trkpt lat="45.584616" lon="10.199500">
        <ele>263.363926</ele>
        <time>2021-01-22T09:17:34.442Z</time>
      </trkpt>
      <trkpt lat="45.584647" lon="10.199389">
        <ele>264.194883</ele>
        <time>2021-01-22T09:17:37.520Z</time>
      </trkpt>
      <trkpt lat="45.584620" lon="10.199150">
        <ele>265.638852</ele>
        <time>2021-01-22T09:17:44.094Z</time>
      </trkpt>
      <trkpt lat="45.584304" lon="10.198630">
        <ele>269.746460</ele>
        <time>2021-01-22T09:18:06.612Z</time>
      </trkpt>
      <trkpt lat="45.583947" lon="10.198226">
        <ele>273.627638</ele>
        <time>2021-01-22T09:18:28.093Z</time>
      </trkpt>
      <trkpt lat="45.583698" lon="10.197979">
        <ele>276.211004</ele>
        <time>2021-01-22T09:18:42.190Z</time>
      </trkpt>
      <trkpt lat="45.583566" lon="10.197743">
        <ele>278.012955</ele>
        <time>2021-01-22T09:18:54.536Z</time>
      </trkpt>
      <trkpt lat="45.583264" lon="10.196594">
        <ele>286.334621</ele>
        <time>2021-01-22T09:19:37.948Z</time>
      </trkpt>
      <trkpt lat="45.583241" lon="10.196487">
        <ele>287.113352</ele>
        <time>2021-01-22T09:19:46.263Z</time>
      </trkpt>
      <trkpt lat="45.583233" lon="10.196455">
        <ele>287.349758</ele>
        <time>2021-01-22T09:19:48.312Z</time>
      </trkpt>
      <trkpt lat="45.583009" lon="10.196322">
        <ele>289.761046</ele>
        <time>2021-01-22T09:19:57.521Z</time>
      </trkpt>
      <trkpt lat="45.582958" lon="10.196287">
        <ele>290.323460</ele>
        <time>2021-01-22T09:20:02.833Z</time>
      </trkpt>
      <trkpt lat="45.582930" lon="10.196233">
        <ele>290.791019</ele>
        <time>2021-01-22T09:20:07.725Z</time>
      </trkpt>
      <trkpt lat="45.582895" lon="10.196060">
        <ele>292.043886</ele>
        <time>2021-01-22T09:20:11.888Z</time>
      </trkpt>
      <trkpt lat="45.582914" lon="10.195952">
        <ele>292.818634</ele>
        <time>2021-01-22T09:20:16.058Z</time>
      </trkpt>
      <trkpt lat="45.582937" lon="10.195902">
        <ele>293.234902</ele>
        <time>2021-01-22T09:20:17.162Z</time>
      </trkpt>
      <trkpt lat="45.583137" lon="10.195783">
        <ele>295.388506</ele>
        <time>2021-01-22T09:20:30.781Z</time>
      </trkpt>
      <trkpt lat="45.583852" lon="10.195794">
        <ele>300.982018</ele>
        <time>2021-01-22T09:21:10.116Z</time>
      </trkpt>
      <trkpt lat="45.583867" lon="10.195791">
        <ele>301.089549</ele>
        <time>2021-01-22T09:21:10.374Z</time>
      </trkpt>
      <trkpt lat="45.583948" lon="10.195774">
        <ele>301.670781</ele>
        <time>2021-01-22T09:21:14.942Z</time>
      </trkpt>
      <trkpt lat="45.584018" lon="10.195690">
        <ele>302.319760</ele>
        <time>2021-01-22T09:21:18.584Z</time>
      </trkpt>
      <trkpt lat="45.583988" lon="10.195540">
        <ele>303.094899</ele>
        <time>2021-01-22T09:21:23.590Z</time>
      </trkpt>
      <trkpt lat="45.583668" lon="10.195269">
        <ele>305.735809</ele>
        <time>2021-01-22T09:21:37.684Z</time>
      </trkpt>
      <trkpt lat="45.583111" lon="10.194863">
        <ele>310.014241</ele>
        <time>2021-01-22T09:22:00.238Z</time>
      </trkpt>
      <trkpt lat="45.582938" lon="10.194765">
        <ele>310.313420</ele>
        <time>2021-01-22T09:22:06.656Z</time>
      </trkpt>
      <trkpt lat="45.582839" lon="10.194686">
        <ele>310.495713</ele>
        <time>2021-01-22T09:22:11.081Z</time>
      </trkpt>
      <trkpt lat="45.582807" lon="10.194661">
        <ele>310.554345</ele>
        <time>2021-01-22T09:22:12.008Z</time>
      </trkpt>
      <trkpt lat="45.582730" lon="10.194597">
        <ele>310.697553</ele>
        <time>2021-01-22T09:22:13.970Z</time>
      </trkpt>
      <trkpt lat="45.582669" lon="10.194564">
        <ele>310.802411</ele>
        <time>2021-01-22T09:22:16.008Z</time>
      </trkpt>
      <trkpt lat="45.582044" lon="10.194689">
        <ele>311.816971</ele>
        <time>2021-01-22T09:22:30.845Z</time>
      </trkpt>
      <trkpt lat="45.582669" lon="10.194564">
        <ele>312.831530</ele>
        <time>2021-01-22T09:22:40.236Z</time>
      </trkpt>
      <trkpt lat="45.582730" lon="10.194597">
        <ele>312.611606</ele>
        <time>2021-01-22T09:22:40.881Z</time>
      </trkpt>
      <trkpt lat="45.582807" lon="10.194661">
        <ele>312.156137</ele>
        <time>2021-01-22T09:22:41.714Z</time>
      </trkpt>
      <trkpt lat="45.582839" lon="10.194686">
        <ele>311.969660</ele>
        <time>2021-01-22T09:22:42.101Z</time>
      </trkpt>
      <trkpt lat="45.582826" lon="10.194563">
        <ele>311.524516</ele>
        <time>2021-01-22T09:22:43.089Z</time>
      </trkpt>
      <trkpt lat="45.582845" lon="10.194353">
        <ele>310.766783</ele>
        <time>2021-01-22T09:22:44.527Z</time>
      </trkpt>
      <trkpt lat="45.582866" lon="10.194314">
        <ele>310.590697</ele>
        <time>2021-01-22T09:22:44.835Z</time>
      </trkpt>
      <trkpt lat="45.582890" lon="10.194264">
        <ele>310.373736</ele>
        <time>2021-01-22T09:22:45.202Z</time>
      </trkpt>
      <trkpt lat="45.582897" lon="10.194246">
        <ele>310.300048</ele>
        <time>2021-01-22T09:22:45.322Z</time>
      </trkpt>
      <trkpt lat="45.583012" lon="10.194158">
        <ele>309.633037</ele>
        <time>2021-01-22T09:22:46.689Z</time>
      </trkpt>
      <trkpt lat="45.583451" lon="10.194131">
        <ele>307.386349</ele>
        <time>2021-01-22T09:22:50.841Z</time>
      </trkpt>
      <trkpt lat="45.583536" lon="10.194075">
        <ele>306.907768</ele>
        <time>2021-01-22T09:22:51.658Z</time>
      </trkpt>
      <trkpt lat="45.583555" lon="10.194001">
        <ele>306.625707</ele>
        <time>2021-01-22T09:22:52.123Z</time>
      </trkpt>
      <trkpt lat="45.583551" lon="10.193929">
        <ele>306.367249</ele>
        <time>2021-01-22T09:22:52.610Z</time>
      </trkpt>
      <trkpt lat="45.583477" lon="10.193279">
        <ele>304.010695</ele>
        <time>2021-01-22T09:22:56.904Z</time>
      </trkpt>
      <trkpt lat="45.583486" lon="10.193192">
        <ele>303.695988</ele>
        <time>2021-01-22T09:22:57.492Z</time>
      </trkpt>
      <trkpt lat="45.583497" lon="10.193169">
        <ele>303.545677</ele>
        <time>2021-01-22T09:22:57.664Z</time>
      </trkpt>
      <trkpt lat="45.583555" lon="10.192946">
        <ele>302.040595</ele>
        <time>2021-01-22T09:22:59.115Z</time>
      </trkpt>
      <trkpt lat="45.583642" lon="10.192668">
        <ele>300.114005</ele>
        <time>2021-01-22T09:23:01.049Z</time>
      </trkpt>
      <trkpt lat="45.583643" lon="10.192355">
        <ele>298.133792</ele>
        <time>2021-01-22T09:23:02.963Z</time>
      </trkpt>
      <trkpt lat="45.583696" lon="10.192150">
        <ele>296.751200</ele>
        <time>2021-01-22T09:23:04.274Z</time>
      </trkpt>
      <trkpt lat="45.583710" lon="10.192120">
        <ele>296.523082</ele>
        <time>2021-01-22T09:23:04.484Z</time>
      </trkpt>
      <trkpt lat="45.583900" lon="10.191708">
        <ele>293.401585</ele>
        <time>2021-01-22T09:23:07.440Z</time>
      </trkpt>
      <trkpt lat="45.584098" lon="10.191423">
        <ele>290.861024</ele>
        <time>2021-01-22T09:23:09.881Z</time>
      </trkpt>
      <trkpt lat="45.584108" lon="10.191394">
        <ele>290.656496</ele>
        <time>2021-01-22T09:23:10.070Z</time>
      </trkpt>
      <trkpt lat="45.584128" lon="10.191336">
        <ele>290.247442</ele>
        <time>2021-01-22T09:23:10.465Z</time>
      </trkpt>
      <trkpt lat="45.584136" lon="10.191237">
        <ele>289.616963</ele>
        <time>2021-01-22T09:23:11.085Z</time>
      </trkpt>
      <trkpt lat="45.584140" lon="10.191143">
        <ele>289.021180</ele>
        <time>2021-01-22T09:23:11.691Z</time>
      </trkpt>
      <trkpt lat="45.584143" lon="10.191060">
        <ele>288.495386</ele>
        <time>2021-01-22T09:23:12.208Z</time>
      </trkpt>
      <trkpt lat="45.584139" lon="10.191015">
        <ele>288.208409</ele>
        <time>2021-01-22T09:23:12.472Z</time>
      </trkpt>
      <trkpt lat="45.584115" lon="10.190732">
        <ele>286.393671</ele>
        <time>2021-01-22T09:23:14.207Z</time>
      </trkpt>
      <trkpt lat="45.584126" lon="10.190588">
        <ele>285.466918</ele>
        <time>2021-01-22T09:23:15.173Z</time>
      </trkpt>
      <trkpt lat="45.584161" lon="10.190521">
        <ele>284.932023</ele>
        <time>2021-01-22T09:23:15.673Z</time>
      </trkpt>
      <trkpt lat="45.584175" lon="10.190495">
        <ele>284.722145</ele>
        <time>2021-01-22T09:23:15.859Z</time>
      </trkpt>
      <trkpt lat="45.584465" lon="10.190129">
        <ele>281.185053</ele>
        <time>2021-01-22T09:23:19.193Z</time>
      </trkpt>
      <trkpt lat="45.584478" lon="10.190112">
        <ele>281.023957</ele>
        <time>2021-01-22T09:23:19.343Z</time>
      </trkpt>
      <trkpt lat="45.584859" lon="10.189748">
        <ele>276.834221</ele>
        <time>2021-01-22T09:23:23.309Z</time>
      </trkpt>
      <trkpt lat="45.585423" lon="10.189488">
        <ele>271.416723</ele>
        <time>2021-01-22T09:23:28.451Z</time>
      </trkpt>
      <trkpt lat="45.585655" lon="10.189415">
        <ele>269.349293</ele>
        <time>2021-01-22T09:23:30.611Z</time>
      </trkpt>
      <trkpt lat="45.585783" lon="10.189359">
        <ele>268.199884</ele>
        <time>2021-01-22T09:23:31.799Z</time>
      </trkpt>
      <trkpt lat="45.585868" lon="10.189211">
        <ele>267.049413</ele>
        <time>2021-01-22T09:23:33.018Z</time>
      </trkpt>
      <trkpt lat="45.585957" lon="10.188310">
        <ele>261.581612</ele>
        <time>2021-01-22T09:23:38.782Z</time>
      </trkpt>
      <trkpt lat="45.586282" lon="10.187910">
        <ele>257.898615</ele>
        <time>2021-01-22T09:23:42.545Z</time>
      </trkpt>
      <trkpt lat="45.586297" lon="10.187892">
        <ele>257.730427</ele>
        <time>2021-01-22T09:23:42.710Z</time>
      </trkpt>
      <trkpt lat="45.586568" lon="10.187553">
        <ele>254.134557</ele>
        <time>2021-01-22T09:23:45.762Z</time>
      </trkpt>
      <trkpt lat="45.586727" lon="10.187354">
        <ele>251.280998</ele>
        <time>2021-01-22T09:23:47.572Z</time>
      </trkpt>
      <trkpt lat="45.586787" lon="10.187213">
        <ele>249.721887</ele>
        <time>2021-01-22T09:23:48.573Z</time>
      </trkpt>
      <trkpt lat="45.586827" lon="10.187068">
        <ele>248.249332</ele>
        <time>2021-01-22T09:23:49.481Z</time>
      </trkpt>
      <trkpt lat="45.587008" lon="10.186168">
        <ele>239.401988</ele>
        <time>2021-01-22T09:23:54.957Z</time>
      </trkpt>
      <trkpt lat="45.587065" lon="10.185788">
        <ele>235.730213</ele>
        <time>2021-01-22T09:23:57.226Z</time>
      </trkpt>
      <trkpt lat="45.587085" lon="10.185347">
        <ele>231.554918</ele>
        <time>2021-01-22T09:23:59.800Z</time>
      </trkpt>
      <trkpt lat="45.587055" lon="10.184577">
        <ele>224.330287</ele>
        <time>2021-01-22T09:24:04.321Z</time>
      </trkpt>
      <trkpt lat="45.587031" lon="10.184397">
        <ele>222.614363</ele>
        <time>2021-01-22T09:24:05.388Z</time>
      </trkpt>
      <trkpt lat="45.586927" lon="10.184129">
        <ele>219.744668</ele>
        <time>2021-01-22T09:24:07.190Z</time>
      </trkpt>
      <trkpt lat="45.586803" lon="10.184065">
        <ele>217.980483</ele>
        <time>2021-01-22T09:24:08.284Z</time>
      </trkpt>
      <trkpt lat="45.586409" lon="10.184100">
        <ele>212.698130</ele>
        <time>2021-01-22T09:24:11.593Z</time>
      </trkpt>
      <trkpt lat="45.585913" lon="10.184293">
        <ele>206.113768</ele>
        <time>2021-01-22T09:24:15.932Z</time>
      </trkpt>
      <trkpt lat="45.585786" lon="10.184326">
        <ele>204.763863</ele>
        <time>2021-01-22T09:24:17.036Z</time>
      </trkpt>
      <trkpt lat="45.585660" lon="10.184330">
        <ele>203.445872</ele>
        <time>2021-01-22T09:24:18.109Z</time>
      </trkpt>
      <trkpt lat="45.585595" lon="10.184285">
        <ele>202.690542</ele>
        <time>2021-01-22T09:24:18.727Z</time>
      </trkpt>
      <trkpt lat="45.585549" lon="10.184201">
        <ele>201.909928</ele>
        <time>2021-01-22T09:24:19.376Z</time>
      </trkpt>
      <trkpt lat="45.585431" lon="10.183946">
        <ele>199.672572</ele>
        <time>2021-01-22T09:24:21.226Z</time>
      </trkpt>
      <trkpt lat="45.585399" lon="10.183853">
        <ele>198.914111</ele>
        <time>2021-01-22T09:24:21.842Z</time>
      </trkpt>
      <trkpt lat="45.585297" lon="10.183557">
        <ele>196.499388</ele>
        <time>2021-01-22T09:24:23.839Z</time>
      </trkpt>
      <trkpt lat="45.585254" lon="10.183052">
        <ele>192.776156</ele>
        <time>2021-01-22T09:24:26.925Z</time>
      </trkpt>
      <trkpt lat="45.585225" lon="10.182810">
        <ele>190.979237</ele>
        <time>2021-01-22T09:24:28.390Z</time>
      </trkpt>
      <trkpt lat="45.585172" lon="10.182358">
        <ele>187.845910</ele>
        <time>2021-01-22T09:24:31.150Z</time>
      </trkpt>
      <trkpt lat="45.585151" lon="10.182180">
        <ele>186.923341</ele>
        <time>2021-01-22T09:24:32.249Z</time>
      </trkpt>
      <trkpt lat="45.585083" lon="10.181859">
        <ele>185.209243</ele>
        <time>2021-01-22T09:24:34.289Z</time>
      </trkpt>
      <trkpt lat="45.585011" lon="10.181056">
        <ele>181.071667</ele>
        <time>2021-01-22T09:24:39.387Z</time>
      </trkpt>
      <trkpt lat="45.584999" lon="10.180845">
        <ele>179.989717</ele>
        <time>2021-01-22T09:24:40.726Z</time>
      </trkpt>
      <trkpt lat="45.584948" lon="10.180306">
        <ele>177.209890</ele>
        <time>2021-01-22T09:24:44.229Z</time>
      </trkpt>
      <trkpt lat="45.584974" lon="10.180026">
        <ele>175.766302</ele>
        <time>2021-01-22T09:24:49.548Z</time>
      </trkpt>
      <trkpt lat="45.584927" lon="10.180091">
        <ele>175.288631</ele>
        <time>2021-01-22T09:24:51.326Z</time>
      </trkpt>
      <trkpt lat="45.584864" lon="10.180154">
        <ele>174.873538</ele>
        <time>2021-01-22T09:24:53.404Z</time>
      </trkpt>
      <trkpt lat="45.584786" lon="10.180197">
        <ele>174.443666</ele>
        <time>2021-01-22T09:24:55.681Z</time>
      </trkpt>
      <trkpt lat="45.584465" lon="10.180299">
        <ele>172.752838</ele>
        <time>2021-01-22T09:25:04.709Z</time>
      </trkpt>
      <trkpt lat="45.584254" lon="10.180351">
        <ele>171.651905</ele>
        <time>2021-01-22T09:25:10.557Z</time>
      </trkpt>
      <trkpt lat="45.584219" lon="10.180334">
        <ele>171.461830</ele>
        <time>2021-01-22T09:25:11.564Z</time>
      </trkpt>
      <trkpt lat="45.584174" lon="10.180077">
        <ele>170.508505</ele>
        <time>2021-01-22T09:25:16.657Z</time>
      </trkpt>
      <trkpt lat="45.584104" lon="10.179703">
        <ele>169.115360</ele>
        <time>2021-01-22T09:25:24.347Z</time>
      </trkpt>
      <trkpt lat="45.584091" lon="10.179642">
        <ele>168.885899</ele>
        <time>2021-01-22T09:25:25.534Z</time>
      </trkpt>
      <trkpt lat="45.584032" lon="10.179380">
        <ele>167.895480</ele>
        <time>2021-01-22T09:25:30.914Z</time>
      </trkpt>
      <trkpt lat="45.583943" lon="10.178981">
        <ele>166.388503</ele>
        <time>2021-01-22T09:25:33.683Z</time>
      </trkpt>
      <trkpt lat="45.583526" lon="10.177209">
        <ele>159.544098</ele>
        <time>2021-01-22T09:25:45.846Z</time>
      </trkpt>
      <trkpt lat="45.583402" lon="10.176673">
        <ele>157.474986</ele>
        <time>2021-01-22T09:25:49.577Z</time>
      </trkpt>
      <trkpt lat="45.583237" lon="10.175975">
        <ele>155.271647</ele>
        <time>2021-01-22T09:25:54.526Z</time>
      </trkpt>
      <trkpt lat="45.583137" lon="10.175549">
        <ele>154.084686</ele>
        <time>2021-01-22T09:25:57.584Z</time>
      </trkpt>
      <trkpt lat="45.583078" lon="10.175297">
        <ele>153.382725</ele>
        <time>2021-01-22T09:25:59.414Z</time>
      </trkpt>
      <trkpt lat="45.583061" lon="10.175219">
        <ele>153.166915</ele>
        <time>2021-01-22T09:25:59.960Z</time>
      </trkpt>
      <trkpt lat="45.582996" lon="10.174916">
        <ele>152.329733</ele>
        <time>2021-01-22T09:26:02.124Z</time>
      </trkpt>
      <trkpt lat="45.582992" lon="10.174772">
        <ele>151.949033</ele>
        <time>2021-01-22T09:26:03.581Z</time>
      </trkpt>
      <trkpt lat="45.583012" lon="10.174584">
        <ele>151.446694</ele>
        <time>2021-01-22T09:26:05.504Z</time>
      </trkpt>
      <trkpt lat="45.583041" lon="10.174542">
        <ele>151.290837</ele>
        <time>2021-01-22T09:26:06.117Z</time>
      </trkpt>
      <trkpt lat="45.583064" lon="10.174373">
        <ele>150.836032</ele>
        <time>2021-01-22T09:26:07.932Z</time>
      </trkpt>
      <trkpt lat="45.583048" lon="10.174319">
        <ele>150.681125</ele>
        <time>2021-01-22T09:26:08.568Z</time>
      </trkpt>
      <trkpt lat="45.583021" lon="10.174273">
        <ele>150.522531</ele>
        <time>2021-01-22T09:26:09.187Z</time>
      </trkpt>
      <trkpt lat="45.582986" lon="10.174241">
        <ele>150.365693</ele>
        <time>2021-01-22T09:26:09.798Z</time>
      </trkpt>
      <trkpt lat="45.582906" lon="10.174160">
        <ele>149.995605</ele>
        <time>2021-01-22T09:26:11.266Z</time>
      </trkpt>
      <trkpt lat="45.582863" lon="10.174114">
        <ele>149.792852</ele>
        <time>2021-01-22T09:26:12.061Z</time>
      </trkpt>
      <trkpt lat="45.582798" lon="10.173935">
        <ele>149.534002</ele>
        <time>2021-01-22T09:26:14.256Z</time>
      </trkpt>
      <trkpt lat="45.582786" lon="10.173596">
        <ele>149.123431</ele>
        <time>2021-01-22T09:26:17.850Z</time>
      </trkpt>
      <trkpt lat="45.582836" lon="10.173032">
        <ele>148.435778</ele>
        <time>2021-01-22T09:26:22.155Z</time>
      </trkpt>
      <trkpt lat="45.582855" lon="10.172827">
        <ele>148.185650</ele>
        <time>2021-01-22T09:26:23.768Z</time>
      </trkpt>
      <trkpt lat="45.582908" lon="10.172521">
        <ele>147.804353</ele>
        <time>2021-01-22T09:26:26.258Z</time>
      </trkpt>
      <trkpt lat="45.583003" lon="10.171303">
        <ele>146.675558</ele>
        <time>2021-01-22T09:26:36.757Z</time>
      </trkpt>
      <trkpt lat="45.582985" lon="10.170973">
        <ele>146.698021</ele>
        <time>2021-01-22T09:26:39.964Z</time>
      </trkpt>
      <trkpt lat="45.582995" lon="10.170373">
        <ele>146.738750</ele>
        <time>2021-01-22T09:26:46.734Z</time>
      </trkpt>
      <trkpt lat="45.582995" lon="10.170290">
        <ele>146.744383</ele>
        <time>2021-01-22T09:26:47.734Z</time>
      </trkpt>
      <trkpt lat="45.582995" lon="10.169858">
        <ele>146.773699</ele>
        <time>2021-01-22T09:26:52.602Z</time>
      </trkpt>
      <trkpt lat="45.582994" lon="10.169683">
        <ele>146.785576</ele>
        <time>2021-01-22T09:26:54.669Z</time>
      </trkpt>
      <trkpt lat="45.582988" lon="10.168618">
        <ele>147.104018</ele>
        <time>2021-01-22T09:27:07.028Z</time>
      </trkpt>
      <trkpt lat="45.582987" lon="10.168145">
        <ele>147.432351</ele>
        <time>2021-01-22T09:27:13.038Z</time>
      </trkpt>
      <trkpt lat="45.583020" lon="10.167756">
        <ele>147.704350</ele>
        <time>2021-01-22T09:27:18.221Z</time>
      </trkpt>
      <trkpt lat="45.582991" lon="10.167309">
        <ele>148.015964</ele>
        <time>2021-01-22T09:27:24.386Z</time>
      </trkpt>
      <trkpt lat="45.582977" lon="10.167201">
        <ele>148.092207</ele>
        <time>2021-01-22T09:27:25.835Z</time>
      </trkpt>
      <trkpt lat="45.582959" lon="10.167060">
        <ele>148.191696</ele>
        <time>2021-01-22T09:27:27.975Z</time>
      </trkpt>
      <trkpt lat="45.582828" lon="10.166439">
        <ele>148.653606</ele>
        <time>2021-01-22T09:27:37.028Z</time>
      </trkpt>
      <trkpt lat="45.582755" lon="10.166276">
        <ele>148.846477</ele>
        <time>2021-01-22T09:27:39.744Z</time>
      </trkpt>
      <trkpt lat="45.582597" lon="10.165649">
        <ele>149.510664</ele>
        <time>2021-01-22T09:27:49.600Z</time>
      </trkpt>
      <trkpt lat="45.582591" lon="10.165623">
        <ele>149.537950</ele>
        <time>2021-01-22T09:27:50.023Z</time>
      </trkpt>
      <trkpt lat="45.582577" lon="10.165569">
        <ele>149.595344</ele>
        <time>2021-01-22T09:27:50.867Z</time>
      </trkpt>
      <trkpt lat="45.582421" lon="10.164944">
        <ele>150.256696</ele>
        <time>2021-01-22T09:28:00.791Z</time>
      </trkpt>
      <trkpt lat="45.582257" lon="10.164213">
        <ele>151.021786</ele>
        <time>2021-01-22T09:28:11.640Z</time>
      </trkpt>
      <trkpt lat="45.582227" lon="10.163920">
        <ele>151.299883</ele>
        <time>2021-01-22T09:28:15.846Z</time>
      </trkpt>
      <trkpt lat="45.582228" lon="10.163754">
        <ele>151.445264</ele>
        <time>2021-01-22T09:28:17.950Z</time>
      </trkpt>
      <trkpt lat="45.582228" lon="10.163526">
        <ele>151.644937</ele>
        <time>2021-01-22T09:28:20.935Z</time>
      </trkpt>
      <trkpt lat="45.582293" lon="10.163332">
        <ele>151.833299</ele>
        <time>2021-01-22T09:28:23.861Z</time>
      </trkpt>
      <trkpt lat="45.582368" lon="10.163153">
        <ele>152.016004</ele>
        <time>2021-01-22T09:28:26.476Z</time>
      </trkpt>
      <trkpt lat="45.582396" lon="10.163133">
        <ele>152.055174</ele>
        <time>2021-01-22T09:28:27.078Z</time>
      </trkpt>
      <trkpt lat="45.582423" lon="10.163100">
        <ele>152.099633</ele>
        <time>2021-01-22T09:28:27.786Z</time>
      </trkpt>
      <trkpt lat="45.582453" lon="10.163029">
        <ele>152.172265</ele>
        <time>2021-01-22T09:28:28.946Z</time>
      </trkpt>
      <trkpt lat="45.582457" lon="10.162931">
        <ele>152.258234</ele>
        <time>2021-01-22T09:28:30.233Z</time>
      </trkpt>
      <trkpt lat="45.582434" lon="10.162855">
        <ele>152.330747</ele>
        <time>2021-01-22T09:28:31.322Z</time>
      </trkpt>
      <trkpt lat="45.582424" lon="10.162668">
        <ele>152.494991</ele>
        <time>2021-01-22T09:28:33.848Z</time>
      </trkpt>
      <trkpt lat="45.582438" lon="10.162509">
        <ele>152.635334</ele>
        <time>2021-01-22T09:28:36.164Z</time>
      </trkpt>
      <trkpt lat="45.582513" lon="10.162307">
        <ele>152.835588</ele>
        <time>2021-01-22T09:28:39.345Z</time>
      </trkpt>
      <trkpt lat="45.582739" lon="10.161790">
        <ele>153.369410</ele>
        <time>2021-01-22T09:28:48.339Z</time>
      </trkpt>
      <trkpt lat="45.582762" lon="10.161730">
        <ele>153.429963</ele>
        <time>2021-01-22T09:28:49.301Z</time>
      </trkpt>
      <trkpt lat="45.583030" lon="10.161162">
        <ele>154.204183</ele>
        <time>2021-01-22T09:28:59.315Z</time>
      </trkpt>
      <trkpt lat="45.583156" lon="10.160915">
        <ele>154.549629</ele>
        <time>2021-01-22T09:29:03.964Z</time>
      </trkpt>
      <trkpt lat="45.583272" lon="10.160695">
        <ele>154.860941</ele>
        <time>2021-01-22T09:29:07.990Z</time>
      </trkpt>
      <trkpt lat="45.583298" lon="10.160645">
        <ele>154.931342</ele>
        <time>2021-01-22T09:29:08.978Z</time>
      </trkpt>
      <trkpt lat="45.583497" lon="10.160288">
        <ele>155.447162</ele>
        <time>2021-01-22T09:29:15.840Z</time>
      </trkpt>
      <trkpt lat="45.583596" lon="10.160102">
        <ele>155.711265</ele>
        <time>2021-01-22T09:29:19.488Z</time>
      </trkpt>
      <trkpt lat="45.583864" lon="10.159632">
        <ele>156.386881</ele>
        <time>2021-01-22T09:29:28.746Z</time>
      </trkpt>
      <trkpt lat="45.584367" lon="10.158740">
        <ele>157.490370</ele>
        <time>2021-01-22T09:29:45.121Z</time>
      </trkpt>
      <trkpt lat="45.584940" lon="10.157748">
        <ele>158.729400</ele>
        <time>2021-01-22T09:30:02.930Z</time>
      </trkpt>
      <trkpt lat="45.585285" lon="10.157312">
        <ele>159.523627</ele>
        <time>2021-01-22T09:30:12.245Z</time>
      </trkpt>
      <trkpt lat="45.585551" lon="10.157051">
        <ele>160.095808</ele>
        <time>2021-01-22T09:30:19.046Z</time>
      </trkpt>
      <trkpt lat="45.585710" lon="10.156924">
        <ele>160.418812</ele>
        <time>2021-01-22T09:30:22.924Z</time>
      </trkpt>
      <trkpt lat="45.585886" lon="10.156811">
        <ele>160.760958</ele>
        <time>2021-01-22T09:30:27.195Z</time>
      </trkpt>
      <trkpt lat="45.585942" lon="10.156791">
        <ele>160.863314</ele>
        <time>2021-01-22T09:30:28.489Z</time>
      </trkpt>
      <trkpt lat="45.586026" lon="10.156668">
        <ele>161.076587</ele>
        <time>2021-01-22T09:30:31.133Z</time>
      </trkpt>
      <trkpt lat="45.586068" lon="10.156634">
        <ele>161.162184</ele>
        <time>2021-01-22T09:30:32.318Z</time>
      </trkpt>
      <trkpt lat="45.586118" lon="10.156645">
        <ele>161.251890</ele>
        <time>2021-01-22T09:30:33.526Z</time>
      </trkpt>
      <trkpt lat="45.586216" lon="10.156607">
        <ele>161.431951</ele>
        <time>2021-01-22T09:30:35.736Z</time>
      </trkpt>
      <trkpt lat="45.586279" lon="10.156494">
        <ele>161.611239</ele>
        <time>2021-01-22T09:30:38.021Z</time>
      </trkpt>
      <trkpt lat="45.586288" lon="10.156388">
        <ele>161.743746</ele>
        <time>2021-01-22T09:30:39.833Z</time>
      </trkpt>
      <trkpt lat="45.586347" lon="10.156314">
        <ele>161.882953</ele>
        <time>2021-01-22T09:30:41.820Z</time>
      </trkpt>
      <trkpt lat="45.586500" lon="10.156214">
        <ele>162.255840</ele>
        <time>2021-01-22T09:30:45.689Z</time>
      </trkpt>
      <trkpt lat="45.586566" lon="10.156174">
        <ele>162.434332</ele>
        <time>2021-01-22T09:30:47.456Z</time>
      </trkpt>
      <trkpt lat="45.586761" lon="10.156180">
        <ele>162.919945</ele>
        <time>2021-01-22T09:30:52.499Z</time>
      </trkpt>
      <trkpt lat="45.586909" lon="10.156185">
        <ele>163.288530</ele>
        <time>2021-01-22T09:30:56.270Z</time>
      </trkpt>
      <trkpt lat="45.587729" lon="10.156209">
        <ele>165.330548</ele>
        <time>2021-01-22T09:31:17.261Z</time>
      </trkpt>
      <trkpt lat="45.587956" lon="10.156216">
        <ele>165.895851</ele>
        <time>2021-01-22T09:31:22.743Z</time>
      </trkpt>
      <trkpt lat="45.588608" lon="10.156206">
        <ele>167.326766</ele>
        <time>2021-01-22T09:31:38.590Z</time>
      </trkpt>
      <trkpt lat="45.588947" lon="10.156212">
        <ele>168.015267</ele>
        <time>2021-01-22T09:31:46.579Z</time>
      </trkpt>
      <trkpt lat="45.589203" lon="10.156222">
        <ele>168.535351</ele>
        <time>2021-01-22T09:31:52.382Z</time>
      </trkpt>
      <trkpt lat="45.590629" lon="10.156312">
        <ele>171.382627</ele>
        <time>2021-01-22T09:32:23.599Z</time>
      </trkpt>
      <trkpt lat="45.591342" lon="10.156380">
        <ele>172.776621</ele>
        <time>2021-01-22T09:32:39.547Z</time>
      </trkpt>
      <trkpt lat="45.591517" lon="10.156394">
        <ele>173.118541</ele>
        <time>2021-01-22T09:32:44.207Z</time>
      </trkpt>
      <trkpt lat="45.591619" lon="10.156367">
        <ele>173.320904</ele>
        <time>2021-01-22T09:32:46.504Z</time>
      </trkpt>
      <trkpt lat="45.592118" lon="10.156306">
        <ele>174.353560</ele>
        <time>2021-01-22T09:32:57.989Z</time>
      </trkpt>
      <trkpt lat="45.592192" lon="10.156318">
        <ele>174.511070</ele>
        <time>2021-01-22T09:33:00.197Z</time>
      </trkpt>
      <trkpt lat="45.592478" lon="10.156215">
        <ele>175.134853</ele>
        <time>2021-01-22T09:33:06.683Z</time>
      </trkpt>
      <trkpt lat="45.592533" lon="10.156203">
        <ele>175.252523</ele>
        <time>2021-01-22T09:33:08.663Z</time>
      </trkpt>
      <trkpt lat="45.592547" lon="10.156216">
        <ele>175.287833</ele>
        <time>2021-01-22T09:33:09.117Z</time>
      </trkpt>
      <trkpt lat="45.592596" lon="10.156228">
        <ele>175.392976</ele>
        <time>2021-01-22T09:33:10.157Z</time>
      </trkpt>
      <trkpt lat="45.592612" lon="10.156222">
        <ele>175.427961</ele>
        <time>2021-01-22T09:33:10.545Z</time>
      </trkpt>
      <trkpt lat="45.592671" lon="10.156220">
        <ele>175.552777</ele>
        <time>2021-01-22T09:33:11.810Z</time>
      </trkpt>
      <trkpt lat="45.592773" lon="10.156223">
        <ele>175.768546</ele>
        <time>2021-01-22T09:33:13.692Z</time>
      </trkpt>
      <trkpt lat="45.592811" lon="10.156213">
        <ele>175.850265</ele>
        <time>2021-01-22T09:33:14.659Z</time>
      </trkpt>
      <trkpt lat="45.593011" lon="10.156193">
        <ele>176.274287</ele>
        <time>2021-01-22T09:33:19.821Z</time>
      </trkpt>
      <trkpt lat="45.593415" lon="10.156102">
        <ele>177.139269</ele>
        <time>2021-01-22T09:33:28.997Z</time>
      </trkpt>
      <trkpt lat="45.593841" lon="10.155875">
        <ele>178.042647</ele>
        <time>2021-01-22T09:33:39.028Z</time>
      </trkpt>
      <trkpt lat="45.593885" lon="10.155855">
        <ele>178.131696</ele>
        <time>2021-01-22T09:33:40.193Z</time>
      </trkpt>
      <trkpt lat="45.593923" lon="10.155847">
        <ele>178.205774</ele>
        <time>2021-01-22T09:33:41.387Z</time>
      </trkpt>
      <trkpt lat="45.594474" lon="10.155749">
        <ele>179.276641</ele>
        <time>2021-01-22T09:33:53.343Z</time>
      </trkpt>
      <trkpt lat="45.594586" lon="10.155698">
        <ele>179.503346</ele>
        <time>2021-01-22T09:33:55.986Z</time>
      </trkpt>
      <trkpt lat="45.594898" lon="10.155549">
        <ele>180.137782</ele>
        <time>2021-01-22T09:34:03.301Z</time>
      </trkpt>
      <trkpt lat="45.595468" lon="10.155422">
        <ele>181.268885</ele>
        <time>2021-01-22T09:34:16.744Z</time>
      </trkpt>
      <trkpt lat="45.595702" lon="10.155380">
        <ele>181.748415</ele>
        <time>2021-01-22T09:34:22.050Z</time>
      </trkpt>
      <trkpt lat="45.595875" lon="10.155360">
        <ele>182.101326</ele>
        <time>2021-01-22T09:34:26.087Z</time>
      </trkpt>
      <trkpt lat="45.597786" lon="10.155569">
        <ele>185.817161</ele>
        <time>2021-01-22T09:35:09.962Z</time>
      </trkpt>
      <trkpt lat="45.597835" lon="10.155558">
        <ele>185.905253</ele>
        <time>2021-01-22T09:35:11.362Z</time>
      </trkpt>
      <trkpt lat="45.597885" lon="10.155439">
        <ele>186.077746</ele>
        <time>2021-01-22T09:35:13.339Z</time>
      </trkpt>
      <trkpt lat="45.597886" lon="10.155051">
        <ele>186.559905</ele>
        <time>2021-01-22T09:35:18.876Z</time>
      </trkpt>
      <trkpt lat="45.597769" lon="10.154027">
        <ele>187.808361</ele>
        <time>2021-01-22T09:35:34.665Z</time>
      </trkpt>
      <trkpt lat="45.597757" lon="10.153308">
        <ele>188.288136</ele>
        <time>2021-01-22T09:35:45.509Z</time>
      </trkpt>
      <trkpt lat="45.597760" lon="10.153284">
        <ele>188.304400</ele>
        <time>2021-01-22T09:35:45.836Z</time>
      </trkpt>
      <trkpt lat="45.597788" lon="10.153147">
        <ele>188.399610</ele>
        <time>2021-01-22T09:35:47.581Z</time>
      </trkpt>
      <trkpt lat="45.597831" lon="10.153053">
        <ele>188.474529</ele>
        <time>2021-01-22T09:35:49.113Z</time>
      </trkpt>
      <trkpt lat="45.597849" lon="10.153040">
        <ele>188.493757</ele>
        <time>2021-01-22T09:35:49.507Z</time>
      </trkpt>
      <trkpt lat="45.597864" lon="10.153021">
        <ele>188.512867</ele>
        <time>2021-01-22T09:35:49.906Z</time>
      </trkpt>
      <trkpt lat="45.597874" lon="10.153001">
        <ele>188.529265</ele>
        <time>2021-01-22T09:35:50.234Z</time>
      </trkpt>
      <trkpt lat="45.597881" lon="10.152964">
        <ele>188.554833</ele>
        <time>2021-01-22T09:35:50.822Z</time>
      </trkpt>
      <trkpt lat="45.597863" lon="10.152884">
        <ele>188.610892</ele>
        <time>2021-01-22T09:35:51.868Z</time>
      </trkpt>
      <trkpt lat="45.597841" lon="10.152859">
        <ele>188.637689</ele>
        <time>2021-01-22T09:35:52.394Z</time>
      </trkpt>
      <trkpt lat="45.597815" lon="10.152849">
        <ele>188.663360</ele>
        <time>2021-01-22T09:35:52.822Z</time>
      </trkpt>
      <trkpt lat="45.597780" lon="10.152857">
        <ele>188.697153</ele>
        <time>2021-01-22T09:35:53.366Z</time>
      </trkpt>
      <trkpt lat="45.597711" lon="10.152719">
        <ele>188.810301</ele>
        <time>2021-01-22T09:35:55.552Z</time>
      </trkpt>
      <trkpt lat="45.597605" lon="10.152048">
        <ele>189.269187</ele>
        <time>2021-01-22T09:36:04.157Z</time>
      </trkpt>
      <trkpt lat="45.597570" lon="10.151765">
        <ele>189.460901</ele>
        <time>2021-01-22T09:36:07.428Z</time>
      </trkpt>
      <trkpt lat="45.597482" lon="10.151033">
        <ele>188.907742</ele>
        <time>2021-01-22T09:36:15.236Z</time>
      </trkpt>
      <trkpt lat="45.597246" lon="10.150977">
        <ele>188.638129</ele>
        <time>2021-01-22T09:36:18.173Z</time>
      </trkpt>
      <trkpt lat="45.597162" lon="10.150957">
        <ele>188.542157</ele>
        <time>2021-01-22T09:36:19.207Z</time>
      </trkpt>
      <trkpt lat="45.596709" lon="10.150892">
        <ele>188.029059</ele>
        <time>2021-01-22T09:36:24.392Z</time>
      </trkpt>
      <trkpt lat="45.596604" lon="10.150595">
        <ele>187.766657</ele>
        <time>2021-01-22T09:36:26.922Z</time>
      </trkpt>
      <trkpt lat="45.596171" lon="10.150501">
        <ele>187.145151</ele>
        <time>2021-01-22T09:36:31.636Z</time>
      </trkpt>
      <trkpt lat="45.595803" lon="10.150438">
        <ele>186.423287</ele>
        <time>2021-01-22T09:36:35.648Z</time>
      </trkpt>
      <trkpt lat="45.595730" lon="10.149977">
        <ele>185.779143</ele>
        <time>2021-01-22T09:36:39.289Z</time>
      </trkpt>
      <trkpt lat="45.595695" lon="10.149463">
        <ele>185.075348</ele>
        <time>2021-01-22T09:36:43.242Z</time>
      </trkpt>
      <trkpt lat="45.595692" lon="10.149429">
        <ele>185.028645</ele>
        <time>2021-01-22T09:36:43.500Z</time>
      </trkpt>
      <trkpt lat="45.595656" lon="10.148926">
        <ele>184.339573</ele>
        <time>2021-01-22T09:36:47.626Z</time>
      </trkpt>
      <trkpt lat="45.595534" lon="10.148208">
        <ele>183.137846</ele>
        <time>2021-01-22T09:36:53.524Z</time>
      </trkpt>
      <trkpt lat="45.595329" lon="10.147399">
        <ele>181.592618</ele>
        <time>2021-01-22T09:37:00.082Z</time>
      </trkpt>
      <trkpt lat="45.595281" lon="10.147045">
        <ele>180.945038</ele>
        <time>2021-01-22T09:37:02.827Z</time>
      </trkpt>
      <trkpt lat="45.595230" lon="10.145872">
        <ele>178.547513</ele>
        <time>2021-01-22T09:37:10.975Z</time>
      </trkpt>
      <trkpt lat="45.595240" lon="10.145201">
        <ele>176.643404</ele>
        <time>2021-01-22T09:37:15.701Z</time>
      </trkpt>
      <trkpt lat="45.595312" lon="10.144731">
        <ele>175.278397</ele>
        <time>2021-01-22T09:37:18.986Z</time>
      </trkpt>
      <trkpt lat="45.595403" lon="10.144331">
        <ele>174.085094</ele>
        <time>2021-01-22T09:37:21.770Z</time>
      </trkpt>
      <trkpt lat="45.595647" lon="10.143491">
        <ele>171.537997</ele>
        <time>2021-01-22T09:37:27.906Z</time>
      </trkpt>
      <trkpt lat="45.595692" lon="10.143177">
        <ele>170.685496</ele>
        <time>2021-01-22T09:37:31.064Z</time>
      </trkpt>
      <trkpt lat="45.595695" lon="10.143098">
        <ele>170.475065</ele>
        <time>2021-01-22T09:37:31.838Z</time>
      </trkpt>
      <trkpt lat="45.595699" lon="10.142966">
        <ele>170.123648</ele>
        <time>2021-01-22T09:37:33.129Z</time>
      </trkpt>
      <trkpt lat="45.595713" lon="10.142279">
        <ele>168.295619</ele>
        <time>2021-01-22T09:37:39.933Z</time>
      </trkpt>
      <trkpt lat="45.595704" lon="10.141861">
        <ele>167.183314</ele>
        <time>2021-01-22T09:37:42.926Z</time>
      </trkpt>
      <trkpt lat="45.595387" lon="10.140481">
        <ele>164.203695</ele>
        <time>2021-01-22T09:37:53.017Z</time>
      </trkpt>
      <trkpt lat="45.595336" lon="10.139520">
        <ele>162.845506</ele>
        <time>2021-01-22T09:38:00.334Z</time>
      </trkpt>
      <trkpt lat="45.595338" lon="10.139341">
        <ele>162.593217</ele>
        <time>2021-01-22T09:38:01.788Z</time>
      </trkpt>
      <trkpt lat="45.595337" lon="10.139228">
        <ele>162.433957</ele>
        <time>2021-01-22T09:38:02.824Z</time>
      </trkpt>
      <trkpt lat="45.595334" lon="10.139126">
        <ele>162.290086</ele>
        <time>2021-01-22T09:38:03.673Z</time>
      </trkpt>
      <trkpt lat="45.595322" lon="10.138888">
        <ele>161.953812</ele>
        <time>2021-01-22T09:38:05.691Z</time>
      </trkpt>
      <trkpt lat="45.595313" lon="10.138718">
        <ele>161.713553</ele>
        <time>2021-01-22T09:38:07.394Z</time>
      </trkpt>
      <trkpt lat="45.595301" lon="10.138617">
        <ele>161.581152</ele>
        <time>2021-01-22T09:38:08.583Z</time>
      </trkpt>
      <trkpt lat="45.595280" lon="10.138487">
        <ele>161.683678</ele>
        <time>2021-01-22T09:38:09.769Z</time>
      </trkpt>
      <trkpt lat="45.595257" lon="10.138355">
        <ele>161.788212</ele>
        <time>2021-01-22T09:38:11.020Z</time>
      </trkpt>
      <trkpt lat="45.595254" lon="10.138213">
        <ele>161.897382</ele>
        <time>2021-01-22T09:38:12.667Z</time>
      </trkpt>
      <trkpt lat="45.595244" lon="10.137597">
        <ele>162.370876</ele>
        <time>2021-01-22T09:38:20.253Z</time>
      </trkpt>
      <trkpt lat="45.595288" lon="10.137159">
        <ele>162.710910</ele>
        <time>2021-01-22T09:38:26.591Z</time>
      </trkpt>
      <trkpt lat="45.595360" lon="10.136691">
        <ele>163.079136</ele>
        <time>2021-01-22T09:38:34.209Z</time>
      </trkpt>
      <trkpt lat="45.595387" lon="10.136583">
        <ele>163.167267</ele>
        <time>2021-01-22T09:38:36.469Z</time>
      </trkpt>
      <trkpt lat="45.595566" lon="10.135903">
        <ele>163.732438</ele>
        <time>2021-01-22T09:38:48.462Z</time>
      </trkpt>
      <trkpt lat="45.595678" lon="10.135224">
        <ele>164.289770</ele>
        <time>2021-01-22T09:38:58.556Z</time>
      </trkpt>
      <trkpt lat="45.595684" lon="10.135191">
        <ele>164.317010</ele>
        <time>2021-01-22T09:38:59.234Z</time>
      </trkpt>
      <trkpt lat="45.595794" lon="10.134570">
        <ele>164.828785</ele>
        <time>2021-01-22T09:39:10.424Z</time>
      </trkpt>
      <trkpt lat="45.595910" lon="10.134023">
        <ele>165.285418</ele>
        <time>2021-01-22T09:39:19.409Z</time>
      </trkpt>
      <trkpt lat="45.595920" lon="10.133967">
        <ele>165.331591</ele>
        <time>2021-01-22T09:39:20.463Z</time>
      </trkpt>
      <trkpt lat="45.596119" lon="10.132877">
        <ele>165.277215</ele>
        <time>2021-01-22T09:39:37.636Z</time>
      </trkpt>
      <trkpt lat="45.596166" lon="10.132689">
        <ele>165.193436</ele>
        <time>2021-01-22T09:39:40.080Z</time>
      </trkpt>
      <trkpt lat="45.596190" lon="10.132597">
        <ele>165.152232</ele>
        <time>2021-01-22T09:39:41.449Z</time>
      </trkpt>
      <trkpt lat="45.596320" lon="10.132228">
        <ele>164.978861</ele>
        <time>2021-01-22T09:39:46.442Z</time>
      </trkpt>
      <trkpt lat="45.596350" lon="10.132125">
        <ele>164.932042</ele>
        <time>2021-01-22T09:39:47.865Z</time>
      </trkpt>
      <trkpt lat="45.596411" lon="10.131906">
        <ele>164.833125</ele>
        <time>2021-01-22T09:39:50.727Z</time>
      </trkpt>
      <trkpt lat="45.596468" lon="10.131784">
        <ele>164.771563</ele>
        <time>2021-01-22T09:39:52.363Z</time>
      </trkpt>
      <trkpt lat="45.596509" lon="10.131754">
        <ele>164.743938</ele>
        <time>2021-01-22T09:39:53.212Z</time>
      </trkpt>
      <trkpt lat="45.596564" lon="10.131649">
        <ele>164.688896</ele>
        <time>2021-01-22T09:39:54.737Z</time>
      </trkpt>
      <trkpt lat="45.596572" lon="10.131585">
        <ele>164.661613</ele>
        <time>2021-01-22T09:39:55.517Z</time>
      </trkpt>
      <trkpt lat="45.596588" lon="10.131436">
        <ele>164.598354</ele>
        <time>2021-01-22T09:39:57.319Z</time>
      </trkpt>
      <trkpt lat="45.596681" lon="10.131252">
        <ele>164.484328</ele>
        <time>2021-01-22T09:39:59.980Z</time>
      </trkpt>
      <trkpt lat="45.596718" lon="10.131122">
        <ele>164.379445</ele>
        <time>2021-01-22T09:40:01.133Z</time>
      </trkpt>
      <trkpt lat="45.596754" lon="10.130975">
        <ele>164.263053</ele>
        <time>2021-01-22T09:40:02.477Z</time>
      </trkpt>
      <trkpt lat="45.596761" lon="10.130906">
        <ele>164.210948</ele>
        <time>2021-01-22T09:40:02.982Z</time>
      </trkpt>
      <trkpt lat="45.596777" lon="10.129379">
        <ele>163.069643</ele>
        <time>2021-01-22T09:40:15.731Z</time>
      </trkpt>
      <trkpt lat="45.596700" lon="10.128732">
        <ele>162.618586</ele>
        <time>2021-01-22T09:40:21.360Z</time>
      </trkpt>
      <trkpt lat="45.596596" lon="10.127905">
        <ele>162.911005</ele>
        <time>2021-01-22T09:40:29.750Z</time>
      </trkpt>
      <trkpt lat="45.596520" lon="10.127299">
        <ele>163.125263</ele>
        <time>2021-01-22T09:40:36.986Z</time>
      </trkpt>
      <trkpt lat="45.596594" lon="10.124918">
        <ele>164.351527</ele>
        <time>2021-01-22T09:41:10.472Z</time>
      </trkpt>
      <trkpt lat="45.596557" lon="10.124759">
        <ele>164.460806</ele>
        <time>2021-01-22T09:41:12.550Z</time>
      </trkpt>
      <trkpt lat="45.596511" lon="10.124646">
        <ele>164.546066</ele>
        <time>2021-01-22T09:41:14.454Z</time>
      </trkpt>
      <trkpt lat="45.596501" lon="10.124567">
        <ele>164.598424</ele>
        <time>2021-01-22T09:41:15.438Z</time>
      </trkpt>
      <trkpt lat="45.596544" lon="10.123782">
        <ele>165.111946</ele>
        <time>2021-01-22T09:41:24.973Z</time>
      </trkpt>
      <trkpt lat="45.596555" lon="10.123305">
        <ele>165.251804</ele>
        <time>2021-01-22T09:41:30.395Z</time>
      </trkpt>
      <trkpt lat="45.596549" lon="10.123197">
        <ele>165.273249</ele>
        <time>2021-01-22T09:41:31.578Z</time>
      </trkpt>
      <trkpt lat="45.596502" lon="10.122723">
        <ele>165.368012</ele>
        <time>2021-01-22T09:41:36.603Z</time>
      </trkpt>
      <trkpt lat="45.596516" lon="10.122568">
        <ele>165.398948</ele>
        <time>2021-01-22T09:41:38.452Z</time>
      </trkpt>
      <trkpt lat="45.596536" lon="10.122422">
        <ele>165.428396</ele>
        <time>2021-01-22T09:41:39.890Z</time>
      </trkpt>
      <trkpt lat="45.596749" lon="10.121472">
        <ele>165.625861</ele>
        <time>2021-01-22T09:41:50.386Z</time>
      </trkpt>
      <trkpt lat="45.596752" lon="10.121438">
        <ele>165.632644</ele>
        <time>2021-01-22T09:41:50.740Z</time>
      </trkpt>
      <trkpt lat="45.596756" lon="10.121395">
        <ele>165.641231</ele>
        <time>2021-01-22T09:41:51.198Z</time>
      </trkpt>
      <trkpt lat="45.596768" lon="10.120933">
        <ele>165.865687</ele>
        <time>2021-01-22T09:41:56.941Z</time>
      </trkpt>
      <trkpt lat="45.596820" lon="10.120112">
        <ele>166.492366</ele>
        <time>2021-01-22T09:42:07.757Z</time>
      </trkpt>
      <trkpt lat="45.596831" lon="10.119965">
        <ele>166.604753</ele>
        <time>2021-01-22T09:42:09.809Z</time>
      </trkpt>
      <trkpt lat="45.596848" lon="10.119627">
        <ele>166.862364</ele>
        <time>2021-01-22T09:42:14.519Z</time>
      </trkpt>
      <trkpt lat="45.596869" lon="10.119298">
        <ele>167.113509</ele>
        <time>2021-01-22T09:42:24.470Z</time>
      </trkpt>
      <trkpt lat="45.596906" lon="10.118986">
        <ele>167.354075</ele>
        <time>2021-01-22T09:42:33.885Z</time>
      </trkpt>
      <trkpt lat="45.596915" lon="10.118921">
        <ele>167.404446</ele>
        <time>2021-01-22T09:42:35.841Z</time>
      </trkpt>
      <trkpt lat="45.596937" lon="10.118783">
        <ele>167.512042</ele>
        <time>2021-01-22T09:42:38.044Z</time>
      </trkpt>
      <trkpt lat="45.597016" lon="10.117884">
        <ele>168.214599</ele>
        <time>2021-01-22T09:42:50.695Z</time>
      </trkpt>
      <trkpt lat="45.597049" lon="10.117360">
        <ele>168.624374</ele>
        <time>2021-01-22T09:42:57.910Z</time>
      </trkpt>
      <trkpt lat="45.597053" lon="10.117305">
        <ele>168.667442</ele>
        <time>2021-01-22T09:42:58.702Z</time>
      </trkpt>
      <trkpt lat="45.597058" lon="10.117206">
        <ele>168.744750</ele>
        <time>2021-01-22T09:43:00.084Z</time>
      </trkpt>
      <trkpt lat="45.597065" lon="10.117045">
        <ele>168.870389</ele>
        <time>2021-01-22T09:43:02.214Z</time>
      </trkpt>
      <trkpt lat="45.597073" lon="10.116773">
        <ele>169.082428</ele>
        <time>2021-01-22T09:43:05.607Z</time>
      </trkpt>
      <trkpt lat="45.597070" lon="10.116513">
        <ele>169.284960</ele>
        <time>2021-01-22T09:43:08.958Z</time>
      </trkpt>
      <trkpt lat="45.597059" lon="10.116358">
        <ele>169.406303</ele>
        <time>2021-01-22T09:43:10.693Z</time>
      </trkpt>
      <trkpt lat="45.597026" lon="10.116057">
        <ele>169.643856</ele>
        <time>2021-01-22T09:43:14.641Z</time>
      </trkpt>
      <trkpt lat="45.596970" lon="10.115641">
        <ele>170.035694</ele>
        <time>2021-01-22T09:43:20.381Z</time>
      </trkpt>
      <trkpt lat="45.596917" lon="10.115226">
        <ele>170.425893</ele>
        <time>2021-01-22T09:43:26.129Z</time>
      </trkpt>
      <trkpt lat="45.596859" lon="10.114729">
        <ele>170.891947</ele>
        <time>2021-01-22T09:43:33.119Z</time>
      </trkpt>
      <trkpt lat="45.596761" lon="10.113955">
        <ele>171.619492</ele>
        <time>2021-01-22T09:43:44.147Z</time>
      </trkpt>
      <trkpt lat="45.596745" lon="10.113820">
        <ele>171.746140</ele>
        <time>2021-01-22T09:43:46.525Z</time>
      </trkpt>
      <trkpt lat="45.596737" lon="10.113718">
        <ele>171.841077</ele>
        <time>2021-01-22T09:43:48.195Z</time>
      </trkpt>
      <trkpt lat="45.596738" lon="10.113497">
        <ele>172.047083</ele>
        <time>2021-01-22T09:43:51.253Z</time>
      </trkpt>
      <trkpt lat="45.596784" lon="10.112882">
        <ele>172.654665</ele>
        <time>2021-01-22T09:44:00.832Z</time>
      </trkpt>
      <trkpt lat="45.596803" lon="10.112713">
        <ele>172.822810</ele>
        <time>2021-01-22T09:44:03.848Z</time>
      </trkpt>
      <trkpt lat="45.596906" lon="10.112196">
        <ele>173.350866</ele>
        <time>2021-01-22T09:44:12.222Z</time>
      </trkpt>
      <trkpt lat="45.597490" lon="10.111056">
        <ele>174.595477</ele>
        <time>2021-01-22T09:44:30.924Z</time>
      </trkpt>
      <trkpt lat="45.597577" lon="10.110718">
        <ele>174.687476</ele>
        <time>2021-01-22T09:44:35.099Z</time>
      </trkpt>
      <trkpt lat="45.597570" lon="10.110653">
        <ele>174.704275</ele>
        <time>2021-01-22T09:44:36.212Z</time>
      </trkpt>
      <trkpt lat="45.597492" lon="10.110157">
        <ele>174.834138</ele>
        <time>2021-01-22T09:44:41.988Z</time>
      </trkpt>
      <trkpt lat="45.597478" lon="10.110008">
        <ele>174.872542</ele>
        <time>2021-01-22T09:44:43.472Z</time>
      </trkpt>
      <trkpt lat="45.597472" lon="10.109951">
        <ele>174.887266</ele>
        <time>2021-01-22T09:44:44.083Z</time>
      </trkpt>
      <trkpt lat="45.597437" lon="10.109616">
        <ele>174.973790</ele>
        <time>2021-01-22T09:44:48.041Z</time>
      </trkpt>
      <trkpt lat="45.597430" lon="10.109566">
        <ele>174.986815</ele>
        <time>2021-01-22T09:44:48.527Z</time>
      </trkpt>
      <trkpt lat="45.597397" lon="10.109304">
        <ele>175.054819</ele>
        <time>2021-01-22T09:44:51.214Z</time>
      </trkpt>
      <trkpt lat="45.597390" lon="10.109108">
        <ele>175.104952</ele>
        <time>2021-01-22T09:44:53.431Z</time>
      </trkpt>
      <trkpt lat="45.597380" lon="10.108963">
        <ele>175.142171</ele>
        <time>2021-01-22T09:44:54.829Z</time>
      </trkpt>
      <trkpt lat="45.597432" lon="10.108990">
        <ele>175.162370</ele>
        <time>2021-01-22T09:44:55.800Z</time>
      </trkpt>
      <trkpt lat="45.597543" lon="10.109009">
        <ele>175.205971</ele>
        <time>2021-01-22T09:44:57.379Z</time>
      </trkpt>
      <trkpt lat="45.597601" lon="10.109004">
        <ele>175.269062</ele>
        <time>2021-01-22T09:44:58.494Z</time>
      </trkpt>
      <trkpt lat="45.597855" lon="10.109079">
        <ele>175.550678</ele>
        <time>2021-01-22T09:45:02.294Z</time>
      </trkpt>
      <trkpt lat="45.597937" lon="10.109113">
        <ele>175.643385</ele>
        <time>2021-01-22T09:45:03.544Z</time>
      </trkpt>
      <trkpt lat="45.598604" lon="10.109382">
        <ele>176.395892</ele>
        <time>2021-01-22T09:45:14.572Z</time>
      </trkpt>
      <trkpt lat="45.598687" lon="10.109417">
        <ele>176.489854</ele>
        <time>2021-01-22T09:45:15.902Z</time>
      </trkpt>
      <trkpt lat="45.598824" lon="10.109505">
        <ele>176.652940</ele>
        <time>2021-01-22T09:45:18.681Z</time>
      </trkpt>
      <trkpt lat="45.600297" lon="10.110321">
        <ele>181.498218</ele>
        <time>2021-01-22T09:46:01.761Z</time>
      </trkpt>
      <trkpt lat="45.600515" lon="10.110368">
        <ele>182.355021</ele>
        <time>2021-01-22T09:46:08.900Z</time>
      </trkpt>
      <trkpt lat="45.600527" lon="10.110369">
        <ele>182.401736</ele>
        <time>2021-01-22T09:46:09.415Z</time>
      </trkpt>
      <trkpt lat="45.600836" lon="10.110395">
        <ele>183.604688</ele>
        <time>2021-01-22T09:46:21.548Z</time>
      </trkpt>
      <trkpt lat="45.600977" lon="10.110446">
        <ele>184.160797</ele>
        <time>2021-01-22T09:46:29.029Z</time>
      </trkpt>
      <trkpt lat="45.601145" lon="10.110511">
        <ele>184.590957</ele>
        <time>2021-01-22T09:46:34.539Z</time>
      </trkpt>
      <trkpt lat="45.601924" lon="10.111079">
        <ele>186.752325</ele>
        <time>2021-01-22T09:47:01.245Z</time>
      </trkpt>
      <trkpt lat="45.602294" lon="10.111351">
        <ele>187.780653</ele>
        <time>2021-01-22T09:47:09.668Z</time>
      </trkpt>
      <trkpt lat="45.602982" lon="10.111825">
        <ele>188.543865</ele>
        <time>2021-01-22T09:47:18.255Z</time>
      </trkpt>
      <trkpt lat="45.603049" lon="10.111871">
        <ele>188.535966</ele>
        <time>2021-01-22T09:47:19.063Z</time>
      </trkpt>
      <trkpt lat="45.603171" lon="10.111962">
        <ele>188.521340</ele>
        <time>2021-01-22T09:47:20.556Z</time>
      </trkpt>
      <trkpt lat="45.603226" lon="10.112007">
        <ele>188.514605</ele>
        <time>2021-01-22T09:47:21.324Z</time>
      </trkpt>
      <trkpt lat="45.603323" lon="10.112112">
        <ele>188.501674</ele>
        <time>2021-01-22T09:47:22.718Z</time>
      </trkpt>
      <trkpt lat="45.603618" lon="10.112552">
        <ele>188.456361</ele>
        <time>2021-01-22T09:47:27.944Z</time>
      </trkpt>
      <trkpt lat="45.603637" lon="10.112611">
        <ele>188.451532</ele>
        <time>2021-01-22T09:47:28.444Z</time>
      </trkpt>
      <trkpt lat="45.603671" lon="10.112653">
        <ele>188.446756</ele>
        <time>2021-01-22T09:47:29.022Z</time>
      </trkpt>
      <trkpt lat="45.603851" lon="10.112963">
        <ele>188.416802</ele>
        <time>2021-01-22T09:47:35.320Z</time>
      </trkpt>
      <trkpt lat="45.604046" lon="10.113198">
        <ele>188.742487</ele>
        <time>2021-01-22T09:47:42.072Z</time>
      </trkpt>
      <trkpt lat="45.604379" lon="10.113765">
        <ele>190.759289</ele>
        <time>2021-01-22T09:47:57.766Z</time>
      </trkpt>
      <trkpt lat="45.604490" lon="10.113978">
        <ele>191.482854</ele>
        <time>2021-01-22T09:48:04.486Z</time>
      </trkpt>
      <trkpt lat="45.604852" lon="10.114556">
        <ele>193.596274</ele>
        <time>2021-01-22T09:48:24.258Z</time>
      </trkpt>
      <trkpt lat="45.605828" lon="10.116042">
        <ele>196.137413</ele>
        <time>2021-01-22T09:49:03.152Z</time>
      </trkpt>
      <trkpt lat="45.607696" lon="10.118274">
        <ele>194.088496</ele>
        <time>2021-01-22T09:49:29.805Z</time>
      </trkpt>
      <trkpt lat="45.608217" lon="10.118930">
        <ele>193.937050</ele>
        <time>2021-01-22T09:49:39.724Z</time>
      </trkpt>
      <trkpt lat="45.608290" lon="10.119014">
        <ele>193.972364</ele>
        <time>2021-01-22T09:49:41.161Z</time>
      </trkpt>
      <trkpt lat="45.608402" lon="10.119140">
        <ele>194.026074</ele>
        <time>2021-01-22T09:49:43.565Z</time>
      </trkpt>
      <trkpt lat="45.608412" lon="10.119152">
        <ele>194.030994</ele>
        <time>2021-01-22T09:49:43.789Z</time>
      </trkpt>
      <trkpt lat="45.608477" lon="10.119231">
        <ele>194.063146</ele>
        <time>2021-01-22T09:49:45.199Z</time>
      </trkpt>
      <trkpt lat="45.608608" lon="10.119386">
        <ele>194.127229</ele>
        <time>2021-01-22T09:49:48.058Z</time>
      </trkpt>
      <trkpt lat="45.608642" lon="10.119422">
        <ele>194.143174</ele>
        <time>2021-01-22T09:49:48.931Z</time>
      </trkpt>
      <trkpt lat="45.608800" lon="10.119586">
        <ele>194.216756</ele>
        <time>2021-01-22T09:49:52.415Z</time>
      </trkpt>
      <trkpt lat="45.609057" lon="10.119714">
        <ele>194.319314</ele>
        <time>2021-01-22T09:49:57.595Z</time>
      </trkpt>
      <trkpt lat="45.609415" lon="10.119758">
        <ele>194.552610</ele>
        <time>2021-01-22T09:50:04.318Z</time>
      </trkpt>
      <trkpt lat="45.609729" lon="10.119677">
        <ele>195.127421</ele>
        <time>2021-01-22T09:50:10.262Z</time>
      </trkpt>
      <trkpt lat="45.610245" lon="10.119406">
        <ele>196.117750</ele>
        <time>2021-01-22T09:50:21.465Z</time>
      </trkpt>
      <trkpt lat="45.610790" lon="10.118930">
        <ele>197.268319</ele>
        <time>2021-01-22T09:50:35.186Z</time>
      </trkpt>
      <trkpt lat="45.610889" lon="10.118839">
        <ele>197.480356</ele>
        <time>2021-01-22T09:50:38.695Z</time>
      </trkpt>
      <trkpt lat="45.610936" lon="10.118792">
        <ele>197.583687</ele>
        <time>2021-01-22T09:50:40.188Z</time>
      </trkpt>
      <trkpt lat="45.611269" lon="10.118473">
        <ele>199.225695</ele>
        <time>2021-01-22T09:50:51.704Z</time>
      </trkpt>
      <trkpt lat="45.611421" lon="10.118327">
        <ele>200.032192</ele>
        <time>2021-01-22T09:50:57.842Z</time>
      </trkpt>
      <trkpt lat="45.611997" lon="10.117863">
        <ele>202.943980</ele>
        <time>2021-01-22T09:51:19.039Z</time>
      </trkpt>
      <trkpt lat="45.612166" lon="10.117772">
        <ele>203.739319</ele>
        <time>2021-01-22T09:51:25.703Z</time>
      </trkpt>
      <trkpt lat="45.612846" lon="10.117420">
        <ele>207.031276</ele>
        <time>2021-01-22T09:51:51.759Z</time>
      </trkpt>
      <trkpt lat="45.613569" lon="10.117043">
        <ele>210.692229</ele>
        <time>2021-01-22T09:52:21.732Z</time>
      </trkpt>
      <trkpt lat="45.613758" lon="10.116973">
        <ele>211.620985</ele>
        <time>2021-01-22T09:52:28.148Z</time>
      </trkpt>
      <trkpt lat="45.613897" lon="10.117046">
        <ele>212.325413</ele>
        <time>2021-01-22T09:52:32.779Z</time>
      </trkpt>
      <trkpt lat="45.613976" lon="10.117104">
        <ele>212.747876</ele>
        <time>2021-01-22T09:52:35.144Z</time>
      </trkpt>
      <trkpt lat="45.614046" lon="10.117172">
        <ele>213.150467</ele>
        <time>2021-01-22T09:52:37.447Z</time>
      </trkpt>
      <trkpt lat="45.614066" lon="10.117243">
        <ele>213.405154</ele>
        <time>2021-01-22T09:52:39.503Z</time>
      </trkpt>
      <trkpt lat="45.614199" lon="10.117357">
        <ele>214.142838</ele>
        <time>2021-01-22T09:52:43.355Z</time>
      </trkpt>
      <trkpt lat="45.614253" lon="10.117348">
        <ele>214.206692</ele>
        <time>2021-01-22T09:52:44.700Z</time>
      </trkpt>
      <trkpt lat="45.614514" lon="10.117569">
        <ele>214.546746</ele>
        <time>2021-01-22T09:52:52.016Z</time>
      </trkpt>
      <trkpt lat="45.614689" lon="10.117732">
        <ele>214.780886</ele>
        <time>2021-01-22T09:52:57.047Z</time>
      </trkpt>
      <trkpt lat="45.615276" lon="10.118132">
        <ele>215.509849</ele>
        <time>2021-01-22T09:53:10.239Z</time>
      </trkpt>
      <trkpt lat="45.616048" lon="10.118337">
        <ele>215.952876</ele>
        <time>2021-01-22T09:53:20.531Z</time>
      </trkpt>
      <trkpt lat="45.617566" lon="10.118996">
        <ele>214.307961</ele>
        <time>2021-01-22T09:53:38.860Z</time>
      </trkpt>
      <trkpt lat="45.617988" lon="10.119165">
        <ele>214.786834</ele>
        <time>2021-01-22T09:53:45.411Z</time>
      </trkpt>
      <trkpt lat="45.618119" lon="10.119218">
        <ele>214.942092</ele>
        <time>2021-01-22T09:53:47.990Z</time>
      </trkpt>
      <trkpt lat="45.618820" lon="10.119496">
        <ele>215.771693</ele>
        <time>2021-01-22T09:54:02.199Z</time>
      </trkpt>
      <trkpt lat="45.619214" lon="10.119722">
        <ele>216.255820</ele>
        <time>2021-01-22T09:54:12.645Z</time>
      </trkpt>
      <trkpt lat="45.619653" lon="10.120072">
        <ele>217.609210</ele>
        <time>2021-01-22T09:54:25.785Z</time>
      </trkpt>
      <trkpt lat="45.620263" lon="10.120744">
        <ele>219.915208</ele>
        <time>2021-01-22T09:54:46.871Z</time>
      </trkpt>
      <trkpt lat="45.620298" lon="10.120774">
        <ele>220.037407</ele>
        <time>2021-01-22T09:54:48.662Z</time>
      </trkpt>
      <trkpt lat="45.620928" lon="10.121313">
        <ele>222.257721</ele>
        <time>2021-01-22T09:55:08.303Z</time>
      </trkpt>
      <trkpt lat="45.621185" lon="10.121456">
        <ele>223.119496</ele>
        <time>2021-01-22T09:55:15.173Z</time>
      </trkpt>
      <trkpt lat="45.621507" lon="10.121636">
        <ele>224.199891</ele>
        <time>2021-01-22T09:55:24.927Z</time>
      </trkpt>
      <trkpt lat="45.621999" lon="10.121875">
        <ele>225.823662</ele>
        <time>2021-01-22T09:55:39.607Z</time>
      </trkpt>
      <trkpt lat="45.622490" lon="10.122106">
        <ele>227.438613</ele>
        <time>2021-01-22T09:55:53.556Z</time>
      </trkpt>
      <trkpt lat="45.622646" lon="10.122179">
        <ele>227.949622</ele>
        <time>2021-01-22T09:55:58.011Z</time>
      </trkpt>
      <trkpt lat="45.622750" lon="10.122232">
        <ele>228.293347</ele>
        <time>2021-01-22T09:56:00.779Z</time>
      </trkpt>
      <trkpt lat="45.622990" lon="10.122354">
        <ele>229.086333</ele>
        <time>2021-01-22T09:56:07.979Z</time>
      </trkpt>
      <trkpt lat="45.623302" lon="10.122509">
        <ele>230.114615</ele>
        <time>2021-01-22T09:56:17.529Z</time>
      </trkpt>
      <trkpt lat="45.623994" lon="10.123076">
        <ele>232.597606</ele>
        <time>2021-01-22T09:56:39.596Z</time>
      </trkpt>
      <trkpt lat="45.624134" lon="10.123330">
        <ele>233.110386</ele>
        <time>2021-01-22T09:56:45.638Z</time>
      </trkpt>
      <trkpt lat="45.624182" lon="10.123609">
        <ele>233.390269</ele>
        <time>2021-01-22T09:56:50.755Z</time>
      </trkpt>
      <trkpt lat="45.624150" lon="10.123635">
        <ele>233.441534</ele>
        <time>2021-01-22T09:56:51.773Z</time>
      </trkpt>
      <trkpt lat="45.624154" lon="10.123786">
        <ele>233.588732</ele>
        <time>2021-01-22T09:56:53.929Z</time>
      </trkpt>
      <trkpt lat="45.624178" lon="10.123804">
        <ele>233.626480</ele>
        <time>2021-01-22T09:56:54.774Z</time>
      </trkpt>
      <trkpt lat="45.624203" lon="10.123809">
        <ele>233.661641</ele>
        <time>2021-01-22T09:56:55.206Z</time>
      </trkpt>
      <trkpt lat="45.624264" lon="10.123746">
        <ele>233.766451</ele>
        <time>2021-01-22T09:56:56.623Z</time>
      </trkpt>
      <trkpt lat="45.624269" lon="10.123695">
        <ele>233.816617</ele>
        <time>2021-01-22T09:56:57.341Z</time>
      </trkpt>
      <trkpt lat="45.624475" lon="10.123643">
        <ele>234.107985</ele>
        <time>2021-01-22T09:57:01.973Z</time>
      </trkpt>
      <trkpt lat="45.624585" lon="10.123601">
        <ele>234.266569</ele>
        <time>2021-01-22T09:57:03.962Z</time>
      </trkpt>
      <trkpt lat="45.624719" lon="10.123549">
        <ele>234.459965</ele>
        <time>2021-01-22T09:57:06.440Z</time>
      </trkpt>
      <trkpt lat="45.625123" lon="10.123432">
        <ele>235.034110</ele>
        <time>2021-01-22T09:57:13.248Z</time>
      </trkpt>
      <trkpt lat="45.625565" lon="10.123581">
        <ele>235.834863</ele>
        <time>2021-01-22T09:57:21.132Z</time>
      </trkpt>
      <trkpt lat="45.625603" lon="10.123586">
        <ele>235.931443</ele>
        <time>2021-01-22T09:57:22.714Z</time>
      </trkpt>
      <trkpt lat="45.625639" lon="10.123581">
        <ele>236.022983</ele>
        <time>2021-01-22T09:57:23.056Z</time>
      </trkpt>
      <trkpt lat="45.625732" lon="10.123503">
        <ele>236.295856</ele>
        <time>2021-01-22T09:57:24.381Z</time>
      </trkpt>
      <trkpt lat="45.625863" lon="10.123234">
        <ele>236.876036</ele>
        <time>2021-01-22T09:57:29.218Z</time>
      </trkpt>
      <trkpt lat="45.625908" lon="10.123135">
        <ele>237.085021</ele>
        <time>2021-01-22T09:57:30.133Z</time>
      </trkpt>
      <trkpt lat="45.625931" lon="10.123071">
        <ele>237.212378</ele>
        <time>2021-01-22T09:57:31.204Z</time>
      </trkpt>
      <trkpt lat="45.625982" lon="10.122902">
        <ele>237.538160</ele>
        <time>2021-01-22T09:57:34.231Z</time>
      </trkpt>
      <trkpt lat="45.626006" lon="10.122822">
        <ele>237.692233</ele>
        <time>2021-01-22T09:57:36.930Z</time>
      </trkpt>
      <trkpt lat="45.626058" lon="10.122645">
        <ele>238.032034</ele>
        <time>2021-01-22T09:57:39.413Z</time>
      </trkpt>
      <trkpt lat="45.626212" lon="10.122078">
        <ele>239.108617</ele>
        <time>2021-01-22T09:57:50.953Z</time>
      </trkpt>
      <trkpt lat="45.626240" lon="10.121926">
        <ele>239.386824</ele>
        <time>2021-01-22T09:57:54.629Z</time>
      </trkpt>
      <trkpt lat="45.626241" lon="10.121873">
        <ele>239.480665</ele>
        <time>2021-01-22T09:57:56.556Z</time>
      </trkpt>
      <trkpt lat="45.626237" lon="10.121825">
        <ele>239.566223</ele>
        <time>2021-01-22T09:57:58.633Z</time>
      </trkpt>
      <trkpt lat="45.626067" lon="10.121251">
        <ele>241.236155</ele>
        <time>2021-01-22T09:58:11.833Z</time>
      </trkpt>
      <trkpt lat="45.625980" lon="10.121058">
        <ele>241.993281</ele>
        <time>2021-01-22T09:58:17.275Z</time>
      </trkpt>
      <trkpt lat="45.626080" lon="10.120931">
        <ele>242.623884</ele>
        <time>2021-01-22T09:58:23.877Z</time>
      </trkpt>
      <trkpt lat="45.626312" lon="10.120453">
        <ele>244.542381</ele>
        <time>2021-01-22T09:58:39.241Z</time>
      </trkpt>
      <trkpt lat="45.626420" lon="10.120107">
        <ele>245.791723</ele>
        <time>2021-01-22T09:58:48.399Z</time>
      </trkpt>
      <trkpt lat="45.626766" lon="10.120554">
        <ele>247.990276</ele>
        <time>2021-01-22T09:59:02.709Z</time>
      </trkpt>
      <trkpt lat="45.626839" lon="10.120624">
        <ele>248.404688</ele>
        <time>2021-01-22T09:59:06.057Z</time>
      </trkpt>
      <trkpt lat="45.627029" lon="10.120819">
        <ele>249.113476</ele>
        <time>2021-01-22T09:59:12.395Z</time>
      </trkpt>
      <trkpt lat="45.627101" lon="10.121000">
        <ele>249.533381</ele>
        <time>2021-01-22T09:59:16.711Z</time>
      </trkpt>
      <trkpt lat="45.627137" lon="10.121089">
        <ele>249.740709</ele>
        <time>2021-01-22T09:59:17.809Z</time>
      </trkpt>
      <trkpt lat="45.627246" lon="10.121458">
        <ele>250.548457</ele>
        <time>2021-01-22T09:59:25.401Z</time>
      </trkpt>
      <trkpt lat="45.627258" lon="10.121486">
        <ele>250.614679</ele>
        <time>2021-01-22T09:59:25.724Z</time>
      </trkpt>
      <trkpt lat="45.627263" lon="10.121756">
        <ele>251.159326</ele>
        <time>2021-01-22T09:59:33.413Z</time>
      </trkpt>
      <trkpt lat="45.627310" lon="10.122081">
        <ele>251.828555</ele>
        <time>2021-01-22T09:59:43.866Z</time>
      </trkpt>
      <trkpt lat="45.627486" lon="10.122383">
        <ele>252.621281</ele>
        <time>2021-01-22T09:59:55.959Z</time>
      </trkpt>
      <trkpt lat="45.627506" lon="10.122400">
        <ele>252.688370</ele>
        <time>2021-01-22T09:59:56.681Z</time>
      </trkpt>
      <trkpt lat="45.627486" lon="10.122383">
        <ele>252.755459</ele>
        <time>2021-01-22T09:59:57.503Z</time>
      </trkpt>
      <trkpt lat="45.627310" lon="10.122081">
        <ele>253.548185</ele>
        <time>2021-01-22T10:00:11.344Z</time>
      </trkpt>
      <trkpt lat="45.627263" lon="10.121756">
        <ele>255.397840</ele>
        <time>2021-01-22T10:00:22.626Z</time>
      </trkpt>
      <trkpt lat="45.627258" lon="10.121486">
        <ele>257.138109</ele>
        <time>2021-01-22T10:00:36.541Z</time>
      </trkpt>
      <trkpt lat="45.627353" lon="10.121708">
        <ele>258.815045</ele>
        <time>2021-01-22T10:00:40.582Z</time>
      </trkpt>
      <trkpt lat="45.627751" lon="10.122298">
        <ele>264.096866</ele>
        <time>2021-01-22T10:01:13.674Z</time>
      </trkpt>
      <trkpt lat="45.627895" lon="10.122409">
        <ele>265.604089</ele>
        <time>2021-01-22T10:01:20.312Z</time>
      </trkpt>
      <trkpt lat="45.627922" lon="10.122420">
        <ele>265.862752</ele>
        <time>2021-01-22T10:01:21.626Z</time>
      </trkpt>
      <trkpt lat="45.628050" lon="10.122423">
        <ele>267.042232</ele>
        <time>2021-01-22T10:01:34.576Z</time>
      </trkpt>
      <trkpt lat="45.628415" lon="10.122334">
        <ele>270.580771</ele>
        <time>2021-01-22T10:01:59.773Z</time>
      </trkpt>
      <trkpt lat="45.628946" lon="10.121996">
        <ele>279.300503</ele>
        <time>2021-01-22T10:02:36.732Z</time>
      </trkpt>
      <trkpt lat="45.629101" lon="10.121895">
        <ele>281.855877</ele>
        <time>2021-01-22T10:02:53.834Z</time>
      </trkpt>
      <trkpt lat="45.629303" lon="10.121891">
        <ele>284.886607</ele>
        <time>2021-01-22T10:03:05.990Z</time>
      </trkpt>
      <trkpt lat="45.629731" lon="10.121942">
        <ele>291.329792</ele>
        <time>2021-01-22T10:03:40.102Z</time>
      </trkpt>
      <trkpt lat="45.630228" lon="10.122113">
        <ele>299.031094</ele>
        <time>2021-01-22T10:04:21.202Z</time>
      </trkpt>
      <trkpt lat="45.630575" lon="10.122092">
        <ele>304.337359</ele>
        <time>2021-01-22T10:04:52.270Z</time>
      </trkpt>
      <trkpt lat="45.630962" lon="10.121916">
        <ele>310.541796</ele>
        <time>2021-01-22T10:05:23.105Z</time>
      </trkpt>
      <trkpt lat="45.631209" lon="10.121696">
        <ele>314.987606</ele>
        <time>2021-01-22T10:05:45.840Z</time>
      </trkpt>
      <trkpt lat="45.631463" lon="10.121353">
        <ele>320.325004</ele>
        <time>2021-01-22T10:06:08.786Z</time>
      </trkpt>
      <trkpt lat="45.631472" lon="10.121339">
        <ele>320.528175</ele>
        <time>2021-01-22T10:06:10.602Z</time>
      </trkpt>
      <trkpt lat="45.631689" lon="10.120986">
        <ele>325.299477</ele>
        <time>2021-01-22T10:06:29.480Z</time>
      </trkpt>
      <trkpt lat="45.631950" lon="10.120632">
        <ele>329.148621</ele>
        <time>2021-01-22T10:06:53.562Z</time>
      </trkpt>
      <trkpt lat="45.632167" lon="10.120434">
        <ele>331.902993</ele>
        <time>2021-01-22T10:07:12.393Z</time>
      </trkpt>
      <trkpt lat="45.632372" lon="10.120397">
        <ele>334.113985</ele>
        <time>2021-01-22T10:07:27.004Z</time>
      </trkpt>
      <trkpt lat="45.632645" lon="10.120424">
        <ele>337.042183</ele>
        <time>2021-01-22T10:07:40.315Z</time>
      </trkpt>
      <trkpt lat="45.633151" lon="10.120441">
        <ele>342.458100</ele>
        <time>2021-01-22T10:08:06.838Z</time>
      </trkpt>
      <trkpt lat="45.633865" lon="10.120442">
        <ele>347.739942</ele>
        <time>2021-01-22T10:08:33.692Z</time>
      </trkpt>
      <trkpt lat="45.634593" lon="10.120397">
        <ele>352.540904</ele>
        <time>2021-01-22T10:08:58.175Z</time>
      </trkpt>
      <trkpt lat="45.634681" lon="10.120417">
        <ele>353.127974</ele>
        <time>2021-01-22T10:09:03.528Z</time>
      </trkpt>
      <trkpt lat="45.634819" lon="10.120447">
        <ele>354.047642</ele>
        <time>2021-01-22T10:09:09.084Z</time>
      </trkpt>
      <trkpt lat="45.635233" lon="10.120608">
        <ele>357.732464</ele>
        <time>2021-01-22T10:09:29.116Z</time>
      </trkpt>
      <trkpt lat="45.635613" lon="10.120801">
        <ele>362.534733</ele>
        <time>2021-01-22T10:09:51.093Z</time>
      </trkpt>
      <trkpt lat="45.635821" lon="10.120906">
        <ele>365.161557</ele>
        <time>2021-01-22T10:10:05.942Z</time>
      </trkpt>
      <trkpt lat="45.635877" lon="10.120930">
        <ele>365.857754</ele>
        <time>2021-01-22T10:10:09.763Z</time>
      </trkpt>
      <trkpt lat="45.636312" lon="10.121117">
        <ele>371.267077</ele>
        <time>2021-01-22T10:10:39.216Z</time>
      </trkpt>
      <trkpt lat="45.636679" lon="10.121146">
        <ele>375.644302</ele>
        <time>2021-01-22T10:11:02.216Z</time>
      </trkpt>
      <trkpt lat="45.637144" lon="10.121072">
        <ele>382.216182</ele>
        <time>2021-01-22T10:11:40.608Z</time>
      </trkpt>
      <trkpt lat="45.637327" lon="10.121106">
        <ele>384.965394</ele>
        <time>2021-01-22T10:11:55.905Z</time>
      </trkpt>
      <trkpt lat="45.637640" lon="10.121229">
        <ele>389.801234</ele>
        <time>2021-01-22T10:12:22.610Z</time>
      </trkpt>
      <trkpt lat="45.638097" lon="10.121170">
        <ele>396.637229</ele>
        <time>2021-01-22T10:12:54.553Z</time>
      </trkpt>
      <trkpt lat="45.638150" lon="10.121142">
        <ele>397.478959</ele>
        <time>2021-01-22T10:13:00.136Z</time>
      </trkpt>
      <trkpt lat="45.638193" lon="10.121120">
        <ele>398.159321</ele>
        <time>2021-01-22T10:13:03.048Z</time>
      </trkpt>
      <trkpt lat="45.638263" lon="10.121083">
        <ele>399.271108</ele>
        <time>2021-01-22T10:13:10.328Z</time>
      </trkpt>
      <trkpt lat="45.638624" lon="10.120679">
        <ele>405.561670</ele>
        <time>2021-01-22T10:13:42.122Z</time>
      </trkpt>
      <trkpt lat="45.639385" lon="10.120015">
        <ele>415.392875</ele>
        <time>2021-01-22T10:14:37.080Z</time>
      </trkpt>
      <trkpt lat="45.639736" lon="10.119622">
        <ele>420.308955</ele>
        <time>2021-01-22T10:15:00.913Z</time>
      </trkpt>
      <trkpt lat="45.639929" lon="10.119480">
        <ele>422.702578</ele>
        <time>2021-01-22T10:15:11.619Z</time>
      </trkpt>
      <trkpt lat="45.640924" lon="10.118989">
        <ele>432.204804</ele>
        <time>2021-01-22T10:16:04.105Z</time>
      </trkpt>
      <trkpt lat="45.641277" lon="10.118927">
        <ele>435.336448</ele>
        <time>2021-01-22T10:16:21.589Z</time>
      </trkpt>
      <trkpt lat="45.641991" lon="10.119111">
        <ele>442.049908</ele>
        <time>2021-01-22T10:16:56.648Z</time>
      </trkpt>
      <trkpt lat="45.642772" lon="10.119646">
        <ele>450.900513</ele>
        <time>2021-01-22T10:17:45.727Z</time>
      </trkpt>
      <trkpt lat="45.643127" lon="10.120059">
        <ele>455.577491</ele>
        <time>2021-01-22T10:18:12.986Z</time>
      </trkpt>
      <trkpt lat="45.643648" lon="10.120826">
        <ele>462.769664</ele>
        <time>2021-01-22T10:18:56.412Z</time>
      </trkpt>
      <trkpt lat="45.643869" lon="10.121332">
        <ele>466.659723</ele>
        <time>2021-01-22T10:19:19.244Z</time>
      </trkpt>
      <trkpt lat="45.644098" lon="10.122332">
        <ele>473.520657</ele>
        <time>2021-01-22T10:19:55.268Z</time>
      </trkpt>
      <trkpt lat="45.644106" lon="10.122657">
        <ele>475.550298</ele>
        <time>2021-01-22T10:20:04.565Z</time>
      </trkpt>
      <trkpt lat="45.644040" lon="10.122877">
        <ele>476.930076</ele>
        <time>2021-01-22T10:20:13.697Z</time>
      </trkpt>
      <trkpt lat="45.643824" lon="10.123077">
        <ele>479.051306</ele>
        <time>2021-01-22T10:20:24.070Z</time>
      </trkpt>
      <trkpt lat="45.643754" lon="10.123226">
        <ele>480.085953</ele>
        <time>2021-01-22T10:20:30.647Z</time>
      </trkpt>
      <trkpt lat="45.643770" lon="10.123426">
        <ele>481.246179</ele>
        <time>2021-01-22T10:20:34.699Z</time>
      </trkpt>
      <trkpt lat="45.643883" lon="10.123723">
        <ele>483.195013</ele>
        <time>2021-01-22T10:20:46.922Z</time>
      </trkpt>
      <trkpt lat="45.644482" lon="10.125590">
        <ele>495.684497</ele>
        <time>2021-01-22T10:22:00.018Z</time>
      </trkpt>
      <trkpt lat="45.644479" lon="10.126479">
        <ele>501.431193</ele>
        <time>2021-01-22T10:22:33.612Z</time>
      </trkpt>
      <trkpt lat="45.644499" lon="10.126872">
        <ele>503.978325</ele>
        <time>2021-01-22T10:22:48.572Z</time>
      </trkpt>
      <trkpt lat="45.644501" lon="10.127336">
        <ele>506.866327</ele>
        <time>2021-01-22T10:23:04.911Z</time>
      </trkpt>
      <trkpt lat="45.644649" lon="10.128145">
        <ele>511.358721</ele>
        <time>2021-01-22T10:23:32.645Z</time>
      </trkpt>
      <trkpt lat="45.644844" lon="10.128691">
        <ele>514.652477</ele>
        <time>2021-01-22T10:23:52.803Z</time>
      </trkpt>
      <trkpt lat="45.645021" lon="10.129044">
        <ele>516.986159</ele>
        <time>2021-01-22T10:24:05.680Z</time>
      </trkpt>
      <trkpt lat="45.645233" lon="10.129309">
        <ele>519.149605</ele>
        <time>2021-01-22T10:24:16.881Z</time>
      </trkpt>
      <trkpt lat="45.645692" lon="10.129556">
        <ele>522.620248</ele>
        <time>2021-01-22T10:24:37.257Z</time>
      </trkpt>
      <trkpt lat="45.646687" lon="10.129765">
        <ele>529.519911</ele>
        <time>2021-01-22T10:25:20.570Z</time>
      </trkpt>
      <trkpt lat="45.647281" lon="10.129808">
        <ele>533.423617</ele>
        <time>2021-01-22T10:25:45.882Z</time>
      </trkpt>
      <trkpt lat="45.648309" lon="10.129566">
        <ele>539.443913</ele>
        <time>2021-01-22T10:26:27.639Z</time>
      </trkpt>
      <trkpt lat="45.648487" lon="10.129609">
        <ele>540.487066</ele>
        <time>2021-01-22T10:26:34.145Z</time>
      </trkpt>
      <trkpt lat="45.648601" lon="10.129811">
        <ele>541.535784</ele>
        <time>2021-01-22T10:26:40.807Z</time>
      </trkpt>
      <trkpt lat="45.648746" lon="10.132227">
        <ele>546.396553</ele>
        <time>2021-01-22T10:27:30.477Z</time>
      </trkpt>
      <trkpt lat="45.648681" lon="10.132344">
        <ele>546.648039</ele>
        <time>2021-01-22T10:27:31.920Z</time>
      </trkpt>
      <trkpt lat="45.648148" lon="10.132556">
        <ele>545.303501</ele>
        <time>2021-01-22T10:27:38.249Z</time>
      </trkpt>
      <trkpt lat="45.647734" lon="10.132637">
        <ele>542.844467</ele>
        <time>2021-01-22T10:27:42.241Z</time>
      </trkpt>
      <trkpt lat="45.647455" lon="10.132778">
        <ele>541.103124</ele>
        <time>2021-01-22T10:27:44.928Z</time>
      </trkpt>
      <trkpt lat="45.647072" lon="10.133130">
        <ele>538.424093</ele>
        <time>2021-01-22T10:27:48.939Z</time>
      </trkpt>
      <trkpt lat="45.646724" lon="10.133555">
        <ele>535.637715</ele>
        <time>2021-01-22T10:27:52.864Z</time>
      </trkpt>
      <trkpt lat="45.646537" lon="10.133899">
        <ele>533.655779</ele>
        <time>2021-01-22T10:27:55.499Z</time>
      </trkpt>
      <trkpt lat="45.646485" lon="10.134182">
        <ele>532.324917</ele>
        <time>2021-01-22T10:27:57.284Z</time>
      </trkpt>
      <trkpt lat="45.646495" lon="10.134471">
        <ele>531.008875</ele>
        <time>2021-01-22T10:27:59.055Z</time>
      </trkpt>
      <trkpt lat="45.646619" lon="10.134800">
        <ele>529.308898</ele>
        <time>2021-01-22T10:28:01.391Z</time>
      </trkpt>
      <trkpt lat="45.646891" lon="10.135138">
        <ele>526.964794</ele>
        <time>2021-01-22T10:28:04.768Z</time>
      </trkpt>
      <trkpt lat="45.647082" lon="10.135370">
        <ele>525.334595</ele>
        <time>2021-01-22T10:28:07.367Z</time>
      </trkpt>
      <trkpt lat="45.647448" lon="10.135938">
        <ele>526.894228</ele>
        <time>2021-01-22T10:28:14.400Z</time>
      </trkpt>
      <trkpt lat="45.648098" lon="10.137087">
        <ele>531.191098</ele>
        <time>2021-01-22T10:28:51.586Z</time>
      </trkpt>
      <trkpt lat="45.648216" lon="10.137240">
        <ele>531.853374</ele>
        <time>2021-01-22T10:28:59.132Z</time>
      </trkpt>
      <trkpt lat="45.648281" lon="10.137326">
        <ele>532.221563</ele>
        <time>2021-01-22T10:29:03.585Z</time>
      </trkpt>
      <trkpt lat="45.649921" lon="10.137920">
        <ele>549.543894</ele>
        <time>2021-01-22T10:30:40.430Z</time>
      </trkpt>
      <trkpt lat="45.651066" lon="10.138794">
        <ele>563.818136</ele>
        <time>2021-01-22T10:32:01.977Z</time>
      </trkpt>
      <trkpt lat="45.651766" lon="10.139218">
        <ele>571.774355</ele>
        <time>2021-01-22T10:32:45.324Z</time>
      </trkpt>
      <trkpt lat="45.652147" lon="10.139348">
        <ele>574.468679</ele>
        <time>2021-01-22T10:33:04.165Z</time>
      </trkpt>
      <trkpt lat="45.652339" lon="10.139338">
        <ele>575.790278</ele>
        <time>2021-01-22T10:33:13.617Z</time>
      </trkpt>
      <trkpt lat="45.652483" lon="10.139307">
        <ele>576.791973</ele>
        <time>2021-01-22T10:33:18.857Z</time>
      </trkpt>
      <trkpt lat="45.652642" lon="10.139248">
        <ele>577.921890</ele>
        <time>2021-01-22T10:33:26.652Z</time>
      </trkpt>
      <trkpt lat="45.653052" lon="10.139090">
        <ele>580.842716</ele>
        <time>2021-01-22T10:33:43.815Z</time>
      </trkpt>
      <trkpt lat="45.653343" lon="10.139067">
        <ele>582.847490</ele>
        <time>2021-01-22T10:33:53.886Z</time>
      </trkpt>
      <trkpt lat="45.653710" lon="10.139209">
        <ele>583.113819</ele>
        <time>2021-01-22T10:34:04.765Z</time>
      </trkpt>
      <trkpt lat="45.653883" lon="10.139204">
        <ele>582.957638</ele>
        <time>2021-01-22T10:34:07.851Z</time>
      </trkpt>
      <trkpt lat="45.653919" lon="10.139198">
        <ele>582.924924</ele>
        <time>2021-01-22T10:34:08.719Z</time>
      </trkpt>
      <trkpt lat="45.653997" lon="10.139153">
        <ele>582.849013</ele>
        <time>2021-01-22T10:34:10.203Z</time>
      </trkpt>
      <trkpt lat="45.654056" lon="10.139112">
        <ele>582.789809</ele>
        <time>2021-01-22T10:34:11.165Z</time>
      </trkpt>
      <trkpt lat="45.654106" lon="10.139103">
        <ele>582.744324</ele>
        <time>2021-01-22T10:34:11.756Z</time>
      </trkpt>
      <trkpt lat="45.654157" lon="10.139091">
        <ele>582.697673</ele>
        <time>2021-01-22T10:34:12.554Z</time>
      </trkpt>
      <trkpt lat="45.654197" lon="10.139081">
        <ele>582.661022</ele>
        <time>2021-01-22T10:34:13.082Z</time>
      </trkpt>
      <trkpt lat="45.654260" lon="10.139205">
        <ele>582.564307</ele>
        <time>2021-01-22T10:34:15.054Z</time>
      </trkpt>
      <trkpt lat="45.654335" lon="10.139400">
        <ele>582.423886</ele>
        <time>2021-01-22T10:34:16.931Z</time>
      </trkpt>
      <trkpt lat="45.654478" lon="10.139546">
        <ele>582.265317</ele>
        <time>2021-01-22T10:34:19.180Z</time>
      </trkpt>
      <trkpt lat="45.654571" lon="10.139505">
        <ele>582.177480</ele>
        <time>2021-01-22T10:34:20.199Z</time>
      </trkpt>
      <trkpt lat="45.655329" lon="10.137969">
        <ele>574.499223</ele>
        <time>2021-01-22T10:34:32.259Z</time>
      </trkpt>
      <trkpt lat="45.655547" lon="10.137394">
        <ele>570.614189</ele>
        <time>2021-01-22T10:34:36.169Z</time>
      </trkpt>
      <trkpt lat="45.655575" lon="10.137223">
        <ele>569.571101</ele>
        <time>2021-01-22T10:34:37.208Z</time>
      </trkpt>
      <trkpt lat="45.655722" lon="10.136751">
        <ele>566.502149</ele>
        <time>2021-01-22T10:34:40.290Z</time>
      </trkpt>
      <trkpt lat="45.655938" lon="10.136359">
        <ele>563.564541</ele>
        <time>2021-01-22T10:34:43.274Z</time>
      </trkpt>
      <trkpt lat="45.656142" lon="10.135971">
        <ele>560.707444</ele>
        <time>2021-01-22T10:34:46.211Z</time>
      </trkpt>
      <trkpt lat="45.656237" lon="10.135741">
        <ele>559.135319</ele>
        <time>2021-01-22T10:34:47.863Z</time>
      </trkpt>
      <trkpt lat="45.656474" lon="10.135111">
        <ele>554.925155</ele>
        <time>2021-01-22T10:34:52.408Z</time>
      </trkpt>
      <trkpt lat="45.656540" lon="10.134979">
        <ele>553.970102</ele>
        <time>2021-01-22T10:34:53.447Z</time>
      </trkpt>
      <trkpt lat="45.656624" lon="10.134929">
        <ele>553.204132</ele>
        <time>2021-01-22T10:34:54.251Z</time>
      </trkpt>
      <trkpt lat="45.656725" lon="10.134917">
        <ele>552.350875</ele>
        <time>2021-01-22T10:34:55.144Z</time>
      </trkpt>
      <trkpt lat="45.656993" lon="10.134943">
        <ele>550.349958</ele>
        <time>2021-01-22T10:34:57.556Z</time>
      </trkpt>
      <trkpt lat="45.657221" lon="10.134856">
        <ele>548.778308</ele>
        <time>2021-01-22T10:34:59.665Z</time>
      </trkpt>
      <trkpt lat="45.657311" lon="10.134725">
        <ele>547.923190</ele>
        <time>2021-01-22T10:35:00.792Z</time>
      </trkpt>
      <trkpt lat="45.657382" lon="10.134513">
        <ele>546.828828</ele>
        <time>2021-01-22T10:35:02.307Z</time>
      </trkpt>
      <trkpt lat="45.657401" lon="10.134410">
        <ele>546.332918</ele>
        <time>2021-01-22T10:35:02.984Z</time>
      </trkpt>
      <trkpt lat="45.657471" lon="10.134040">
        <ele>544.548490</ele>
        <time>2021-01-22T10:35:05.451Z</time>
      </trkpt>
      <trkpt lat="45.657610" lon="10.133230">
        <ele>540.665751</ele>
        <time>2021-01-22T10:35:10.881Z</time>
      </trkpt>
      <trkpt lat="45.657728" lon="10.132341">
        <ele>536.196268</ele>
        <time>2021-01-22T10:35:16.525Z</time>
      </trkpt>
      <trkpt lat="45.657823" lon="10.131903">
        <ele>533.872406</ele>
        <time>2021-01-22T10:35:19.332Z</time>
      </trkpt>
      <trkpt lat="45.657908" lon="10.131711">
        <ele>532.720752</ele>
        <time>2021-01-22T10:35:20.738Z</time>
      </trkpt>
      <trkpt lat="45.657946" lon="10.131243">
        <ele>530.333339</ele>
        <time>2021-01-22T10:35:23.670Z</time>
      </trkpt>
      <trkpt lat="45.657967" lon="10.130501">
        <ele>526.570372</ele>
        <time>2021-01-22T10:35:28.363Z</time>
      </trkpt>
      <trkpt lat="45.658029" lon="10.129839">
        <ele>523.842599</ele>
        <time>2021-01-22T10:35:32.692Z</time>
      </trkpt>
      <trkpt lat="45.658089" lon="10.129628">
        <ele>522.930395</ele>
        <time>2021-01-22T10:35:34.176Z</time>
      </trkpt>
      <trkpt lat="45.658077" lon="10.129472">
        <ele>522.301921</ele>
        <time>2021-01-22T10:35:35.181Z</time>
      </trkpt>
      <trkpt lat="45.658003" lon="10.129431">
        <ele>521.847265</ele>
        <time>2021-01-22T10:35:35.905Z</time>
      </trkpt>
      <trkpt lat="45.657202" lon="10.130258">
        <ele>516.187852</ele>
        <time>2021-01-22T10:35:45.016Z</time>
      </trkpt>
      <trkpt lat="45.657117" lon="10.130262">
        <ele>515.874035</ele>
        <time>2021-01-22T10:35:45.809Z</time>
      </trkpt>
      <trkpt lat="45.657086" lon="10.130175">
        <ele>515.700748</ele>
        <time>2021-01-22T10:35:46.450Z</time>
      </trkpt>
      <trkpt lat="45.657449" lon="10.129129">
        <ele>513.628406</ele>
        <time>2021-01-22T10:35:54.565Z</time>
      </trkpt>
      <trkpt lat="45.657653" lon="10.128339">
        <ele>512.133933</ele>
        <time>2021-01-22T10:36:01.512Z</time>
      </trkpt>
      <trkpt lat="45.657763" lon="10.128050">
        <ele>511.549991</ele>
        <time>2021-01-22T10:36:04.230Z</time>
      </trkpt>
      <trkpt lat="45.657880" lon="10.127983">
        <ele>511.538907</ele>
        <time>2021-01-22T10:36:07.139Z</time>
      </trkpt>
      <trkpt lat="45.658240" lon="10.128095">
        <ele>511.943786</ele>
        <time>2021-01-22T10:36:13.376Z</time>
      </trkpt>
      <trkpt lat="45.658840" lon="10.128026">
        <ele>512.605303</ele>
        <time>2021-01-22T10:36:24.759Z</time>
      </trkpt>
      <trkpt lat="45.659302" lon="10.128043">
        <ele>513.113201</ele>
        <time>2021-01-22T10:36:36.041Z</time>
      </trkpt>
      <trkpt lat="45.660322" lon="10.127511">
        <ele>512.728675</ele>
        <time>2021-01-22T10:36:58.314Z</time>
      </trkpt>
      <trkpt lat="45.660634" lon="10.127465">
        <ele>512.458232</ele>
        <time>2021-01-22T10:37:02.570Z</time>
      </trkpt>
      <trkpt lat="45.660862" lon="10.127572">
        <ele>512.251337</ele>
        <time>2021-01-22T10:37:05.041Z</time>
      </trkpt>
      <trkpt lat="45.660986" lon="10.127730">
        <ele>512.108169</ele>
        <time>2021-01-22T10:37:06.687Z</time>
      </trkpt>
      <trkpt lat="45.661123" lon="10.128104">
        <ele>511.757304</ele>
        <time>2021-01-22T10:37:09.558Z</time>
      </trkpt>
      <trkpt lat="45.661408" lon="10.128583">
        <ele>509.314486</ele>
        <time>2021-01-22T10:37:13.793Z</time>
      </trkpt>
      <trkpt lat="45.661611" lon="10.128678">
        <ele>508.127781</ele>
        <time>2021-01-22T10:37:15.802Z</time>
      </trkpt>
      <trkpt lat="45.661807" lon="10.128824">
        <ele>506.900027</ele>
        <time>2021-01-22T10:37:17.862Z</time>
      </trkpt>
      <trkpt lat="45.661995" lon="10.128877">
        <ele>505.835379</ele>
        <time>2021-01-22T10:37:19.611Z</time>
      </trkpt>
      <trkpt lat="45.663324" lon="10.129255">
        <ele>498.202048</ele>
        <time>2021-01-22T10:37:31.859Z</time>
      </trkpt>
      <trkpt lat="45.663403" lon="10.129362">
        <ele>497.579932</ele>
        <time>2021-01-22T10:37:32.847Z</time>
      </trkpt>
      <trkpt lat="45.664101" lon="10.131099">
        <ele>489.408091</ele>
        <time>2021-01-22T10:37:46.076Z</time>
      </trkpt>
      <trkpt lat="45.664207" lon="10.131456">
        <ele>487.732317</ele>
        <time>2021-01-22T10:37:48.580Z</time>
      </trkpt>
      <trkpt lat="45.664204" lon="10.131749">
        <ele>486.466337</ele>
        <time>2021-01-22T10:37:50.477Z</time>
      </trkpt>
      <trkpt lat="45.664180" lon="10.132060">
        <ele>485.114560</ele>
        <time>2021-01-22T10:37:52.489Z</time>
      </trkpt>
      <trkpt lat="45.664080" lon="10.132355">
        <ele>483.698060</ele>
        <time>2021-01-22T10:37:54.566Z</time>
      </trkpt>
      <trkpt lat="45.663898" lon="10.132742">
        <ele>481.682793</ele>
        <time>2021-01-22T10:37:57.525Z</time>
      </trkpt>
      <trkpt lat="45.663898" lon="10.132894">
        <ele>481.026105</ele>
        <time>2021-01-22T10:37:58.479Z</time>
      </trkpt>
      <trkpt lat="45.663963" lon="10.133030">
        <ele>480.253329</ele>
        <time>2021-01-22T10:37:59.523Z</time>
      </trkpt>
      <trkpt lat="45.664350" lon="10.133470">
        <ele>476.018589</ele>
        <time>2021-01-22T10:38:03.914Z</time>
      </trkpt>
      <trkpt lat="45.664436" lon="10.133689">
        <ele>474.514541</ele>
        <time>2021-01-22T10:38:05.459Z</time>
      </trkpt>
      <trkpt lat="45.664336" lon="10.134416">
        <ele>470.078243</ele>
        <time>2021-01-22T10:38:09.999Z</time>
      </trkpt>
      <trkpt lat="45.664451" lon="10.135972">
        <ele>459.993472</ele>
        <time>2021-01-22T10:38:19.476Z</time>
      </trkpt>
      <trkpt lat="45.664332" lon="10.136951">
        <ele>453.064473</ele>
        <time>2021-01-22T10:38:25.448Z</time>
      </trkpt>
      <trkpt lat="45.664379" lon="10.137692">
        <ele>447.876281</ele>
        <time>2021-01-22T10:38:29.907Z</time>
      </trkpt>
      <trkpt lat="45.664525" lon="10.138094">
        <ele>445.547438</ele>
        <time>2021-01-22T10:38:32.650Z</time>
      </trkpt>
      <trkpt lat="45.665320" lon="10.139184">
        <ele>438.362800</ele>
        <time>2021-01-22T10:38:42.517Z</time>
      </trkpt>
      <trkpt lat="45.665580" lon="10.139554">
        <ele>435.970043</ele>
        <time>2021-01-22T10:38:46.104Z</time>
      </trkpt>
      <trkpt lat="45.666128" lon="10.140198">
        <ele>435.353339</ele>
        <time>2021-01-22T10:38:54.080Z</time>
      </trkpt>
      <trkpt lat="45.666332" lon="10.140435">
        <ele>435.342053</ele>
        <time>2021-01-22T10:38:57.873Z</time>
      </trkpt>
      <trkpt lat="45.666403" lon="10.140504">
        <ele>435.338367</ele>
        <time>2021-01-22T10:39:00.056Z</time>
      </trkpt>
      <trkpt lat="45.667146" lon="10.141838">
        <ele>434.770424</ele>
        <time>2021-01-22T10:39:27.182Z</time>
      </trkpt>
      <trkpt lat="45.667478" lon="10.142780">
        <ele>433.682658</ele>
        <time>2021-01-22T10:39:37.006Z</time>
      </trkpt>
      <trkpt lat="45.667718" lon="10.143145">
        <ele>433.165933</ele>
        <time>2021-01-22T10:39:40.449Z</time>
      </trkpt>
      <trkpt lat="45.668098" lon="10.143704">
        <ele>431.134745</ele>
        <time>2021-01-22T10:39:45.680Z</time>
      </trkpt>
      <trkpt lat="45.668550" lon="10.144446">
        <ele>425.781696</ele>
        <time>2021-01-22T10:39:52.022Z</time>
      </trkpt>
      <trkpt lat="45.668596" lon="10.144649">
        <ele>424.621158</ele>
        <time>2021-01-22T10:39:53.316Z</time>
      </trkpt>
      <trkpt lat="45.668548" lon="10.145499">
        <ele>419.983645</ele>
        <time>2021-01-22T10:39:58.508Z</time>
      </trkpt>
      <trkpt lat="45.668574" lon="10.145769">
        <ele>418.447884</ele>
        <time>2021-01-22T10:40:00.103Z</time>
      </trkpt>
      <trkpt lat="45.668913" lon="10.146351">
        <ele>412.859051</ele>
        <time>2021-01-22T10:40:04.633Z</time>
      </trkpt>
      <trkpt lat="45.669115" lon="10.146826">
        <ele>408.757487</ele>
        <time>2021-01-22T10:40:07.939Z</time>
      </trkpt>
      <trkpt lat="45.669137" lon="10.146944">
        <ele>407.856635</ele>
        <time>2021-01-22T10:40:08.649Z</time>
      </trkpt>
      <trkpt lat="45.669241" lon="10.147510">
        <ele>403.539724</ele>
        <time>2021-01-22T10:40:12.185Z</time>
      </trkpt>
      <trkpt lat="45.669220" lon="10.148117">
        <ele>399.284123</ele>
        <time>2021-01-22T10:40:15.898Z</time>
      </trkpt>
      <trkpt lat="45.669199" lon="10.148306">
        <ele>398.399316</ele>
        <time>2021-01-22T10:40:17.054Z</time>
      </trkpt>
      <trkpt lat="45.669169" lon="10.148376">
        <ele>398.019658</ele>
        <time>2021-01-22T10:40:17.539Z</time>
      </trkpt>
      <trkpt lat="45.669088" lon="10.148566">
        <ele>396.990634</ele>
        <time>2021-01-22T10:40:18.909Z</time>
      </trkpt>
      <trkpt lat="45.668290" lon="10.149453">
        <ele>390.305247</ele>
        <time>2021-01-22T10:40:28.102Z</time>
      </trkpt>
      <trkpt lat="45.668068" lon="10.149795">
        <ele>388.147068</ele>
        <time>2021-01-22T10:40:31.236Z</time>
      </trkpt>
      <trkpt lat="45.667766" lon="10.150453">
        <ele>384.684059</ele>
        <time>2021-01-22T10:40:36.826Z</time>
      </trkpt>
      <trkpt lat="45.667646" lon="10.150846">
        <ele>382.808694</ele>
        <time>2021-01-22T10:40:39.608Z</time>
      </trkpt>
      <trkpt lat="45.667610" lon="10.151072">
        <ele>381.795108</ele>
        <time>2021-01-22T10:40:41.077Z</time>
      </trkpt>
      <trkpt lat="45.667581" lon="10.151475">
        <ele>380.023578</ele>
        <time>2021-01-22T10:40:43.649Z</time>
      </trkpt>
      <trkpt lat="45.667562" lon="10.151741">
        <ele>378.854370</ele>
        <time>2021-01-22T10:40:45.291Z</time>
      </trkpt>
      <trkpt lat="45.667557" lon="10.151819">
        <ele>378.511864</ele>
        <time>2021-01-22T10:40:45.782Z</time>
      </trkpt>
      <trkpt lat="45.667550" lon="10.151905">
        <ele>378.133267</ele>
        <time>2021-01-22T10:40:46.325Z</time>
      </trkpt>
      <trkpt lat="45.667520" lon="10.152171">
        <ele>376.955068</ele>
        <time>2021-01-22T10:40:47.975Z</time>
      </trkpt>
      <trkpt lat="45.667475" lon="10.152599">
        <ele>374.736226</ele>
        <time>2021-01-22T10:40:50.641Z</time>
      </trkpt>
      <trkpt lat="45.667474" lon="10.152782">
        <ele>373.755747</ele>
        <time>2021-01-22T10:40:51.752Z</time>
      </trkpt>
      <trkpt lat="45.667473" lon="10.153074">
        <ele>372.191296</ele>
        <time>2021-01-22T10:40:53.543Z</time>
      </trkpt>
      <trkpt lat="45.667581" lon="10.153499">
        <ele>369.768426</ele>
        <time>2021-01-22T10:40:56.327Z</time>
      </trkpt>
      <trkpt lat="45.667641" lon="10.153710">
        <ele>368.547958</ele>
        <time>2021-01-22T10:40:57.716Z</time>
      </trkpt>
      <trkpt lat="45.667929" lon="10.154734">
        <ele>362.675331</ele>
        <time>2021-01-22T10:41:04.605Z</time>
      </trkpt>
      <trkpt lat="45.668534" lon="10.156934">
        <ele>355.998043</ele>
        <time>2021-01-22T10:41:20.937Z</time>
      </trkpt>
      <trkpt lat="45.668591" lon="10.157205">
        <ele>355.270784</ele>
        <time>2021-01-22T10:41:23.033Z</time>
      </trkpt>
      <trkpt lat="45.668921" lon="10.158759">
        <ele>351.988956</ele>
        <time>2021-01-22T10:41:35.011Z</time>
      </trkpt>
      <trkpt lat="45.669064" lon="10.159437">
        <ele>350.557940</ele>
        <time>2021-01-22T10:41:40.039Z</time>
      </trkpt>
      <trkpt lat="45.669133" lon="10.159760">
        <ele>349.836072</ele>
        <time>2021-01-22T10:41:42.432Z</time>
      </trkpt>
      <trkpt lat="45.669151" lon="10.159845">
        <ele>349.637784</ele>
        <time>2021-01-22T10:41:43.061Z</time>
      </trkpt>
      <trkpt lat="45.669227" lon="10.160146">
        <ele>348.923269</ele>
        <time>2021-01-22T10:41:45.357Z</time>
      </trkpt>
      <trkpt lat="45.669296" lon="10.160476">
        <ele>348.154259</ele>
        <time>2021-01-22T10:41:47.801Z</time>
      </trkpt>
      <trkpt lat="45.669493" lon="10.161422">
        <ele>345.950499</ele>
        <time>2021-01-22T10:41:54.942Z</time>
      </trkpt>
      <trkpt lat="45.669675" lon="10.162230">
        <ele>343.976961</ele>
        <time>2021-01-22T10:42:00.867Z</time>
      </trkpt>
      <trkpt lat="45.669836" lon="10.163193">
        <ele>341.381508</ele>
        <time>2021-01-22T10:42:07.705Z</time>
      </trkpt>
      <trkpt lat="45.670380" lon="10.166675">
        <ele>332.410987</ele>
        <time>2021-01-22T10:42:32.366Z</time>
      </trkpt>
      <trkpt lat="45.670390" lon="10.166740">
        <ele>332.248156</ele>
        <time>2021-01-22T10:42:32.805Z</time>
      </trkpt>
      <trkpt lat="45.670551" lon="10.167771">
        <ele>330.374041</ele>
        <time>2021-01-22T10:42:40.685Z</time>
      </trkpt>
      <trkpt lat="45.670617" lon="10.168191">
        <ele>329.737186</ele>
        <time>2021-01-22T10:42:44.084Z</time>
      </trkpt>
      <trkpt lat="45.670904" lon="10.170029">
        <ele>326.848592</ele>
        <time>2021-01-22T10:42:58.781Z</time>
      </trkpt>
      <trkpt lat="45.671159" lon="10.171658">
        <ele>324.018510</ele>
        <time>2021-01-22T10:43:11.272Z</time>
      </trkpt>
      <trkpt lat="45.671370" lon="10.173089">
        <ele>320.994115</ele>
        <time>2021-01-22T10:43:21.691Z</time>
      </trkpt>
      <trkpt lat="45.671355" lon="10.173504">
        <ele>320.070243</ele>
        <time>2021-01-22T10:43:24.688Z</time>
      </trkpt>
      <trkpt lat="45.670983" lon="10.174844">
        <ele>316.790154</ele>
        <time>2021-01-22T10:43:34.817Z</time>
      </trkpt>
      <trkpt lat="45.671016" lon="10.176045">
        <ele>313.834564</ele>
        <time>2021-01-22T10:43:43.260Z</time>
      </trkpt>
      <trkpt lat="45.671021" lon="10.176247">
        <ele>313.337526</ele>
        <time>2021-01-22T10:43:44.629Z</time>
      </trkpt>
      <trkpt lat="45.671025" lon="10.176401">
        <ele>312.958573</ele>
        <time>2021-01-22T10:43:45.652Z</time>
      </trkpt>
      <trkpt lat="45.670993" lon="10.176762">
        <ele>312.063745</ele>
        <time>2021-01-22T10:43:48.255Z</time>
      </trkpt>
      <trkpt lat="45.670730" lon="10.177595">
        <ele>310.102743</ele>
        <time>2021-01-22T10:43:54.678Z</time>
      </trkpt>
      <trkpt lat="45.670699" lon="10.177741">
        <ele>309.803229</ele>
        <time>2021-01-22T10:43:55.712Z</time>
      </trkpt>
      <trkpt lat="45.670698" lon="10.177748">
        <ele>309.789205</ele>
        <time>2021-01-22T10:43:55.753Z</time>
      </trkpt>
      <trkpt lat="45.670639" lon="10.178021">
        <ele>309.228303</ele>
        <time>2021-01-22T10:43:57.877Z</time>
      </trkpt>
      <trkpt lat="45.670400" lon="10.180906">
        <ele>303.806962</ele>
        <time>2021-01-22T10:44:19.541Z</time>
      </trkpt>
      <trkpt lat="45.670392" lon="10.181007">
        <ele>303.628540</ele>
        <time>2021-01-22T10:44:20.251Z</time>
      </trkpt>
      <trkpt lat="45.670382" lon="10.181123">
        <ele>303.423381</ele>
        <time>2021-01-22T10:44:21.184Z</time>
      </trkpt>
      <trkpt lat="45.670340" lon="10.181398">
        <ele>302.929276</ele>
        <time>2021-01-22T10:44:23.358Z</time>
      </trkpt>
      <trkpt lat="45.670197" lon="10.181967">
        <ele>301.867872</ele>
        <time>2021-01-22T10:44:27.832Z</time>
      </trkpt>
      <trkpt lat="45.669961" lon="10.182910">
        <ele>299.905054</ele>
        <time>2021-01-22T10:44:34.999Z</time>
      </trkpt>
      <trkpt lat="45.669898" lon="10.183878">
        <ele>297.974310</ele>
        <time>2021-01-22T10:44:42.059Z</time>
      </trkpt>
      <trkpt lat="45.669909" lon="10.184404">
        <ele>296.929219</ele>
        <time>2021-01-22T10:44:45.809Z</time>
      </trkpt>
      <trkpt lat="45.669911" lon="10.184477">
        <ele>296.784131</ele>
        <time>2021-01-22T10:44:46.322Z</time>
      </trkpt>
      <trkpt lat="45.669941" lon="10.184657">
        <ele>296.454010</ele>
        <time>2021-01-22T10:44:47.674Z</time>
      </trkpt>
      <trkpt lat="45.669965" lon="10.184798">
        <ele>296.243704</ele>
        <time>2021-01-22T10:44:48.751Z</time>
      </trkpt>
      <trkpt lat="45.670023" lon="10.185019">
        <ele>295.901598</ele>
        <time>2021-01-22T10:44:50.460Z</time>
      </trkpt>
      <trkpt lat="45.670129" lon="10.185273">
        <ele>295.472867</ele>
        <time>2021-01-22T10:44:52.712Z</time>
      </trkpt>
      <trkpt lat="45.670355" lon="10.185658">
        <ele>294.744209</ele>
        <time>2021-01-22T10:44:56.537Z</time>
      </trkpt>
      <trkpt lat="45.670470" lon="10.185854">
        <ele>294.373330</ele>
        <time>2021-01-22T10:44:58.463Z</time>
      </trkpt>
      <trkpt lat="45.670639" lon="10.186144">
        <ele>293.826114</ele>
        <time>2021-01-22T10:45:01.381Z</time>
      </trkpt>
      <trkpt lat="45.670757" lon="10.186346">
        <ele>293.444576</ele>
        <time>2021-01-22T10:45:03.524Z</time>
      </trkpt>
      <trkpt lat="45.670945" lon="10.186702">
        <ele>292.812669</ele>
        <time>2021-01-22T10:45:07.158Z</time>
      </trkpt>
      <trkpt lat="45.671080" lon="10.186959">
        <ele>292.601619</ele>
        <time>2021-01-22T10:45:09.723Z</time>
      </trkpt>
      <trkpt lat="45.671213" lon="10.187186">
        <ele>292.407164</ele>
        <time>2021-01-22T10:45:12.174Z</time>
      </trkpt>
      <trkpt lat="45.671254" lon="10.187288">
        <ele>292.329922</ele>
        <time>2021-01-22T10:45:13.158Z</time>
      </trkpt>
      <trkpt lat="45.671281" lon="10.187402">
        <ele>292.250909</ele>
        <time>2021-01-22T10:45:14.127Z</time>
      </trkpt>
      <trkpt lat="45.671295" lon="10.187484">
        <ele>292.195500</ele>
        <time>2021-01-22T10:45:14.881Z</time>
      </trkpt>
      <trkpt lat="45.671314" lon="10.187598">
        <ele>292.118569</ele>
        <time>2021-01-22T10:45:15.893Z</time>
      </trkpt>
      <trkpt lat="45.671219" lon="10.187725">
        <ele>291.996447</ele>
        <time>2021-01-22T10:45:17.456Z</time>
      </trkpt>
      <trkpt lat="45.671162" lon="10.187800">
        <ele>291.923709</ele>
        <time>2021-01-22T10:45:18.382Z</time>
      </trkpt>
      <trkpt lat="45.670984" lon="10.188037">
        <ele>291.695320</ele>
        <time>2021-01-22T10:45:21.475Z</time>
      </trkpt>
      <trkpt lat="45.670881" lon="10.188175">
        <ele>291.562776</ele>
        <time>2021-01-22T10:45:23.260Z</time>
      </trkpt>
      <trkpt lat="45.670792" lon="10.188135">
        <ele>291.475145</ele>
        <time>2021-01-22T10:45:24.695Z</time>
      </trkpt>
      <trkpt lat="45.670792" lon="10.188135">
        <ele>291.475145</ele>
        <time>2021-01-22T10:45:24.697Z</time>
      </trkpt>
      <trkpt lat="45.670714" lon="10.188103">
        <ele>291.398922</ele>
        <time>2021-01-22T10:45:25.742Z</time>
      </trkpt>
      <trkpt lat="45.670538" lon="10.188093">
        <ele>291.233460</ele>
        <time>2021-01-22T10:45:28.140Z</time>
      </trkpt>
      <trkpt lat="45.670634" lon="10.188148">
        <ele>291.136320</ele>
        <time>2021-01-22T10:45:30.381Z</time>
      </trkpt>
      <trkpt lat="45.670687" lon="10.188256">
        <ele>291.096289</ele>
        <time>2021-01-22T10:45:32.086Z</time>
      </trkpt>
      <trkpt lat="45.670733" lon="10.188395">
        <ele>291.050313</ele>
        <time>2021-01-22T10:45:34.109Z</time>
      </trkpt>
      <trkpt lat="45.670687" lon="10.188465">
        <ele>291.021588</ele>
        <time>2021-01-22T10:45:34.958Z</time>
      </trkpt>
      <trkpt lat="45.670189" lon="10.189201">
        <ele>290.715326</ele>
        <time>2021-01-22T10:45:44.401Z</time>
      </trkpt>
      <trkpt lat="45.670100" lon="10.189320">
        <ele>290.663219</ele>
        <time>2021-01-22T10:45:46.325Z</time>
      </trkpt>
      <trkpt lat="45.669864" lon="10.189638">
        <ele>290.524546</ele>
        <time>2021-01-22T10:45:50.872Z</time>
      </trkpt>
      <trkpt lat="45.669822" lon="10.189697">
        <ele>290.499368</ele>
        <time>2021-01-22T10:45:51.829Z</time>
      </trkpt>
      <trkpt lat="45.669547" lon="10.190041">
        <ele>290.311744</ele>
        <time>2021-01-22T10:45:56.748Z</time>
      </trkpt>
      <trkpt lat="45.669442" lon="10.190169">
        <ele>290.171141</ele>
        <time>2021-01-22T10:45:58.515Z</time>
      </trkpt>
      <trkpt lat="45.668472" lon="10.191321">
        <ele>288.886201</ele>
        <time>2021-01-22T10:46:13.724Z</time>
      </trkpt>
      <trkpt lat="45.668452" lon="10.191354">
        <ele>288.855084</ele>
        <time>2021-01-22T10:46:14.032Z</time>
      </trkpt>
      <trkpt lat="45.668197" lon="10.191778">
        <ele>288.462120</ele>
        <time>2021-01-22T10:46:18.632Z</time>
      </trkpt>
      <trkpt lat="45.667994" lon="10.191895">
        <ele>288.255295</ele>
        <time>2021-01-22T10:46:21.345Z</time>
      </trkpt>
      <trkpt lat="45.667892" lon="10.191935">
        <ele>288.155343</ele>
        <time>2021-01-22T10:46:22.537Z</time>
      </trkpt>
      <trkpt lat="45.667857" lon="10.191917">
        <ele>288.120195</ele>
        <time>2021-01-22T10:46:23.001Z</time>
      </trkpt>
      <trkpt lat="45.667835" lon="10.191915">
        <ele>288.099361</ele>
        <time>2021-01-22T10:46:23.280Z</time>
      </trkpt>
      <trkpt lat="45.667813" lon="10.191919">
        <ele>288.078403</ele>
        <time>2021-01-22T10:46:23.558Z</time>
      </trkpt>
      <trkpt lat="45.667786" lon="10.191934">
        <ele>288.051030</ele>
        <time>2021-01-22T10:46:23.911Z</time>
      </trkpt>
      <trkpt lat="45.667745" lon="10.191992">
        <ele>287.996545</ele>
        <time>2021-01-22T10:46:24.637Z</time>
      </trkpt>
      <trkpt lat="45.667733" lon="10.192030">
        <ele>287.969005</ele>
        <time>2021-01-22T10:46:24.991Z</time>
      </trkpt>
      <trkpt lat="45.667730" lon="10.192070">
        <ele>287.942436</ele>
        <time>2021-01-22T10:46:25.355Z</time>
      </trkpt>
      <trkpt lat="45.667734" lon="10.192111">
        <ele>287.915096</ele>
        <time>2021-01-22T10:46:25.720Z</time>
      </trkpt>
      <trkpt lat="45.667659" lon="10.192263">
        <ele>287.792209</ele>
        <time>2021-01-22T10:46:27.217Z</time>
      </trkpt>
      <trkpt lat="45.667549" lon="10.192560">
        <ele>287.570215</ele>
        <time>2021-01-22T10:46:30.224Z</time>
      </trkpt>
      <trkpt lat="45.666988" lon="10.193089">
        <ele>286.935271</ele>
        <time>2021-01-22T10:46:38.809Z</time>
      </trkpt>
      <trkpt lat="45.666525" lon="10.193647">
        <ele>286.347255</ele>
        <time>2021-01-22T10:46:46.533Z</time>
      </trkpt>
      <trkpt lat="45.666418" lon="10.193775">
        <ele>286.210976</ele>
        <time>2021-01-22T10:46:48.311Z</time>
      </trkpt>
      <trkpt lat="45.666356" lon="10.193850">
        <ele>286.131646</ele>
        <time>2021-01-22T10:46:49.311Z</time>
      </trkpt>
      <trkpt lat="45.666133" lon="10.194121">
        <ele>285.845762</ele>
        <time>2021-01-22T10:46:52.810Z</time>
      </trkpt>
      <trkpt lat="45.665483" lon="10.194912">
        <ele>285.010070</ele>
        <time>2021-01-22T10:47:02.954Z</time>
      </trkpt>
      <trkpt lat="45.665184" lon="10.195209">
        <ele>284.643598</ele>
        <time>2021-01-22T10:47:07.520Z</time>
      </trkpt>
      <trkpt lat="45.664670" lon="10.195756">
        <ele>283.998641</ele>
        <time>2021-01-22T10:47:15.564Z</time>
      </trkpt>
      <trkpt lat="45.664618" lon="10.195811">
        <ele>283.933535</ele>
        <time>2021-01-22T10:47:16.276Z</time>
      </trkpt>
      <trkpt lat="45.664538" lon="10.195896">
        <ele>283.833209</ele>
        <time>2021-01-22T10:47:17.549Z</time>
      </trkpt>
      <trkpt lat="45.664259" lon="10.196211">
        <ele>283.475384</ele>
        <time>2021-01-22T10:47:21.855Z</time>
      </trkpt>
      <trkpt lat="45.663852" lon="10.196569">
        <ele>282.802036</ele>
        <time>2021-01-22T10:47:27.689Z</time>
      </trkpt>
      <trkpt lat="45.663598" lon="10.196792">
        <ele>282.287967</ele>
        <time>2021-01-22T10:47:31.199Z</time>
      </trkpt>
      <trkpt lat="45.663517" lon="10.196874">
        <ele>282.116802</ele>
        <time>2021-01-22T10:47:32.469Z</time>
      </trkpt>
      <trkpt lat="45.663402" lon="10.196942">
        <ele>281.902149</ele>
        <time>2021-01-22T10:47:33.823Z</time>
      </trkpt>
      <trkpt lat="45.662949" lon="10.197327">
        <ele>280.993245</ele>
        <time>2021-01-22T10:47:39.916Z</time>
      </trkpt>
      <trkpt lat="45.662049" lon="10.197394">
        <ele>279.165936</ele>
        <time>2021-01-22T10:47:49.317Z</time>
      </trkpt>
      <trkpt lat="45.661260" lon="10.197511">
        <ele>277.281271</ele>
        <time>2021-01-22T10:47:57.625Z</time>
      </trkpt>
      <trkpt lat="45.660518" lon="10.197547">
        <ele>275.682604</ele>
        <time>2021-01-22T10:48:05.769Z</time>
      </trkpt>
      <trkpt lat="45.660046" lon="10.197572">
        <ele>275.061167</ele>
        <time>2021-01-22T10:48:11.020Z</time>
      </trkpt>
      <trkpt lat="45.659913" lon="10.197577">
        <ele>274.886119</ele>
        <time>2021-01-22T10:48:12.594Z</time>
      </trkpt>
      <trkpt lat="45.659747" lon="10.197554">
        <ele>274.666690</ele>
        <time>2021-01-22T10:48:14.524Z</time>
      </trkpt>
      <trkpt lat="45.659692" lon="10.197564">
        <ele>274.593745</ele>
        <time>2021-01-22T10:48:15.188Z</time>
      </trkpt>
      <trkpt lat="45.659638" lon="10.197585">
        <ele>274.520120</ele>
        <time>2021-01-22T10:48:15.860Z</time>
      </trkpt>
      <trkpt lat="45.659599" lon="10.197619">
        <ele>274.460032</ele>
        <time>2021-01-22T10:48:16.443Z</time>
      </trkpt>
      <trkpt lat="45.659571" lon="10.197679">
        <ele>274.393690</ele>
        <time>2021-01-22T10:48:17.155Z</time>
      </trkpt>
      <trkpt lat="45.659471" lon="10.197718">
        <ele>274.257319</ele>
        <time>2021-01-22T10:48:18.409Z</time>
      </trkpt>
      <trkpt lat="45.659415" lon="10.197752">
        <ele>274.177281</ele>
        <time>2021-01-22T10:48:19.173Z</time>
      </trkpt>
      <trkpt lat="45.659201" lon="10.197922">
        <ele>273.855234</ele>
        <time>2021-01-22T10:48:22.279Z</time>
      </trkpt>
      <trkpt lat="45.658588" lon="10.198155">
        <ele>273.140757</ele>
        <time>2021-01-22T10:48:30.224Z</time>
      </trkpt>
      <trkpt lat="45.658549" lon="10.198385">
        <ele>272.975306</ele>
        <time>2021-01-22T10:48:32.352Z</time>
      </trkpt>
      <trkpt lat="45.658170" lon="10.198535">
        <ele>272.581995</ele>
        <time>2021-01-22T10:48:37.298Z</time>
      </trkpt>
      <trkpt lat="45.657378" lon="10.198847">
        <ele>271.760358</ele>
        <time>2021-01-22T10:48:47.207Z</time>
      </trkpt>
      <trkpt lat="45.657302" lon="10.198880">
        <ele>271.651384</ele>
        <time>2021-01-22T10:48:48.109Z</time>
      </trkpt>
      <trkpt lat="45.656588" lon="10.199187">
        <ele>270.372853</ele>
        <time>2021-01-22T10:48:56.657Z</time>
      </trkpt>
      <trkpt lat="45.656360" lon="10.199027">
        <ele>269.937357</ele>
        <time>2021-01-22T10:48:59.452Z</time>
      </trkpt>
      <trkpt lat="45.656231" lon="10.199068">
        <ele>269.710743</ele>
        <time>2021-01-22T10:49:00.867Z</time>
      </trkpt>
      <trkpt lat="45.656080" lon="10.199110">
        <ele>269.446946</ele>
        <time>2021-01-22T10:49:02.586Z</time>
      </trkpt>
      <trkpt lat="45.655656" lon="10.199273">
        <ele>268.694040</ele>
        <time>2021-01-22T10:49:07.496Z</time>
      </trkpt>
      <trkpt lat="45.655229" lon="10.199386">
        <ele>268.186434</ele>
        <time>2021-01-22T10:49:12.333Z</time>
      </trkpt>
      <trkpt lat="45.655248" lon="10.199286">
        <ele>268.104995</ele>
        <time>2021-01-22T10:49:13.083Z</time>
      </trkpt>
      <trkpt lat="45.655344" lon="10.198928">
        <ele>267.803658</ele>
        <time>2021-01-22T10:49:16.082Z</time>
      </trkpt>
      <trkpt lat="45.655098" lon="10.197077">
        <ele>266.521660</ele>
        <time>2021-01-22T10:49:33.403Z</time>
      </trkpt>
      <trkpt lat="45.655077" lon="10.196901">
        <ele>266.476647</ele>
        <time>2021-01-22T10:49:34.795Z</time>
      </trkpt>
      <trkpt lat="45.655067" lon="10.196826">
        <ele>266.457398</ele>
        <time>2021-01-22T10:49:35.432Z</time>
      </trkpt>
      <trkpt lat="45.655011" lon="10.196459">
        <ele>266.362696</ele>
        <time>2021-01-22T10:49:39.826Z</time>
      </trkpt>
      <trkpt lat="45.654933" lon="10.196269">
        <ele>266.307145</ele>
        <time>2021-01-22T10:49:41.598Z</time>
      </trkpt>
      <trkpt lat="45.654894" lon="10.196191">
        <ele>266.282967</ele>
        <time>2021-01-22T10:49:44.409Z</time>
      </trkpt>
      <trkpt lat="45.654587" lon="10.196533">
        <ele>266.142629</ele>
        <time>2021-01-22T10:49:49.716Z</time>
      </trkpt>
      <trkpt lat="45.654375" lon="10.196739">
        <ele>266.050195</ele>
        <time>2021-01-22T10:49:52.575Z</time>
      </trkpt>
      <trkpt lat="45.653793" lon="10.197064">
        <ele>265.550992</ele>
        <time>2021-01-22T10:50:01.549Z</time>
      </trkpt>
      <trkpt lat="45.651917" lon="10.197262">
        <ele>263.661804</ele>
        <time>2021-01-22T10:50:23.581Z</time>
      </trkpt>
      <trkpt lat="45.649831" lon="10.196546">
        <ele>262.997118</ele>
        <time>2021-01-22T10:50:51.258Z</time>
      </trkpt>
      <trkpt lat="45.649752" lon="10.196514">
        <ele>263.042963</ele>
        <time>2021-01-22T10:50:52.500Z</time>
      </trkpt>
      <trkpt lat="45.649093" lon="10.196246">
        <ele>263.425508</ele>
        <time>2021-01-22T10:51:06.124Z</time>
      </trkpt>
      <trkpt lat="45.649066" lon="10.196235">
        <ele>263.441184</ele>
        <time>2021-01-22T10:51:06.661Z</time>
      </trkpt>
      <trkpt lat="45.649007" lon="10.196186">
        <ele>263.479277</ele>
        <time>2021-01-22T10:51:08.137Z</time>
      </trkpt>
      <trkpt lat="45.648987" lon="10.196169">
        <ele>263.492267</ele>
        <time>2021-01-22T10:51:08.640Z</time>
      </trkpt>
      <trkpt lat="45.648611" lon="10.195857">
        <ele>264.101781</ele>
        <time>2021-01-22T10:51:20.196Z</time>
      </trkpt>
      <trkpt lat="45.648253" lon="10.195677">
        <ele>264.716733</ele>
        <time>2021-01-22T10:51:30.006Z</time>
      </trkpt>
      <trkpt lat="45.647784" lon="10.195771">
        <ele>265.484196</ele>
        <time>2021-01-22T10:51:40.924Z</time>
      </trkpt>
      <trkpt lat="45.647474" lon="10.195565">
        <ele>266.038128</ele>
        <time>2021-01-22T10:51:47.763Z</time>
      </trkpt>
      <trkpt lat="45.647355" lon="10.195360">
        <ele>266.339998</ele>
        <time>2021-01-22T10:51:51.617Z</time>
      </trkpt>
      <trkpt lat="45.647332" lon="10.195321">
        <ele>266.397802</ele>
        <time>2021-01-22T10:51:52.071Z</time>
      </trkpt>
      <trkpt lat="45.647285" lon="10.195240">
        <ele>266.372437</ele>
        <time>2021-01-22T10:51:52.954Z</time>
      </trkpt>
      <trkpt lat="45.647243" lon="10.195194">
        <ele>266.251891</ele>
        <time>2021-01-22T10:51:53.485Z</time>
      </trkpt>
      <trkpt lat="45.647061" lon="10.195047">
        <ele>265.775585</ele>
        <time>2021-01-22T10:51:56.694Z</time>
      </trkpt>
      <trkpt lat="45.646851" lon="10.194980">
        <ele>265.285261</ele>
        <time>2021-01-22T10:51:59.077Z</time>
      </trkpt>
      <trkpt lat="45.646661" lon="10.194998">
        <ele>264.851324</ele>
        <time>2021-01-22T10:52:01.417Z</time>
      </trkpt>
      <trkpt lat="45.646180" lon="10.195066">
        <ele>263.749841</ele>
        <time>2021-01-22T10:52:06.366Z</time>
      </trkpt>
      <trkpt lat="45.645801" lon="10.195151">
        <ele>262.875593</ele>
        <time>2021-01-22T10:52:10.223Z</time>
      </trkpt>
      <trkpt lat="45.645422" lon="10.195278">
        <ele>261.839035</ele>
        <time>2021-01-22T10:52:13.993Z</time>
      </trkpt>
      <trkpt lat="45.645247" lon="10.195266">
        <ele>261.278274</ele>
        <time>2021-01-22T10:52:15.697Z</time>
      </trkpt>
      <trkpt lat="45.644792" lon="10.195178">
        <ele>259.808714</ele>
        <time>2021-01-22T10:52:20.134Z</time>
      </trkpt>
      <trkpt lat="45.644642" lon="10.195152">
        <ele>259.325101</ele>
        <time>2021-01-22T10:52:21.631Z</time>
      </trkpt>
      <trkpt lat="45.644096" lon="10.195098">
        <ele>257.573360</ele>
        <time>2021-01-22T10:52:27.265Z</time>
      </trkpt>
      <trkpt lat="45.643844" lon="10.195071">
        <ele>256.764530</ele>
        <time>2021-01-22T10:52:30.079Z</time>
      </trkpt>
      <trkpt lat="45.643650" lon="10.195048">
        <ele>256.426356</ele>
        <time>2021-01-22T10:52:32.208Z</time>
      </trkpt>
      <trkpt lat="45.643547" lon="10.195097">
        <ele>256.294231</ele>
        <time>2021-01-22T10:52:33.435Z</time>
      </trkpt>
      <trkpt lat="45.643498" lon="10.195134">
        <ele>256.226787</ele>
        <time>2021-01-22T10:52:34.128Z</time>
      </trkpt>
      <trkpt lat="45.643432" lon="10.195163">
        <ele>256.142747</ele>
        <time>2021-01-22T10:52:34.881Z</time>
      </trkpt>
      <trkpt lat="45.643053" lon="10.194932">
        <ele>255.641291</ele>
        <time>2021-01-22T10:52:39.923Z</time>
      </trkpt>
      <trkpt lat="45.642812" lon="10.194785">
        <ele>255.322385</ele>
        <time>2021-01-22T10:52:43.327Z</time>
      </trkpt>
      <trkpt lat="45.642361" lon="10.194567">
        <ele>254.742927</ele>
        <time>2021-01-22T10:52:49.132Z</time>
      </trkpt>
      <trkpt lat="45.642088" lon="10.194472">
        <ele>254.397420</ele>
        <time>2021-01-22T10:52:52.509Z</time>
      </trkpt>
      <trkpt lat="45.641965" lon="10.194407">
        <ele>254.186444</ele>
        <time>2021-01-22T10:52:54.066Z</time>
      </trkpt>
      <trkpt lat="45.641912" lon="10.194387">
        <ele>254.098253</ele>
        <time>2021-01-22T10:52:54.744Z</time>
      </trkpt>
      <trkpt lat="45.641481" lon="10.194285">
        <ele>253.395370</ele>
        <time>2021-01-22T10:53:00.150Z</time>
      </trkpt>
      <trkpt lat="45.641343" lon="10.194263">
        <ele>253.171960</ele>
        <time>2021-01-22T10:53:01.850Z</time>
      </trkpt>
      <trkpt lat="45.641160" lon="10.194255">
        <ele>252.877386</ele>
        <time>2021-01-22T10:53:04.022Z</time>
      </trkpt>
      <trkpt lat="45.640533" lon="10.194115">
        <ele>251.856360</ele>
        <time>2021-01-22T10:53:11.043Z</time>
      </trkpt>
      <trkpt lat="45.640464" lon="10.194105">
        <ele>251.744774</ele>
        <time>2021-01-22T10:53:11.825Z</time>
      </trkpt>
      <trkpt lat="45.640300" lon="10.194069">
        <ele>251.472991</ele>
        <time>2021-01-22T10:53:13.469Z</time>
      </trkpt>
      <trkpt lat="45.639968" lon="10.193997">
        <ele>250.867744</ele>
        <time>2021-01-22T10:53:16.951Z</time>
      </trkpt>
      <trkpt lat="45.639726" lon="10.193948">
        <ele>250.427207</ele>
        <time>2021-01-22T10:53:19.625Z</time>
      </trkpt>
      <trkpt lat="45.639488" lon="10.193926">
        <ele>249.997333</ele>
        <time>2021-01-22T10:53:22.132Z</time>
      </trkpt>
      <trkpt lat="45.638996" lon="10.193916">
        <ele>249.110448</ele>
        <time>2021-01-22T10:53:27.871Z</time>
      </trkpt>
      <trkpt lat="45.638947" lon="10.193877">
        <ele>249.009374</ele>
        <time>2021-01-22T10:53:28.420Z</time>
      </trkpt>
      <trkpt lat="45.638906" lon="10.193801">
        <ele>248.888402</ele>
        <time>2021-01-22T10:53:29.235Z</time>
      </trkpt>
      <trkpt lat="45.638874" lon="10.193764">
        <ele>248.814233</ele>
        <time>2021-01-22T10:53:29.772Z</time>
      </trkpt>
      <trkpt lat="45.638837" lon="10.193736">
        <ele>248.738784</ele>
        <time>2021-01-22T10:53:30.324Z</time>
      </trkpt>
      <trkpt lat="45.638798" lon="10.193718">
        <ele>248.664919</ele>
        <time>2021-01-22T10:53:30.834Z</time>
      </trkpt>
      <trkpt lat="45.638729" lon="10.193712">
        <ele>248.540322</ele>
        <time>2021-01-22T10:53:31.815Z</time>
      </trkpt>
      <trkpt lat="45.638662" lon="10.193735">
        <ele>248.416129</ele>
        <time>2021-01-22T10:53:32.588Z</time>
      </trkpt>
      <trkpt lat="45.638603" lon="10.193785">
        <ele>248.292520</ele>
        <time>2021-01-22T10:53:33.328Z</time>
      </trkpt>
      <trkpt lat="45.638538" lon="10.193804">
        <ele>248.252766</ele>
        <time>2021-01-22T10:53:34.230Z</time>
      </trkpt>
      <trkpt lat="45.638328" lon="10.193837">
        <ele>248.166869</ele>
        <time>2021-01-22T10:53:37.003Z</time>
      </trkpt>
      <trkpt lat="45.638209" lon="10.193818">
        <ele>248.118184</ele>
        <time>2021-01-22T10:53:38.358Z</time>
      </trkpt>
      <trkpt lat="45.637974" lon="10.193699">
        <ele>248.016824</ele>
        <time>2021-01-22T10:53:41.757Z</time>
      </trkpt>
      <trkpt lat="45.637858" lon="10.193648">
        <ele>247.967481</ele>
        <time>2021-01-22T10:53:43.320Z</time>
      </trkpt>
      <trkpt lat="45.637738" lon="10.193627">
        <ele>247.918327</ele>
        <time>2021-01-22T10:53:45.304Z</time>
      </trkpt>
      <trkpt lat="45.637561" lon="10.193597">
        <ele>247.845857</ele>
        <time>2021-01-22T10:53:47.532Z</time>
      </trkpt>
      <trkpt lat="45.636620" lon="10.193478">
        <ele>247.350341</ele>
        <time>2021-01-22T10:54:02.394Z</time>
      </trkpt>
      <trkpt lat="45.636147" lon="10.193550">
        <ele>246.897138</ele>
        <time>2021-01-22T10:54:08.564Z</time>
      </trkpt>
      <trkpt lat="45.635844" lon="10.193677">
        <ele>246.596308</ele>
        <time>2021-01-22T10:54:12.394Z</time>
      </trkpt>
      <trkpt lat="45.635681" lon="10.193774">
        <ele>246.428100</ele>
        <time>2021-01-22T10:54:14.451Z</time>
      </trkpt>
      <trkpt lat="45.635475" lon="10.193920">
        <ele>246.209052</ele>
        <time>2021-01-22T10:54:17.135Z</time>
      </trkpt>
      <trkpt lat="45.634892" lon="10.194317">
        <ele>245.374182</ele>
        <time>2021-01-22T10:54:24.510Z</time>
      </trkpt>
      <trkpt lat="45.634609" lon="10.194501">
        <ele>244.803697</ele>
        <time>2021-01-22T10:54:27.963Z</time>
      </trkpt>
      <trkpt lat="45.634501" lon="10.194569">
        <ele>244.587148</ele>
        <time>2021-01-22T10:54:29.251Z</time>
      </trkpt>
      <trkpt lat="45.634162" lon="10.194784">
        <ele>243.906618</ele>
        <time>2021-01-22T10:54:33.328Z</time>
      </trkpt>
      <trkpt lat="45.634017" lon="10.194812">
        <ele>243.638113</ele>
        <time>2021-01-22T10:54:34.966Z</time>
      </trkpt>
      <trkpt lat="45.633924" lon="10.194869">
        <ele>243.452436</ele>
        <time>2021-01-22T10:54:36.134Z</time>
      </trkpt>
      <trkpt lat="45.633811" lon="10.194960">
        <ele>243.214452</ele>
        <time>2021-01-22T10:54:37.518Z</time>
      </trkpt>
      <trkpt lat="45.633524" lon="10.195264">
        <ele>242.559047</ele>
        <time>2021-01-22T10:54:41.491Z</time>
      </trkpt>
      <trkpt lat="45.633408" lon="10.195432">
        <ele>242.282773</ele>
        <time>2021-01-22T10:54:43.354Z</time>
      </trkpt>
      <trkpt lat="45.633265" lon="10.195671">
        <ele>241.918426</ele>
        <time>2021-01-22T10:54:45.776Z</time>
      </trkpt>
      <trkpt lat="45.633129" lon="10.195972">
        <ele>241.503323</ele>
        <time>2021-01-22T10:54:48.549Z</time>
      </trkpt>
      <trkpt lat="45.633059" lon="10.196100">
        <ele>241.315101</ele>
        <time>2021-01-22T10:54:49.762Z</time>
      </trkpt>
      <trkpt lat="45.632695" lon="10.197253">
        <ele>239.849761</ele>
        <time>2021-01-22T10:54:59.638Z</time>
      </trkpt>
      <trkpt lat="45.632587" lon="10.197478">
        <ele>239.547578</ele>
        <time>2021-01-22T10:55:02.047Z</time>
      </trkpt>
      <trkpt lat="45.632469" lon="10.197641">
        <ele>239.495602</ele>
        <time>2021-01-22T10:55:04.130Z</time>
      </trkpt>
      <trkpt lat="45.632325" lon="10.197722">
        <ele>239.446580</ele>
        <time>2021-01-22T10:55:06.276Z</time>
      </trkpt>
      <trkpt lat="45.632221" lon="10.197835">
        <ele>239.405200</ele>
        <time>2021-01-22T10:55:08.229Z</time>
      </trkpt>
      <trkpt lat="45.632112" lon="10.197935">
        <ele>239.364173</ele>
        <time>2021-01-22T10:55:10.011Z</time>
      </trkpt>
      <trkpt lat="45.632069" lon="10.197945">
        <ele>239.350371</ele>
        <time>2021-01-22T10:55:10.711Z</time>
      </trkpt>
      <trkpt lat="45.632029" lon="10.197968">
        <ele>239.336713</ele>
        <time>2021-01-22T10:55:11.458Z</time>
      </trkpt>
      <trkpt lat="45.631975" lon="10.198029">
        <ele>239.314912</ele>
        <time>2021-01-22T10:55:12.740Z</time>
      </trkpt>
      <trkpt lat="45.631938" lon="10.198113">
        <ele>239.292919</ele>
        <time>2021-01-22T10:55:13.785Z</time>
      </trkpt>
      <trkpt lat="45.631924" lon="10.198210">
        <ele>239.270977</ele>
        <time>2021-01-22T10:55:14.701Z</time>
      </trkpt>
      <trkpt lat="45.631929" lon="10.198288">
        <ele>239.253625</ele>
        <time>2021-01-22T10:55:15.425Z</time>
      </trkpt>
      <trkpt lat="45.631949" lon="10.198362">
        <ele>239.236050</ele>
        <time>2021-01-22T10:55:16.195Z</time>
      </trkpt>
      <trkpt lat="45.631982" lon="10.198425">
        <ele>239.218611</ele>
        <time>2021-01-22T10:55:17.031Z</time>
      </trkpt>
      <trkpt lat="45.631984" lon="10.198575">
        <ele>239.185375</ele>
        <time>2021-01-22T10:55:18.790Z</time>
      </trkpt>
      <trkpt lat="45.631964" lon="10.198774">
        <ele>239.140837</ele>
        <time>2021-01-22T10:55:20.647Z</time>
      </trkpt>
      <trkpt lat="45.631917" lon="10.198901">
        <ele>239.109005</ele>
        <time>2021-01-22T10:55:22.094Z</time>
      </trkpt>
      <trkpt lat="45.631633" lon="10.199160">
        <ele>239.002293</ele>
        <time>2021-01-22T10:55:26.577Z</time>
      </trkpt>
      <trkpt lat="45.631465" lon="10.199290">
        <ele>238.918237</ele>
        <time>2021-01-22T10:55:29.293Z</time>
      </trkpt>
      <trkpt lat="45.631427" lon="10.199424">
        <ele>238.866999</ele>
        <time>2021-01-22T10:55:30.685Z</time>
      </trkpt>
      <trkpt lat="45.631420" lon="10.199510">
        <ele>238.836320</ele>
        <time>2021-01-22T10:55:31.554Z</time>
      </trkpt>
      <trkpt lat="45.631426" lon="10.199687">
        <ele>238.773528</ele>
        <time>2021-01-22T10:55:33.467Z</time>
      </trkpt>
      <trkpt lat="45.631289" lon="10.199663">
        <ele>238.703587</ele>
        <time>2021-01-22T10:55:35.576Z</time>
      </trkpt>
      <trkpt lat="45.631115" lon="10.199633">
        <ele>238.614778</ele>
        <time>2021-01-22T10:55:38.276Z</time>
      </trkpt>
      <trkpt lat="45.630999" lon="10.199684">
        <ele>238.553282</ele>
        <time>2021-01-22T10:55:39.975Z</time>
      </trkpt>
      <trkpt lat="45.630833" lon="10.199925">
        <ele>238.433414</ele>
        <time>2021-01-22T10:55:43.348Z</time>
      </trkpt>
      <trkpt lat="45.630778" lon="10.199978">
        <ele>238.399807</ele>
        <time>2021-01-22T10:55:44.125Z</time>
      </trkpt>
      <trkpt lat="45.630050" lon="10.200153">
        <ele>238.026358</ele>
        <time>2021-01-22T10:55:53.144Z</time>
      </trkpt>
      <trkpt lat="45.629860" lon="10.200097">
        <ele>237.929457</ele>
        <time>2021-01-22T10:55:55.457Z</time>
      </trkpt>
      <trkpt lat="45.629595" lon="10.199511">
        <ele>237.685693</ele>
        <time>2021-01-22T10:56:01.279Z</time>
      </trkpt>
      <trkpt lat="45.629362" lon="10.199449">
        <ele>237.567310</ele>
        <time>2021-01-22T10:56:04.274Z</time>
      </trkpt>
      <trkpt lat="45.627999" lon="10.200096">
        <ele>237.467374</ele>
        <time>2021-01-22T10:56:26.688Z</time>
      </trkpt>
      <trkpt lat="45.627791" lon="10.200410">
        <ele>237.606677</ele>
        <time>2021-01-22T10:56:31.547Z</time>
      </trkpt>
      <trkpt lat="45.627652" lon="10.200856">
        <ele>237.763947</ele>
        <time>2021-01-22T10:56:37.259Z</time>
      </trkpt>
      <trkpt lat="45.627605" lon="10.200935">
        <ele>237.797353</ele>
        <time>2021-01-22T10:56:38.970Z</time>
      </trkpt>
      <trkpt lat="45.627526" lon="10.201035">
        <ele>237.845946</ele>
        <time>2021-01-22T10:56:40.692Z</time>
      </trkpt>
      <trkpt lat="45.627147" lon="10.201157">
        <ele>238.030830</ele>
        <time>2021-01-22T10:56:47.552Z</time>
      </trkpt>
      <trkpt lat="45.627026" lon="10.201190">
        <ele>238.100935</ele>
        <time>2021-01-22T10:56:49.568Z</time>
      </trkpt>
      <trkpt lat="45.626722" lon="10.201291">
        <ele>238.278556</ele>
        <time>2021-01-22T10:56:55.570Z</time>
      </trkpt>
      <trkpt lat="45.626341" lon="10.201397">
        <ele>238.499457</ele>
        <time>2021-01-22T10:57:02.916Z</time>
      </trkpt>
      <trkpt lat="45.626068" lon="10.201488">
        <ele>238.658992</ele>
        <time>2021-01-22T10:57:08.220Z</time>
      </trkpt>
      <trkpt lat="45.625853" lon="10.201554">
        <ele>238.784141</ele>
        <time>2021-01-22T10:57:11.633Z</time>
      </trkpt>
      <trkpt lat="45.625687" lon="10.201608">
        <ele>238.881029</ele>
        <time>2021-01-22T10:57:14.186Z</time>
      </trkpt>
      <trkpt lat="45.625400" lon="10.201793">
        <ele>238.968634</ele>
        <time>2021-01-22T10:57:18.802Z</time>
      </trkpt>
      <trkpt lat="45.625059" lon="10.201956">
        <ele>238.666480</ele>
        <time>2021-01-22T10:57:23.840Z</time>
      </trkpt>
      <trkpt lat="45.624730" lon="10.202004">
        <ele>238.388562</ele>
        <time>2021-01-22T10:57:28.327Z</time>
      </trkpt>
      <trkpt lat="45.624365" lon="10.202009">
        <ele>238.081813</ele>
        <time>2021-01-22T10:57:32.964Z</time>
      </trkpt>
      <trkpt lat="45.624261" lon="10.202015">
        <ele>237.994343</ele>
        <time>2021-01-22T10:57:34.180Z</time>
      </trkpt>
      <trkpt lat="45.623143" lon="10.202052">
        <ele>236.811081</ele>
        <time>2021-01-22T10:57:46.771Z</time>
      </trkpt>
      <trkpt lat="45.622734" lon="10.202069">
        <ele>236.284084</ele>
        <time>2021-01-22T10:57:51.414Z</time>
      </trkpt>
      <trkpt lat="45.622577" lon="10.202078">
        <ele>236.081713</ele>
        <time>2021-01-22T10:57:53.282Z</time>
      </trkpt>
      <trkpt lat="45.622230" lon="10.202121">
        <ele>235.633116</ele>
        <time>2021-01-22T10:57:57.515Z</time>
      </trkpt>
      <trkpt lat="45.622114" lon="10.202090">
        <ele>235.481126</ele>
        <time>2021-01-22T10:57:58.952Z</time>
      </trkpt>
      <trkpt lat="45.622037" lon="10.202110">
        <ele>235.380330</ele>
        <time>2021-01-22T10:57:59.958Z</time>
      </trkpt>
      <trkpt lat="45.621600" lon="10.202227">
        <ele>235.194194</ele>
        <time>2021-01-22T10:58:05.720Z</time>
      </trkpt>
      <trkpt lat="45.621027" lon="10.202381">
        <ele>235.192391</ele>
        <time>2021-01-22T10:58:13.982Z</time>
      </trkpt>
      <trkpt lat="45.619814" lon="10.202706">
        <ele>235.254300</ele>
        <time>2021-01-22T10:58:34.319Z</time>
      </trkpt>
      <trkpt lat="45.619717" lon="10.202735">
        <ele>235.274391</ele>
        <time>2021-01-22T10:58:35.938Z</time>
      </trkpt>
      <trkpt lat="45.619026" lon="10.202940">
        <ele>235.417471</ele>
        <time>2021-01-22T10:58:47.569Z</time>
      </trkpt>
      <trkpt lat="45.618851" lon="10.202995">
        <ele>235.453798</ele>
        <time>2021-01-22T10:58:50.434Z</time>
      </trkpt>
      <trkpt lat="45.618743" lon="10.203029">
        <ele>235.476219</ele>
        <time>2021-01-22T10:58:52.323Z</time>
      </trkpt>
      <trkpt lat="45.618441" lon="10.203121">
        <ele>235.538822</ele>
        <time>2021-01-22T10:58:57.142Z</time>
      </trkpt>
      <trkpt lat="45.618401" lon="10.203131">
        <ele>235.547055</ele>
        <time>2021-01-22T10:58:57.748Z</time>
      </trkpt>
      <trkpt lat="45.617268" lon="10.203179">
        <ele>234.083034</ele>
        <time>2021-01-22T10:59:11.720Z</time>
      </trkpt>
      <trkpt lat="45.617002" lon="10.203148">
        <ele>233.725483</ele>
        <time>2021-01-22T10:59:14.575Z</time>
      </trkpt>
      <trkpt lat="45.616926" lon="10.203129">
        <ele>233.622119</ele>
        <time>2021-01-22T10:59:15.396Z</time>
      </trkpt>
      <trkpt lat="45.616866" lon="10.203115">
        <ele>233.540671</ele>
        <time>2021-01-22T10:59:16.164Z</time>
      </trkpt>
      <trkpt lat="45.616624" lon="10.203057">
        <ele>233.211932</ele>
        <time>2021-01-22T10:59:18.668Z</time>
      </trkpt>
      <trkpt lat="45.616597" lon="10.203207">
        <ele>233.039401</ele>
        <time>2021-01-22T10:59:19.942Z</time>
      </trkpt>
      <trkpt lat="45.616278" lon="10.203288">
        <ele>232.452405</ele>
        <time>2021-01-22T10:59:23.328Z</time>
      </trkpt>
      <trkpt lat="45.616098" lon="10.203351">
        <ele>232.116658</ele>
        <time>2021-01-22T10:59:25.551Z</time>
      </trkpt>
      <trkpt lat="45.615934" lon="10.203390">
        <ele>231.815447</ele>
        <time>2021-01-22T10:59:27.307Z</time>
      </trkpt>
      <trkpt lat="45.615772" lon="10.203450">
        <ele>231.512253</ele>
        <time>2021-01-22T10:59:29.426Z</time>
      </trkpt>
      <trkpt lat="45.615622" lon="10.203573">
        <ele>231.198960</ele>
        <time>2021-01-22T10:59:31.259Z</time>
      </trkpt>
      <trkpt lat="45.615560" lon="10.203658">
        <ele>231.043330</ele>
        <time>2021-01-22T10:59:32.379Z</time>
      </trkpt>
      <trkpt lat="45.615491" lon="10.203791">
        <ele>230.833482</ele>
        <time>2021-01-22T10:59:33.884Z</time>
      </trkpt>
      <trkpt lat="45.615288" lon="10.204226">
        <ele>230.170791</ele>
        <time>2021-01-22T10:59:38.339Z</time>
      </trkpt>
      <trkpt lat="45.615156" lon="10.204456">
        <ele>229.829866</ele>
        <time>2021-01-22T10:59:40.428Z</time>
      </trkpt>
      <trkpt lat="45.614993" lon="10.204740">
        <ele>229.546898</ele>
        <time>2021-01-22T10:59:43.248Z</time>
      </trkpt>
      <trkpt lat="45.614608" lon="10.205258">
        <ele>228.964713</ele>
        <time>2021-01-22T10:59:49.336Z</time>
      </trkpt>
      <trkpt lat="45.614349" lon="10.205465">
        <ele>228.637961</ele>
        <time>2021-01-22T10:59:53.269Z</time>
      </trkpt>
      <trkpt lat="45.614255" lon="10.205538">
        <ele>228.520163</ele>
        <time>2021-01-22T10:59:55.435Z</time>
      </trkpt>
      <trkpt lat="45.614193" lon="10.205512">
        <ele>228.449012</ele>
        <time>2021-01-22T10:59:56.110Z</time>
      </trkpt>
      <trkpt lat="45.614150" lon="10.205481">
        <ele>228.395981</ele>
        <time>2021-01-22T10:59:57.262Z</time>
      </trkpt>
      <trkpt lat="45.614064" lon="10.205349">
        <ele>228.257033</ele>
        <time>2021-01-22T10:59:58.734Z</time>
      </trkpt>
      <trkpt lat="45.613940" lon="10.205573">
        <ele>228.036997</ele>
        <time>2021-01-22T11:00:01.607Z</time>
      </trkpt>
      <trkpt lat="45.613805" lon="10.205791">
        <ele>227.693772</ele>
        <time>2021-01-22T11:00:04.338Z</time>
      </trkpt>
      <trkpt lat="45.613466" lon="10.206221">
        <ele>226.552491</ele>
        <time>2021-01-22T11:00:09.722Z</time>
      </trkpt>
      <trkpt lat="45.613085" lon="10.206687">
        <ele>225.289799</ele>
        <time>2021-01-22T11:00:14.773Z</time>
      </trkpt>
      <trkpt lat="45.612916" lon="10.206870">
        <ele>224.755907</ele>
        <time>2021-01-22T11:00:16.870Z</time>
      </trkpt>
      <trkpt lat="45.612472" lon="10.207348">
        <ele>223.344438</ele>
        <time>2021-01-22T11:00:22.669Z</time>
      </trkpt>
      <trkpt lat="45.612252" lon="10.207509">
        <ele>222.346309</ele>
        <time>2021-01-22T11:00:25.079Z</time>
      </trkpt>
      <trkpt lat="45.612081" lon="10.207644">
        <ele>221.557408</ele>
        <time>2021-01-22T11:00:27.030Z</time>
      </trkpt>
      <trkpt lat="45.611720" lon="10.207809">
        <ele>220.026790</ele>
        <time>2021-01-22T11:00:30.694Z</time>
      </trkpt>
      <trkpt lat="45.611239" lon="10.207893">
        <ele>218.069810</ele>
        <time>2021-01-22T11:00:35.422Z</time>
      </trkpt>
      <trkpt lat="45.611225" lon="10.207895">
        <ele>218.012988</ele>
        <time>2021-01-22T11:00:35.541Z</time>
      </trkpt>
      <trkpt lat="45.610971" lon="10.207944">
        <ele>216.977900</ele>
        <time>2021-01-22T11:00:38.035Z</time>
      </trkpt>
      <trkpt lat="45.610830" lon="10.207971">
        <ele>216.403379</ele>
        <time>2021-01-22T11:00:39.341Z</time>
      </trkpt>
      <trkpt lat="45.610551" lon="10.208035">
        <ele>215.632702</ele>
        <time>2021-01-22T11:00:42.212Z</time>
      </trkpt>
      <trkpt lat="45.610392" lon="10.208071">
        <ele>215.266081</ele>
        <time>2021-01-22T11:00:43.757Z</time>
      </trkpt>
      <trkpt lat="45.610108" lon="10.208022">
        <ele>214.614604</ele>
        <time>2021-01-22T11:00:46.684Z</time>
      </trkpt>
      <trkpt lat="45.610006" lon="10.207948">
        <ele>214.354106</ele>
        <time>2021-01-22T11:00:47.967Z</time>
      </trkpt>
      <trkpt lat="45.609978" lon="10.207884">
        <ele>214.233847</ele>
        <time>2021-01-22T11:00:48.597Z</time>
      </trkpt>
      <trkpt lat="45.609889" lon="10.207802">
        <ele>213.992706</ele>
        <time>2021-01-22T11:00:49.877Z</time>
      </trkpt>
      <trkpt lat="45.609836" lon="10.207792">
        <ele>213.870957</ele>
        <time>2021-01-22T11:00:50.343Z</time>
      </trkpt>
      <trkpt lat="45.609781" lon="10.207806">
        <ele>213.743729</ele>
        <time>2021-01-22T11:00:51.007Z</time>
      </trkpt>
      <trkpt lat="45.609691" lon="10.207899">
        <ele>213.490820</ele>
        <time>2021-01-22T11:00:52.344Z</time>
      </trkpt>
      <trkpt lat="45.609664" lon="10.207970">
        <ele>213.362074</ele>
        <time>2021-01-22T11:00:53.047Z</time>
      </trkpt>
      <trkpt lat="45.609654" lon="10.208055">
        <ele>213.224755</ele>
        <time>2021-01-22T11:00:53.832Z</time>
      </trkpt>
      <trkpt lat="45.609664" lon="10.208140">
        <ele>213.087436</ele>
        <time>2021-01-22T11:00:54.563Z</time>
      </trkpt>
      <trkpt lat="45.609621" lon="10.208349">
        <ele>212.740367</ele>
        <time>2021-01-22T11:00:56.416Z</time>
      </trkpt>
      <trkpt lat="45.609536" lon="10.208506">
        <ele>212.424085</ele>
        <time>2021-01-22T11:00:58.274Z</time>
      </trkpt>
      <trkpt lat="45.609428" lon="10.208588">
        <ele>212.145584</ele>
        <time>2021-01-22T11:00:59.801Z</time>
      </trkpt>
      <trkpt lat="45.609351" lon="10.208599">
        <ele>212.001181</ele>
        <time>2021-01-22T11:01:00.744Z</time>
      </trkpt>
      <trkpt lat="45.609194" lon="10.208679">
        <ele>211.883058</ele>
        <time>2021-01-22T11:01:02.975Z</time>
      </trkpt>
      <trkpt lat="45.609141" lon="10.208688">
        <ele>211.845232</ele>
        <time>2021-01-22T11:01:03.650Z</time>
      </trkpt>
      <trkpt lat="45.609083" lon="10.208711">
        <ele>211.802575</ele>
        <time>2021-01-22T11:01:04.415Z</time>
      </trkpt>
      <trkpt lat="45.609000" lon="10.208759">
        <ele>211.739122</ele>
        <time>2021-01-22T11:01:05.544Z</time>
      </trkpt>
      <trkpt lat="45.608858" lon="10.208715">
        <ele>211.636149</ele>
        <time>2021-01-22T11:01:07.482Z</time>
      </trkpt>
      <trkpt lat="45.608842" lon="10.208784">
        <ele>211.600110</ele>
        <time>2021-01-22T11:01:08.131Z</time>
      </trkpt>
      <trkpt lat="45.608821" lon="10.208882">
        <ele>211.549296</ele>
        <time>2021-01-22T11:01:09.053Z</time>
      </trkpt>
      <trkpt lat="45.608747" lon="10.208922">
        <ele>211.493228</ele>
        <time>2021-01-22T11:01:10.116Z</time>
      </trkpt>
      <trkpt lat="45.608417" lon="10.209241">
        <ele>211.210902</ele>
        <time>2021-01-22T11:01:15.250Z</time>
      </trkpt>
      <trkpt lat="45.608367" lon="10.209326">
        <ele>211.155842</ele>
        <time>2021-01-22T11:01:16.266Z</time>
      </trkpt>
      <trkpt lat="45.607918" lon="10.209765">
        <ele>210.770321</ele>
        <time>2021-01-22T11:01:22.993Z</time>
      </trkpt>
      <trkpt lat="45.607833" lon="10.209769">
        <ele>210.712616</ele>
        <time>2021-01-22T11:01:24.121Z</time>
      </trkpt>
      <trkpt lat="45.607497" lon="10.210147">
        <ele>210.434832</ele>
        <time>2021-01-22T11:01:29.646Z</time>
      </trkpt>
      <trkpt lat="45.607492" lon="10.210303">
        <ele>210.363857</ele>
        <time>2021-01-22T11:01:30.977Z</time>
      </trkpt>
      <trkpt lat="45.607239" lon="10.210605">
        <ele>210.149718</ele>
        <time>2021-01-22T11:01:35.212Z</time>
      </trkpt>
      <trkpt lat="45.607171" lon="10.210686">
        <ele>210.092212</ele>
        <time>2021-01-22T11:01:36.299Z</time>
      </trkpt>
      <trkpt lat="45.606713" lon="10.211456">
        <ele>209.632857</ele>
        <time>2021-01-22T11:01:45.625Z</time>
      </trkpt>
      <trkpt lat="45.606350" lon="10.212065">
        <ele>209.333594</ele>
        <time>2021-01-22T11:01:53.109Z</time>
      </trkpt>
      <trkpt lat="45.606080" lon="10.212518">
        <ele>209.120553</ele>
        <time>2021-01-22T11:01:58.782Z</time>
      </trkpt>
      <trkpt lat="45.605813" lon="10.212881">
        <ele>208.931997</ele>
        <time>2021-01-22T11:02:03.803Z</time>
      </trkpt>
      <trkpt lat="45.605705" lon="10.213005">
        <ele>208.861113</ele>
        <time>2021-01-22T11:02:05.711Z</time>
      </trkpt>
      <trkpt lat="45.605675" lon="10.213041">
        <ele>208.841069</ele>
        <time>2021-01-22T11:02:06.226Z</time>
      </trkpt>
      <trkpt lat="45.605661" lon="10.213059">
        <ele>208.831434</ele>
        <time>2021-01-22T11:02:06.480Z</time>
      </trkpt>
      <trkpt lat="45.605447" lon="10.213212">
        <ele>208.708994</ele>
        <time>2021-01-22T11:02:09.641Z</time>
      </trkpt>
      <trkpt lat="45.605392" lon="10.213251">
        <ele>208.677578</ele>
        <time>2021-01-22T11:02:10.457Z</time>
      </trkpt>
      <trkpt lat="45.604770" lon="10.213839">
        <ele>207.818448</ele>
        <time>2021-01-22T11:02:19.647Z</time>
      </trkpt>
      <trkpt lat="45.603633" lon="10.214782">
        <ele>206.229178</ele>
        <time>2021-01-22T11:02:34.867Z</time>
      </trkpt>
      <trkpt lat="45.603621" lon="10.214792">
        <ele>206.211600</ele>
        <time>2021-01-22T11:02:34.986Z</time>
      </trkpt>
      <trkpt lat="45.602421" lon="10.216052">
        <ele>204.327328</ele>
        <time>2021-01-22T11:02:52.545Z</time>
      </trkpt>
      <trkpt lat="45.602233" lon="10.216176">
        <ele>204.099992</ele>
        <time>2021-01-22T11:02:55.314Z</time>
      </trkpt>
      <trkpt lat="45.602188" lon="10.216191">
        <ele>204.054563</ele>
        <time>2021-01-22T11:02:55.822Z</time>
      </trkpt>
      <trkpt lat="45.602170" lon="10.216145">
        <ele>204.018310</ele>
        <time>2021-01-22T11:02:56.284Z</time>
      </trkpt>
      <trkpt lat="45.602067" lon="10.216118">
        <ele>203.915356</ele>
        <time>2021-01-22T11:02:57.666Z</time>
      </trkpt>
      <trkpt lat="45.602039" lon="10.216153">
        <ele>203.878786</ele>
        <time>2021-01-22T11:02:58.127Z</time>
      </trkpt>
      <trkpt lat="45.602027" lon="10.216184">
        <ele>203.854417</ele>
        <time>2021-01-22T11:02:58.501Z</time>
      </trkpt>
      <trkpt lat="45.602034" lon="10.216288">
        <ele>203.782550</ele>
        <time>2021-01-22T11:02:59.434Z</time>
      </trkpt>
      <trkpt lat="45.602050" lon="10.216315">
        <ele>203.758212</ele>
        <time>2021-01-22T11:02:59.807Z</time>
      </trkpt>
      <trkpt lat="45.602021" lon="10.216409">
        <ele>203.687547</ele>
        <time>2021-01-22T11:03:00.627Z</time>
      </trkpt>
      <trkpt lat="45.602005" lon="10.216445">
        <ele>203.658210</ele>
        <time>2021-01-22T11:03:00.989Z</time>
      </trkpt>
      <trkpt lat="45.601978" lon="10.216491">
        <ele>203.616909</ele>
        <time>2021-01-22T11:03:01.556Z</time>
      </trkpt>
      <trkpt lat="45.601919" lon="10.216572">
        <ele>203.536480</ele>
        <time>2021-01-22T11:03:02.583Z</time>
      </trkpt>
      <trkpt lat="45.601689" lon="10.216820">
        <ele>203.253227</ele>
        <time>2021-01-22T11:03:06.135Z</time>
      </trkpt>
      <trkpt lat="45.601193" lon="10.217359">
        <ele>202.640648</ele>
        <time>2021-01-22T11:03:13.612Z</time>
      </trkpt>
      <trkpt lat="45.600684" lon="10.217961">
        <ele>201.932000</ele>
        <time>2021-01-22T11:03:21.848Z</time>
      </trkpt>
      <trkpt lat="45.600180" lon="10.218463">
        <ele>201.250651</ele>
        <time>2021-01-22T11:03:29.329Z</time>
      </trkpt>
      <trkpt lat="45.599333" lon="10.219404">
        <ele>200.067543</ele>
        <time>2021-01-22T11:03:41.990Z</time>
      </trkpt>
      <trkpt lat="45.599020" lon="10.219793">
        <ele>199.615326</ele>
        <time>2021-01-22T11:03:46.871Z</time>
      </trkpt>
      <trkpt lat="45.598963" lon="10.219862">
        <ele>199.533888</ele>
        <time>2021-01-22T11:03:47.769Z</time>
      </trkpt>
      <trkpt lat="45.598805" lon="10.220051">
        <ele>199.309258</ele>
        <time>2021-01-22T11:03:50.269Z</time>
      </trkpt>
      <trkpt lat="45.598533" lon="10.220381">
        <ele>198.920275</ele>
        <time>2021-01-22T11:03:54.619Z</time>
      </trkpt>
      <trkpt lat="45.598126" lon="10.220940">
        <ele>198.394150</ele>
        <time>2021-01-22T11:04:01.756Z</time>
      </trkpt>
      <trkpt lat="45.597865" lon="10.221298">
        <ele>198.183455</ele>
        <time>2021-01-22T11:04:06.428Z</time>
      </trkpt>
      <trkpt lat="45.597602" lon="10.221695">
        <ele>197.960660</ele>
        <time>2021-01-22T11:04:11.287Z</time>
      </trkpt>
      <trkpt lat="45.597461" lon="10.221909">
        <ele>197.840871</ele>
        <time>2021-01-22T11:04:13.984Z</time>
      </trkpt>
      <trkpt lat="45.597166" lon="10.222353">
        <ele>197.591352</ele>
        <time>2021-01-22T11:04:19.726Z</time>
      </trkpt>
      <trkpt lat="45.597070" lon="10.222485">
        <ele>197.513764</ele>
        <time>2021-01-22T11:04:21.661Z</time>
      </trkpt>
      <trkpt lat="45.597001" lon="10.222568">
        <ele>197.461236</ele>
        <time>2021-01-22T11:04:22.918Z</time>
      </trkpt>
      <trkpt lat="45.596926" lon="10.222656">
        <ele>197.409573</ele>
        <time>2021-01-22T11:04:24.265Z</time>
      </trkpt>
      <trkpt lat="45.595854" lon="10.223677">
        <ele>196.741569</ele>
        <time>2021-01-22T11:04:41.980Z</time>
      </trkpt>
      <trkpt lat="45.595207" lon="10.224228">
        <ele>196.268050</ele>
        <time>2021-01-22T11:04:51.145Z</time>
      </trkpt>
      <trkpt lat="45.594013" lon="10.224606">
        <ele>195.315555</ele>
        <time>2021-01-22T11:05:06.463Z</time>
      </trkpt>
      <trkpt lat="45.593512" lon="10.224876">
        <ele>195.006819</ele>
        <time>2021-01-22T11:05:13.522Z</time>
      </trkpt>
      <trkpt lat="45.593426" lon="10.224918">
        <ele>194.971376</ele>
        <time>2021-01-22T11:05:14.819Z</time>
      </trkpt>
      <trkpt lat="45.593332" lon="10.225049">
        <ele>194.920172</ele>
        <time>2021-01-22T11:05:16.538Z</time>
      </trkpt>
      <trkpt lat="45.593268" lon="10.225107">
        <ele>194.890618</ele>
        <time>2021-01-22T11:05:17.637Z</time>
      </trkpt>
      <trkpt lat="45.593220" lon="10.225106">
        <ele>194.871896</ele>
        <time>2021-01-22T11:05:18.244Z</time>
      </trkpt>
      <trkpt lat="45.593051" lon="10.225218">
        <ele>194.799247</ele>
        <time>2021-01-22T11:05:20.738Z</time>
      </trkpt>
      <trkpt lat="45.593021" lon="10.225271">
        <ele>194.780644</ele>
        <time>2021-01-22T11:05:21.366Z</time>
      </trkpt>
      <trkpt lat="45.592924" lon="10.225342">
        <ele>194.738142</ele>
        <time>2021-01-22T11:05:22.872Z</time>
      </trkpt>
      <trkpt lat="45.592689" lon="10.225422">
        <ele>194.643931</ele>
        <time>2021-01-22T11:05:26.092Z</time>
      </trkpt>
      <trkpt lat="45.592578" lon="10.225428">
        <ele>194.600612</ele>
        <time>2021-01-22T11:05:27.668Z</time>
      </trkpt>
      <trkpt lat="45.592533" lon="10.225430">
        <ele>194.583054</ele>
        <time>2021-01-22T11:05:28.241Z</time>
      </trkpt>
      <trkpt lat="45.591822" lon="10.225410">
        <ele>194.159766</ele>
        <time>2021-01-22T11:05:38.502Z</time>
      </trkpt>
      <trkpt lat="45.591443" lon="10.225389">
        <ele>193.812430</ele>
        <time>2021-01-22T11:05:43.502Z</time>
      </trkpt>
      <trkpt lat="45.591332" lon="10.225382">
        <ele>193.710681</ele>
        <time>2021-01-22T11:05:44.882Z</time>
      </trkpt>
      <trkpt lat="45.590996" lon="10.225218">
        <ele>193.385531</ele>
        <time>2021-01-22T11:05:49.176Z</time>
      </trkpt>
      <trkpt lat="45.590926" lon="10.225192">
        <ele>193.319298</ele>
        <time>2021-01-22T11:05:50.065Z</time>
      </trkpt>
      <trkpt lat="45.590809" lon="10.225164">
        <ele>193.210661</ele>
        <time>2021-01-22T11:05:51.481Z</time>
      </trkpt>
      <trkpt lat="45.590186" lon="10.225099">
        <ele>192.532355</ele>
        <time>2021-01-22T11:05:58.686Z</time>
      </trkpt>
      <trkpt lat="45.589745" lon="10.225058">
        <ele>191.792248</ele>
        <time>2021-01-22T11:06:03.733Z</time>
      </trkpt>
      <trkpt lat="45.589591" lon="10.225040">
        <ele>191.533482</ele>
        <time>2021-01-22T11:06:05.422Z</time>
      </trkpt>
      <trkpt lat="45.589368" lon="10.224994">
        <ele>191.156151</ele>
        <time>2021-01-22T11:06:07.928Z</time>
      </trkpt>
      <trkpt lat="45.588794" lon="10.224925">
        <ele>190.191474</ele>
        <time>2021-01-22T11:06:14.290Z</time>
      </trkpt>
      <trkpt lat="45.588286" lon="10.224818">
        <ele>189.467352</ele>
        <time>2021-01-22T11:06:20.130Z</time>
      </trkpt>
      <trkpt lat="45.588075" lon="10.224777">
        <ele>189.225212</ele>
        <time>2021-01-22T11:06:22.602Z</time>
      </trkpt>
      <trkpt lat="45.588008" lon="10.224760">
        <ele>189.147833</ele>
        <time>2021-01-22T11:06:23.448Z</time>
      </trkpt>
      <trkpt lat="45.587928" lon="10.224746">
        <ele>189.056184</ele>
        <time>2021-01-22T11:06:24.438Z</time>
      </trkpt>
      <trkpt lat="45.587830" lon="10.224728">
        <ele>188.943829</ele>
        <time>2021-01-22T11:06:25.618Z</time>
      </trkpt>
      <trkpt lat="45.587488" lon="10.224720">
        <ele>188.554882</ele>
        <time>2021-01-22T11:06:29.820Z</time>
      </trkpt>
      <trkpt lat="45.587353" lon="10.224729">
        <ele>188.401204</ele>
        <time>2021-01-22T11:06:31.489Z</time>
      </trkpt>
      <trkpt lat="45.586711" lon="10.224846">
        <ele>187.662431</ele>
        <time>2021-01-22T11:06:39.608Z</time>
      </trkpt>
      <trkpt lat="45.585864" lon="10.225031">
        <ele>186.625618</ele>
        <time>2021-01-22T11:06:50.211Z</time>
      </trkpt>
      <trkpt lat="45.585255" lon="10.225743">
        <ele>185.673463</ele>
        <time>2021-01-22T11:06:59.345Z</time>
      </trkpt>
      <trkpt lat="45.584650" lon="10.225968">
        <ele>184.711309</ele>
        <time>2021-01-22T11:07:06.328Z</time>
      </trkpt>
      <trkpt lat="45.584107" lon="10.226385">
        <ele>183.716267</ele>
        <time>2021-01-22T11:07:13.292Z</time>
      </trkpt>
      <trkpt lat="45.583887" lon="10.226555">
        <ele>183.312556</ele>
        <time>2021-01-22T11:07:16.155Z</time>
      </trkpt>
      <trkpt lat="45.583481" lon="10.227014">
        <ele>182.545275</ele>
        <time>2021-01-22T11:07:22.064Z</time>
      </trkpt>
      <trkpt lat="45.582998" lon="10.227584">
        <ele>181.986631</ele>
        <time>2021-01-22T11:07:29.582Z</time>
      </trkpt>
      <trkpt lat="45.582833" lon="10.227707">
        <ele>181.820666</ele>
        <time>2021-01-22T11:07:31.859Z</time>
      </trkpt>
      <trkpt lat="45.582184" lon="10.228396">
        <ele>181.099635</ele>
        <time>2021-01-22T11:07:42.545Z</time>
      </trkpt>
      <trkpt lat="45.582029" lon="10.228543">
        <ele>180.969867</ele>
        <time>2021-01-22T11:07:44.925Z</time>
      </trkpt>
      <trkpt lat="45.581739" lon="10.228804">
        <ele>180.784298</ele>
        <time>2021-01-22T11:07:49.403Z</time>
      </trkpt>
      <trkpt lat="45.581547" lon="10.228934">
        <ele>180.669260</ele>
        <time>2021-01-22T11:07:52.124Z</time>
      </trkpt>
      <trkpt lat="45.581173" lon="10.229049">
        <ele>180.462128</ele>
        <time>2021-01-22T11:07:57.087Z</time>
      </trkpt>
      <trkpt lat="45.581056" lon="10.229041">
        <ele>180.398707</ele>
        <time>2021-01-22T11:07:58.632Z</time>
      </trkpt>
      <trkpt lat="45.581019" lon="10.228974">
        <ele>180.366366</ele>
        <time>2021-01-22T11:07:59.407Z</time>
      </trkpt>
      <trkpt lat="45.580974" lon="10.228934">
        <ele>180.337671</ele>
        <time>2021-01-22T11:08:00.135Z</time>
      </trkpt>
      <trkpt lat="45.580937" lon="10.228918">
        <ele>180.316741</ele>
        <time>2021-01-22T11:08:00.691Z</time>
      </trkpt>
      <trkpt lat="45.580879" lon="10.228919">
        <ele>180.285335</ele>
        <time>2021-01-22T11:08:01.522Z</time>
      </trkpt>
      <trkpt lat="45.580821" lon="10.228951">
        <ele>180.251672</ele>
        <time>2021-01-22T11:08:02.285Z</time>
      </trkpt>
      <trkpt lat="45.580773" lon="10.229016">
        <ele>180.215865</ele>
        <time>2021-01-22T11:08:03.159Z</time>
      </trkpt>
      <trkpt lat="45.580748" lon="10.229091">
        <ele>180.184385</ele>
        <time>2021-01-22T11:08:03.945Z</time>
      </trkpt>
      <trkpt lat="45.580680" lon="10.229177">
        <ele>180.135215</ele>
        <time>2021-01-22T11:08:05.194Z</time>
      </trkpt>
      <trkpt lat="45.580331" lon="10.229425">
        <ele>180.051866</ele>
        <time>2021-01-22T11:08:10.593Z</time>
      </trkpt>
      <trkpt lat="45.580229" lon="10.229433">
        <ele>180.051866</ele>
        <time>2021-01-22T11:08:11.945Z</time>
      </trkpt>
      <trkpt lat="45.580196" lon="10.229409">
        <ele>180.051866</ele>
        <time>2021-01-22T11:08:12.473Z</time>
      </trkpt>
      <trkpt lat="45.580180" lon="10.229367">
        <ele>180.051866</ele>
        <time>2021-01-22T11:08:12.871Z</time>
      </trkpt>
      <trkpt lat="45.580176" lon="10.229285">
        <ele>180.051866</ele>
        <time>2021-01-22T11:08:13.688Z</time>
      </trkpt>
      <trkpt lat="45.580190" lon="10.229191">
        <ele>180.051866</ele>
        <time>2021-01-22T11:08:14.527Z</time>
      </trkpt>
      <trkpt lat="45.580220" lon="10.229109">
        <ele>180.051866</ele>
        <time>2021-01-22T11:08:15.404Z</time>
      </trkpt>
      <trkpt lat="45.580308" lon="10.229043">
        <ele>180.051866</ele>
        <time>2021-01-22T11:08:16.692Z</time>
      </trkpt>
      <trkpt lat="45.580465" lon="10.228986">
        <ele>180.051866</ele>
        <time>2021-01-22T11:08:18.803Z</time>
      </trkpt>
      <trkpt lat="45.580567" lon="10.228962">
        <ele>180.051866</ele>
        <time>2021-01-22T11:08:20.166Z</time>
      </trkpt>
      <trkpt lat="45.580657" lon="10.228938">
        <ele>180.051866</ele>
        <time>2021-01-22T11:08:21.340Z</time>
      </trkpt>
      <trkpt lat="45.580697" lon="10.228873">
        <ele>180.051866</ele>
        <time>2021-01-22T11:08:22.090Z</time>
      </trkpt>
      <trkpt lat="45.580740" lon="10.228391">
        <ele>180.051866</ele>
        <time>2021-01-22T11:08:26.817Z</time>
      </trkpt>
      <trkpt lat="45.580741" lon="10.228370">
        <ele>180.051866</ele>
        <time>2021-01-22T11:08:26.970Z</time>
      </trkpt>
      <trkpt lat="45.580719" lon="10.228311">
        <ele>180.051866</ele>
        <time>2021-01-22T11:08:27.620Z</time>
      </trkpt>
      <trkpt lat="45.580638" lon="10.228259">
        <ele>180.051866</ele>
        <time>2021-01-22T11:08:28.877Z</time>
      </trkpt>
      <trkpt lat="45.580561" lon="10.228320">
        <ele>180.051866</ele>
        <time>2021-01-22T11:08:30.211Z</time>
      </trkpt>
      <trkpt lat="45.580548" lon="10.228360">
        <ele>180.051866</ele>
        <time>2021-01-22T11:08:30.606Z</time>
      </trkpt>
      <trkpt lat="45.580548" lon="10.228360">
        <ele>180.051866</ele>
        <time>2021-01-22T11:08:30.643Z</time>
      </trkpt>
    </trkseg>
  </trk>
</gpx>